Time,TemperatureF,DewpointF,PressureIn,WindDirection,WindDirectionDegrees,WindSpeedMPH,WindSpeedGustMPH,Humidity,HourlyPrecipIn,Conditions,Clouds,dailyrainin,SoftwareType,DateUTC
2013-02-07 00:00:00,21.9,18.6,29.82,ENE,75,5.0,7.0,87,0.00,,,0.01,VWS V14.01,2013-02-07 06:00:00,
2013-02-07 00:01:00,21.9,18.9,29.82,ENE,75,2.0,5.0,88,0.00,,,0.00,VWS V14.01,2013-02-07 06:01:00,
2013-02-07 00:02:00,21.9,18.9,29.82,ENE,75,0.0,5.0,88,0.00,,,0.00,VWS V14.01,2013-02-07 06:02:00,
2013-02-07 00:03:00,21.9,18.9,29.82,ENE,75,0.0,5.0,88,0.00,,,0.00,VWS V14.01,2013-02-07 06:03:00,
2013-02-07 00:04:00,21.9,18.9,29.82,ENE,75,0.0,5.0,88,0.00,,,0.00,VWS V14.01,2013-02-07 06:04:00,
2013-02-07 00:05:00,21.9,18.6,29.82,ENE,75,0.0,5.0,87,0.00,,,0.00,VWS V14.01,2013-02-07 06:05:00,
2013-02-07 00:06:00,21.9,18.6,29.82,ENE,75,0.0,5.0,87,0.00,,,0.00,VWS V14.01,2013-02-07 06:06:00,
2013-02-07 00:07:00,21.8,18.5,29.82,ENE,75,0.0,5.0,87,0.00,,,0.00,VWS V14.01,2013-02-07 06:07:00,
2013-02-07 00:08:00,21.8,18.5,29.82,ENE,75,0.0,5.0,87,0.00,,,0.00,VWS V14.01,2013-02-07 06:08:00,
2013-02-07 00:09:00,21.8,18.5,29.82,ENE,75,2.0,5.0,87,0.00,,,0.00,VWS V14.01,2013-02-07 06:09:00,
2013-02-07 00:10:00,21.8,18.5,29.82,ENE,75,0.0,5.0,87,0.00,,,0.00,VWS V14.01,2013-02-07 06:10:00,
2013-02-07 00:11:00,21.8,18.8,29.82,ENE,75,1.0,5.0,88,0.00,,,0.00,VWS V14.01,2013-02-07 06:11:00,
2013-02-07 00:12:00,21.8,18.8,29.82,ENE,75,1.0,5.0,88,0.00,,,0.00,VWS V14.01,2013-02-07 06:12:00,
2013-02-07 00:13:00,21.8,18.8,29.82,ENE,75,0.0,5.0,88,0.00,,,0.00,VWS V14.01,2013-02-07 06:13:00,
2013-02-07 00:14:00,21.8,18.8,29.82,ENE,75,0.0,5.0,88,0.00,,,0.00,VWS V14.01,2013-02-07 06:14:00,
2013-02-07 00:15:00,21.8,18.8,29.82,ENE,75,3.0,5.0,88,0.00,,,0.00,VWS V14.01,2013-02-07 06:15:00,
2013-02-07 00:16:00,21.8,18.8,29.82,ENE,75,0.0,5.0,88,0.00,,,0.00,VWS V14.01,2013-02-07 06:16:00,
2013-02-07 00:17:00,21.8,18.8,29.82,ENE,75,2.0,5.0,88,0.00,,,0.00,VWS V14.01,2013-02-07 06:17:00,
2013-02-07 00:18:00,21.8,18.8,29.82,ENE,75,2.0,5.0,88,0.00,,,0.00,VWS V14.01,2013-02-07 06:18:00,
2013-02-07 00:19:00,21.8,18.8,29.82,ENE,75,0.0,5.0,88,0.00,,,0.00,VWS V14.01,2013-02-07 06:19:00,
2013-02-07 00:20:00,21.6,18.6,29.82,ENE,75,0.0,5.0,88,0.00,,,0.00,VWS V14.01,2013-02-07 06:20:00,
2013-02-07 00:21:00,21.6,18.6,29.82,ENE,75,2.0,5.0,88,0.00,,,0.00,VWS V14.01,2013-02-07 06:21:00,
2013-02-07 00:22:00,21.6,18.6,29.82,ENE,75,0.0,5.0,88,0.00,,,0.00,VWS V14.01,2013-02-07 06:22:00,
2013-02-07 00:23:00,21.6,18.6,29.82,ENE,75,0.0,5.0,88,0.00,,,0.00,VWS V14.01,2013-02-07 06:23:00,
2013-02-07 00:24:00,21.6,18.6,29.82,ENE,75,0.0,5.0,88,0.00,,,0.00,VWS V14.01,2013-02-07 06:24:00,
2013-02-07 00:25:00,21.6,18.6,29.82,ENE,75,0.0,5.0,88,0.00,,,0.00,VWS V14.01,2013-02-07 06:25:00,
2013-02-07 00:26:00,21.6,18.6,29.82,ENE,75,0.0,5.0,88,0.00,,,0.00,VWS V14.01,2013-02-07 06:26:00,
2013-02-07 00:27:00,21.6,18.6,29.82,ENE,75,0.0,5.0,88,0.00,,,0.00,VWS V14.01,2013-02-07 06:27:00,
2013-02-07 00:28:00,21.6,18.6,29.82,ENE,75,3.0,5.0,88,0.00,,,0.00,VWS V14.01,2013-02-07 06:28:00,
2013-02-07 00:29:00,21.6,18.6,29.82,ENE,75,3.0,6.0,88,0.00,,,0.00,VWS V14.01,2013-02-07 06:29:00,
2013-02-07 00:30:00,21.6,18.6,29.83,ENE,75,1.0,6.0,88,0.00,,,0.00,VWS V14.01,2013-02-07 06:30:00,
2013-02-07 00:31:00,21.6,18.6,29.83,ENE,75,3.0,4.0,88,0.00,,,0.00,VWS V14.01,2013-02-07 06:31:00,
2013-02-07 00:32:00,21.8,18.8,29.83,ENE,75,3.0,7.0,88,0.00,,,0.00,VWS V14.01,2013-02-07 06:32:00,
2013-02-07 00:33:00,21.8,18.8,29.83,ENE,75,2.0,7.0,88,0.00,,,0.00,VWS V14.01,2013-02-07 06:33:00,
2013-02-07 00:34:00,21.8,18.8,29.83,ENE,75,0.0,7.0,88,0.00,,,0.00,VWS V14.01,2013-02-07 06:34:00,
2013-02-07 00:35:00,21.8,18.8,29.83,ENE,75,3.0,7.0,88,0.00,,,0.00,VWS V14.01,2013-02-07 06:35:00,
2013-02-07 00:36:00,21.8,18.8,29.83,ENE,75,0.0,7.0,88,0.00,,,0.00,VWS V14.01,2013-02-07 06:36:00,
2013-02-07 00:37:00,21.8,18.8,29.83,ENE,75,0.0,7.0,88,0.00,,,0.00,VWS V14.01,2013-02-07 06:37:00,
2013-02-07 00:38:00,21.6,18.6,29.83,ENE,75,1.0,7.0,88,0.00,,,0.00,VWS V14.01,2013-02-07 06:38:00,
2013-02-07 00:39:00,21.6,18.6,29.83,ENE,75,3.0,7.0,88,0.00,,,0.00,VWS V14.01,2013-02-07 06:39:00,
2013-02-07 00:40:00,21.6,18.6,29.83,ENE,75,3.0,7.0,88,0.00,,,0.00,VWS V14.01,2013-02-07 06:40:00,
2013-02-07 00:41:00,21.6,18.6,29.83,ENE,75,5.0,7.0,88,0.00,,,0.00,VWS V14.01,2013-02-07 06:41:00,
2013-02-07 00:42:00,21.4,18.4,29.83,ENE,72,0.0,8.0,88,0.00,,,0.00,VWS V14.01,2013-02-07 06:42:00,
2013-02-07 00:43:00,21.4,18.4,29.83,ENE,72,3.0,8.0,88,0.00,,,0.00,VWS V14.01,2013-02-07 06:43:00,
2013-02-07 00:44:00,21.4,18.4,29.83,ENE,72,1.0,8.0,88,0.00,,,0.00,VWS V14.01,2013-02-07 06:44:00,
2013-02-07 00:45:00,21.4,18.4,29.83,ENE,72,0.0,8.0,88,0.00,,,0.00,VWS V14.01,2013-02-07 06:45:00,
2013-02-07 00:46:00,21.3,18.3,29.83,ENE,57,6.0,8.0,88,0.00,,,0.00,VWS V14.01,2013-02-07 06:46:00,
2013-02-07 00:47:00,21.3,18.3,29.83,ENE,57,2.0,8.0,88,0.00,,,0.00,VWS V14.01,2013-02-07 06:47:00,
2013-02-07 00:48:00,21.3,18.3,29.83,ENE,57,1.0,8.0,88,0.00,,,0.00,VWS V14.01,2013-02-07 06:48:00,
2013-02-07 00:49:00,21.3,18.3,29.83,ENE,57,5.0,8.0,88,0.00,,,0.00,VWS V14.01,2013-02-07 06:49:00,
2013-02-07 00:50:00,21.3,18.3,29.83,ENE,57,6.0,8.0,88,0.00,,,0.00,VWS V14.01,2013-02-07 06:50:00,
2013-02-07 00:51:00,21.1,18.1,29.83,ENE,57,3.0,8.0,88,0.00,,,0.00,VWS V14.01,2013-02-07 06:51:00,
2013-02-07 00:52:00,21.1,18.1,29.83,ENE,57,5.0,8.0,88,0.00,,,0.00,VWS V14.01,2013-02-07 06:52:00,
2013-02-07 00:53:00,21.1,18.1,29.83,ENE,57,6.0,11.0,88,0.00,,,0.00,VWS V14.01,2013-02-07 06:53:00,
2013-02-07 00:54:00,21.1,18.1,29.83,NE,54,8.0,11.0,88,0.00,,,0.00,VWS V14.01,2013-02-07 06:54:00,
2013-02-07 00:55:00,21.1,18.1,29.83,NE,54,1.0,11.0,88,0.00,,,0.00,VWS V14.01,2013-02-07 06:55:00,
2013-02-07 00:56:00,21.1,18.1,29.83,NE,54,2.0,11.0,88,0.00,,,0.00,VWS V14.01,2013-02-07 06:56:00,
2013-02-07 00:57:00,21.1,18.1,29.83,NE,54,8.0,11.0,88,0.00,,,0.00,VWS V14.01,2013-02-07 06:57:00,
2013-02-07 00:58:00,21.1,18.1,29.83,NE,54,3.0,11.0,88,0.00,,,0.00,VWS V14.01,2013-02-07 06:58:00,
2013-02-07 00:59:00,21.1,18.1,29.83,NE,54,4.0,11.0,88,0.00,,,0.00,VWS V14.01,2013-02-07 06:59:00,
2013-02-07 01:00:00,21.1,18.1,29.83,NE,54,6.0,11.0,88,0.00,,,0.00,VWS V14.01,2013-02-07 07:00:00,
2013-02-07 01:01:00,21.3,18.3,29.83,NE,53,8.0,12.0,88,0.00,,,0.00,VWS V14.01,2013-02-07 07:01:00,
2013-02-07 01:02:00,21.3,18.3,29.83,NE,53,10.0,12.0,88,0.00,,,0.00,VWS V14.01,2013-02-07 07:02:00,
2013-02-07 01:03:00,21.3,18.3,29.83,ENE,57,6.0,12.0,88,0.00,,,0.00,VWS V14.01,2013-02-07 07:03:00,
2013-02-07 01:04:00,21.3,18.3,29.83,ENE,57,7.0,12.0,88,0.00,,,0.00,VWS V14.01,2013-02-07 07:04:00,
2013-02-07 01:05:00,21.3,18.3,29.83,NE,55,6.0,12.0,88,0.00,,,0.00,VWS V14.01,2013-02-07 07:05:00,
2013-02-07 01:06:00,21.3,18.3,29.83,NE,55,5.0,12.0,88,0.00,,,0.00,VWS V14.01,2013-02-07 07:06:00,
2013-02-07 01:07:00,21.3,18.3,29.83,NE,55,5.0,12.0,88,0.00,,,0.00,VWS V14.01,2013-02-07 07:07:00,
2013-02-07 01:08:00,21.3,18.3,29.83,ENE,57,9.0,12.0,88,0.00,,,0.00,VWS V14.01,2013-02-07 07:08:00,
2013-02-07 01:09:00,21.3,18.3,29.83,NE,54,7.0,12.0,88,0.00,,,0.00,VWS V14.01,2013-02-07 07:09:00,
2013-02-07 01:10:00,21.3,18.3,29.83,NE,54,7.0,12.0,88,0.00,,,0.00,VWS V14.01,2013-02-07 07:10:00,
2013-02-07 01:11:00,21.3,18.3,29.83,NE,54,6.0,12.0,88,0.00,,,0.00,VWS V14.01,2013-02-07 07:11:00,
2013-02-07 01:12:00,21.3,18.3,29.83,NE,54,3.0,12.0,88,0.00,,,0.00,VWS V14.01,2013-02-07 07:12:00,
2013-02-07 01:13:00,21.4,18.4,29.83,NE,55,5.0,12.0,88,0.00,,,0.00,VWS V14.01,2013-02-07 07:13:00,
2013-02-07 01:14:00,21.4,18.4,29.83,NE,54,7.0,12.0,88,0.00,,,0.00,VWS V14.01,2013-02-07 07:14:00,
2013-02-07 01:15:00,21.4,18.4,29.83,NE,54,6.0,12.0,88,0.00,,,0.00,VWS V14.01,2013-02-07 07:15:00,
2013-02-07 01:16:00,21.4,18.4,29.83,NE,54,3.0,12.0,88,0.00,,,0.00,VWS V14.01,2013-02-07 07:16:00,
2013-02-07 01:17:00,21.4,18.4,29.83,NE,53,10.0,12.0,88,0.00,,,0.00,VWS V14.01,2013-02-07 07:17:00,
2013-02-07 01:18:00,21.6,18.6,29.83,NE,53,3.0,12.0,88,0.00,,,0.00,VWS V14.01,2013-02-07 07:18:00,
2013-02-07 01:19:00,21.6,18.6,29.83,NE,54,9.0,12.0,88,0.00,,,0.00,VWS V14.01,2013-02-07 07:19:00,
2013-02-07 01:20:00,21.6,18.6,29.83,NE,53,3.0,12.0,88,0.00,,,0.00,VWS V14.01,2013-02-07 07:20:00,
2013-02-07 01:21:00,21.6,18.6,29.83,NE,53,0.0,12.0,88,0.00,,,0.00,VWS V14.01,2013-02-07 07:21:00,
2013-02-07 01:22:00,21.8,18.8,29.83,NE,53,8.0,12.0,88,0.00,,,0.00,VWS V14.01,2013-02-07 07:22:00,
2013-02-07 01:23:00,21.8,18.8,29.83,NE,53,11.0,12.0,88,0.00,,,0.00,VWS V14.01,2013-02-07 07:23:00,
2013-02-07 01:24:00,21.8,18.8,29.83,NE,53,3.0,12.0,88,0.00,,,0.00,VWS V14.01,2013-02-07 07:24:00,
2013-02-07 01:25:00,21.9,18.9,29.83,NE,53,7.0,12.0,88,0.00,,,0.00,VWS V14.01,2013-02-07 07:25:00,
2013-02-07 01:26:00,21.9,18.9,29.83,NE,53,5.0,12.0,88,0.00,,,0.00,VWS V14.01,2013-02-07 07:26:00,
2013-02-07 01:27:00,21.9,18.9,29.83,NE,51,6.0,12.0,88,0.00,,,0.00,VWS V14.01,2013-02-07 07:27:00,
2013-02-07 01:28:00,21.9,18.9,29.83,NE,51,5.0,12.0,88,0.00,,,0.00,VWS V14.01,2013-02-07 07:28:00,
2013-02-07 01:29:00,22.1,19.1,29.83,NE,51,5.0,12.0,88,0.00,,,0.00,VWS V14.01,2013-02-07 07:29:00,
2013-02-07 01:30:00,22.1,19.1,29.83,NE,53,5.0,12.0,88,0.00,,,0.00,VWS V14.01,2013-02-07 07:30:00,
2013-02-07 01:31:00,22.1,19.1,29.83,NE,53,7.0,7.0,88,0.00,,,0.00,VWS V14.01,2013-02-07 07:31:00,
2013-02-07 01:32:00,22.1,19.1,29.83,NE,53,10.0,10.0,88,0.00,,,0.00,VWS V14.01,2013-02-07 07:32:00,
2013-02-07 01:33:00,22.2,19.2,29.83,NE,53,7.0,10.0,88,0.00,,,0.00,VWS V14.01,2013-02-07 07:33:00,
2013-02-07 01:34:00,22.2,19.2,29.83,NE,53,7.0,11.0,88,0.00,,,0.00,VWS V14.01,2013-02-07 07:34:00,
2013-02-07 01:35:00,22.2,19.2,29.83,NE,53,7.0,11.0,88,0.00,,,0.00,VWS V14.01,2013-02-07 07:35:00,
2013-02-07 01:36:00,22.2,19.2,29.83,NE,53,8.0,11.0,88,0.00,,,0.00,VWS V14.01,2013-02-07 07:36:00,
2013-02-07 01:37:00,22.4,19.4,29.83,NE,54,5.0,11.0,88,0.00,,,0.00,VWS V14.01,2013-02-07 07:37:00,
2013-02-07 01:38:00,22.4,19.4,29.83,NE,54,6.0,11.0,88,0.00,,,0.00,VWS V14.01,2013-02-07 07:38:00,
2013-02-07 01:39:00,22.4,19.4,29.83,NE,54,7.0,11.0,88,0.00,,,0.00,VWS V14.01,2013-02-07 07:39:00,
2013-02-07 01:40:00,22.4,19.4,29.83,NE,54,4.0,11.0,88,0.00,,,0.00,VWS V14.01,2013-02-07 07:40:00,
2013-02-07 01:41:00,22.4,19.4,29.83,NE,54,3.0,11.0,88,0.00,,,0.00,VWS V14.01,2013-02-07 07:41:00,
2013-02-07 01:42:00,22.5,19.5,29.83,NE,54,7.0,11.0,88,0.00,,,0.00,VWS V14.01,2013-02-07 07:42:00,
2013-02-07 01:43:00,22.5,19.5,29.83,NE,54,2.0,11.0,88,0.00,,,0.00,VWS V14.01,2013-02-07 07:43:00,
2013-02-07 01:44:00,22.5,19.5,29.83,NE,55,3.0,11.0,88,0.00,,,0.00,VWS V14.01,2013-02-07 07:44:00,
2013-02-07 01:45:00,22.5,19.5,29.83,NE,55,4.0,11.0,88,0.00,,,0.00,VWS V14.01,2013-02-07 07:45:00,
2013-02-07 01:46:00,22.7,19.7,29.83,NE,55,6.0,11.0,88,0.00,,,0.00,VWS V14.01,2013-02-07 07:46:00,
2013-02-07 01:47:00,22.7,19.7,29.83,NE,55,2.0,11.0,88,0.00,,,0.00,VWS V14.01,2013-02-07 07:47:00,
2013-02-07 01:48:00,22.7,19.7,29.83,NE,55,3.0,11.0,88,0.00,,,0.00,VWS V14.01,2013-02-07 07:48:00,
2013-02-07 01:49:00,22.7,19.7,29.83,NE,51,10.0,11.0,88,0.00,,,0.00,VWS V14.01,2013-02-07 07:49:00,
2013-02-07 01:50:00,22.9,19.9,29.83,NE,51,7.0,11.0,88,0.00,,,0.00,VWS V14.01,2013-02-07 07:50:00,
2013-02-07 01:51:00,22.9,19.6,29.83,NE,51,6.0,11.0,87,0.00,,,0.00,VWS V14.01,2013-02-07 07:51:00,
2013-02-07 01:52:00,22.9,19.6,29.83,NE,51,7.0,11.0,87,0.00,,,0.00,VWS V14.01,2013-02-07 07:52:00,
2013-02-07 01:53:00,22.9,19.6,29.83,NE,51,9.0,11.0,87,0.00,,,0.00,VWS V14.01,2013-02-07 07:53:00,
2013-02-07 01:54:00,22.9,19.6,29.83,NE,51,7.0,11.0,87,0.00,,,0.00,VWS V14.01,2013-02-07 07:54:00,
2013-02-07 01:55:00,22.9,19.6,29.83,NE,50,7.0,11.0,87,0.00,,,0.00,VWS V14.01,2013-02-07 07:55:00,
2013-02-07 01:56:00,23.0,19.7,29.83,NE,50,7.0,11.0,87,0.00,,,0.00,VWS V14.01,2013-02-07 07:56:00,
2013-02-07 01:57:00,23.0,19.7,29.83,NE,51,7.0,11.0,87,0.00,,,0.00,VWS V14.01,2013-02-07 07:57:00,
2013-02-07 01:58:00,23.0,19.7,29.83,NE,51,8.0,11.0,87,0.00,,,0.00,VWS V14.01,2013-02-07 07:58:00,
2013-02-07 01:59:00,23.0,19.7,29.83,NE,51,5.0,11.0,87,0.00,,,0.00,VWS V14.01,2013-02-07 07:59:00,
2013-02-07 02:00:00,23.0,19.7,29.84,NE,55,7.0,11.0,87,0.00,,,0.00,VWS V14.01,2013-02-07 08:00:00,
2013-02-07 02:01:00,23.0,19.7,29.84,NE,55,5.0,8.0,87,0.00,,,0.00,VWS V14.01,2013-02-07 08:01:00,
2013-02-07 02:02:00,23.0,19.7,29.84,ENE,57,8.0,10.0,87,0.00,,,0.00,VWS V14.01,2013-02-07 08:02:00,
2013-02-07 02:03:00,23.0,19.7,29.84,NE,53,3.0,12.0,87,0.00,,,0.00,VWS V14.01,2013-02-07 08:03:00,
2013-02-07 02:04:00,23.2,19.9,29.84,NE,53,7.0,12.0,87,0.00,,,0.00,VWS V14.01,2013-02-07 08:04:00,
2013-02-07 02:05:00,23.2,19.9,29.84,NE,53,4.0,12.0,87,0.00,,,0.00,VWS V14.01,2013-02-07 08:05:00,
2013-02-07 02:06:00,23.2,19.9,29.84,NE,53,7.0,12.0,87,0.00,,,0.00,VWS V14.01,2013-02-07 08:06:00,
2013-02-07 02:07:00,23.2,19.9,29.84,NE,54,8.0,12.0,87,0.00,,,0.00,VWS V14.01,2013-02-07 08:07:00,
2013-02-07 02:08:00,23.2,19.9,29.84,NE,54,6.0,12.0,87,0.00,,,0.00,VWS V14.01,2013-02-07 08:08:00,
2013-02-07 02:09:00,23.2,19.9,29.84,NE,54,7.0,12.0,87,0.00,,,0.00,VWS V14.01,2013-02-07 08:09:00,
2013-02-07 02:10:00,23.2,19.9,29.84,NE,54,7.0,12.0,87,0.00,,,0.00,VWS V14.01,2013-02-07 08:10:00,
2013-02-07 02:11:00,23.2,19.9,29.84,NE,54,9.0,12.0,87,0.00,,,0.00,VWS V14.01,2013-02-07 08:11:00,
2013-02-07 02:12:00,23.2,19.9,29.84,NE,54,5.0,12.0,87,0.00,,,0.00,VWS V14.01,2013-02-07 08:12:00,
2013-02-07 02:13:00,23.3,20.0,29.84,NE,54,6.0,12.0,87,0.00,,,0.00,VWS V14.01,2013-02-07 08:13:00,
2013-02-07 02:14:00,23.3,20.0,29.84,NE,54,7.0,12.0,87,0.00,,,0.00,VWS V14.01,2013-02-07 08:14:00,
2013-02-07 02:15:00,23.3,20.0,29.84,NE,53,10.0,12.0,87,0.00,,,0.00,VWS V14.01,2013-02-07 08:15:00,
2013-02-07 02:16:00,23.3,20.0,29.84,NE,53,9.0,12.0,87,0.00,,,0.00,VWS V14.01,2013-02-07 08:16:00,
2013-02-07 02:17:00,23.3,20.0,29.84,NE,48,11.0,12.0,87,0.00,,,0.00,VWS V14.01,2013-02-07 08:17:00,
2013-02-07 02:18:00,23.3,20.0,29.84,NE,51,7.0,13.0,87,0.00,,,0.00,VWS V14.01,2013-02-07 08:18:00,
2013-02-07 02:19:00,23.5,20.2,29.84,NE,50,7.0,13.0,87,0.00,,,0.00,VWS V14.01,2013-02-07 08:19:00,
2013-02-07 02:20:00,23.5,20.2,29.84,NE,50,2.0,13.0,87,0.00,,,0.00,VWS V14.01,2013-02-07 08:20:00,
2013-02-07 02:21:00,23.5,20.2,29.84,NE,50,5.0,13.0,87,0.00,,,0.00,VWS V14.01,2013-02-07 08:21:00,
2013-02-07 02:22:00,23.5,20.2,29.84,NE,50,5.0,13.0,87,0.00,,,0.00,VWS V14.01,2013-02-07 08:22:00,
2013-02-07 02:23:00,23.5,20.2,29.84,NE,48,3.0,13.0,87,0.00,,,0.00,VWS V14.01,2013-02-07 08:23:00,
2013-02-07 02:24:00,23.6,20.3,29.84,NE,48,1.0,13.0,87,0.00,,,0.00,VWS V14.01,2013-02-07 08:24:00,
2013-02-07 02:25:00,23.6,20.3,29.84,NE,48,7.0,13.0,87,0.00,,,0.00,VWS V14.01,2013-02-07 08:25:00,
2013-02-07 02:26:00,23.6,20.3,29.84,NE,48,5.0,13.0,87,0.00,,,0.00,VWS V14.01,2013-02-07 08:26:00,
2013-02-07 02:27:00,23.6,20.3,29.84,NE,48,3.0,13.0,87,0.00,,,0.00,VWS V14.01,2013-02-07 08:27:00,
2013-02-07 02:28:00,23.6,20.3,29.84,NE,48,1.0,13.0,87,0.00,,,0.00,VWS V14.01,2013-02-07 08:28:00,
2013-02-07 02:29:00,23.6,20.3,29.84,NE,48,3.0,13.0,87,0.00,,,0.00,VWS V14.01,2013-02-07 08:29:00,
2013-02-07 02:30:00,23.8,20.5,29.84,NE,48,6.0,13.0,87,0.00,,,0.00,VWS V14.01,2013-02-07 08:30:00,
2013-02-07 02:31:00,23.8,20.5,29.84,NE,47,2.0,7.0,87,0.00,,,0.00,VWS V14.01,2013-02-07 08:31:00,
2013-02-07 02:32:00,23.8,20.5,29.84,NE,47,6.0,8.0,87,0.00,,,0.00,VWS V14.01,2013-02-07 08:32:00,
2013-02-07 02:33:00,23.8,20.5,29.84,NE,47,6.0,8.0,87,0.00,,,0.00,VWS V14.01,2013-02-07 08:33:00,
2013-02-07 02:34:00,23.8,20.5,29.84,NE,47,5.0,8.0,87,0.00,,,0.00,VWS V14.01,2013-02-07 08:34:00,
2013-02-07 02:35:00,23.9,20.9,29.84,NE,47,6.0,8.0,88,0.00,,,0.00,VWS V14.01,2013-02-07 08:35:00,
2013-02-07 02:36:00,23.9,20.6,29.84,NE,47,1.0,8.0,87,0.00,,,0.00,VWS V14.01,2013-02-07 08:36:00,
2013-02-07 02:37:00,23.9,20.6,29.84,NE,47,8.0,8.0,87,0.00,,,0.00,VWS V14.01,2013-02-07 08:37:00,
2013-02-07 02:38:00,23.9,20.6,29.84,NE,47,8.0,10.0,87,0.00,,,0.00,VWS V14.01,2013-02-07 08:38:00,
2013-02-07 02:39:00,23.9,20.6,29.84,NE,47,5.0,10.0,87,0.00,,,0.00,VWS V14.01,2013-02-07 08:39:00,
2013-02-07 02:40:00,24.1,20.8,29.84,NE,47,6.0,10.0,87,0.00,,,0.00,VWS V14.01,2013-02-07 08:40:00,
2013-02-07 02:41:00,24.1,20.8,29.84,NE,47,5.0,10.0,87,0.00,,,0.00,VWS V14.01,2013-02-07 08:41:00,
2013-02-07 02:42:00,24.1,20.8,29.84,NE,47,10.0,10.0,87,0.00,,,0.00,VWS V14.01,2013-02-07 08:42:00,
2013-02-07 02:43:00,24.1,20.8,29.84,NE,47,5.0,10.0,87,0.00,,,0.00,VWS V14.01,2013-02-07 08:43:00,
2013-02-07 02:44:00,24.1,20.8,29.84,NE,48,7.0,11.0,87,0.00,,,0.00,VWS V14.01,2013-02-07 08:44:00,
2013-02-07 02:45:00,24.1,20.8,29.84,NE,48,3.0,11.0,87,0.00,,,0.00,VWS V14.01,2013-02-07 08:45:00,
2013-02-07 02:46:00,24.2,20.9,29.84,NE,48,5.0,11.0,87,0.00,,,0.00,VWS V14.01,2013-02-07 08:46:00,
2013-02-07 02:47:00,24.2,20.9,29.84,NE,48,6.0,11.0,87,0.00,,,0.00,VWS V14.01,2013-02-07 08:47:00,
2013-02-07 02:48:00,24.2,20.9,29.84,NE,48,7.0,11.0,87,0.00,,,0.00,VWS V14.01,2013-02-07 08:48:00,
2013-02-07 02:49:00,24.2,20.9,29.84,NE,48,1.0,11.0,87,0.00,,,0.00,VWS V14.01,2013-02-07 08:49:00,
2013-02-07 02:50:00,24.2,20.9,29.84,NE,48,8.0,11.0,87,0.00,,,0.00,VWS V14.01,2013-02-07 08:50:00,
2013-02-07 02:51:00,24.2,20.9,29.84,NE,48,2.0,11.0,87,0.00,,,0.00,VWS V14.01,2013-02-07 08:51:00,
2013-02-07 02:52:00,24.4,21.1,29.84,NE,48,9.0,11.0,87,0.00,,,0.00,VWS V14.01,2013-02-07 08:52:00,
2013-02-07 02:53:00,24.4,21.1,29.84,NE,48,3.0,11.0,87,0.00,,,0.00,VWS V14.01,2013-02-07 08:53:00,
2013-02-07 02:54:00,24.4,21.1,29.84,NE,48,5.0,12.0,87,0.00,,,0.00,VWS V14.01,2013-02-07 08:54:00,
2013-02-07 02:55:00,24.4,21.1,29.84,NE,48,7.0,12.0,87,0.00,,,0.00,VWS V14.01,2013-02-07 08:55:00,
2013-02-07 02:56:00,24.4,21.1,29.84,NE,48,11.0,12.0,87,0.00,,,0.00,VWS V14.01,2013-02-07 08:56:00,
2013-02-07 02:57:00,24.4,21.1,29.84,NE,48,7.0,12.0,87,0.00,,,0.00,VWS V14.01,2013-02-07 08:57:00,
2013-02-07 02:58:00,24.5,21.2,29.84,NE,48,7.0,12.0,87,0.00,,,0.00,VWS V14.01,2013-02-07 08:58:00,
2013-02-07 02:59:00,24.5,21.2,29.84,NE,48,6.0,12.0,87,0.00,,,0.00,VWS V14.01,2013-02-07 08:59:00,
2013-02-07 03:00:00,24.5,21.2,29.84,NE,48,8.0,12.0,87,0.00,,,0.00,VWS V14.01,2013-02-07 09:00:00,
2013-02-07 03:01:00,24.5,21.2,29.84,NE,47,5.0,11.0,87,0.00,,,0.00,VWS V14.01,2013-02-07 09:01:00,
2013-02-07 03:02:00,24.5,21.2,29.84,NE,48,6.0,11.0,87,0.00,,,0.00,VWS V14.01,2013-02-07 09:02:00,
2013-02-07 03:03:00,24.5,21.2,29.84,NE,48,5.0,11.0,87,0.00,,,0.00,VWS V14.01,2013-02-07 09:03:00,
2013-02-07 03:04:00,24.5,21.2,29.84,NE,48,3.0,11.0,87,0.00,,,0.00,VWS V14.01,2013-02-07 09:04:00,
2013-02-07 03:05:00,24.5,21.2,29.84,NE,48,5.0,11.0,87,0.00,,,0.00,VWS V14.01,2013-02-07 09:05:00,
2013-02-07 03:06:00,24.7,21.4,29.84,NE,48,6.0,11.0,87,0.00,,,0.00,VWS V14.01,2013-02-07 09:06:00,
2013-02-07 03:07:00,24.7,21.4,29.84,NE,48,7.0,11.0,87,0.00,,,0.00,VWS V14.01,2013-02-07 09:07:00,
2013-02-07 03:08:00,24.7,21.4,29.84,NE,48,0.0,11.0,87,0.00,,,0.00,VWS V14.01,2013-02-07 09:08:00,
2013-02-07 03:09:00,24.7,21.4,29.84,NE,48,6.0,11.0,87,0.00,,,0.00,VWS V14.01,2013-02-07 09:09:00,
2013-02-07 03:10:00,24.7,21.4,29.84,NE,48,5.0,11.0,87,0.00,,,0.00,VWS V14.01,2013-02-07 09:10:00,
2013-02-07 03:11:00,24.7,21.4,29.84,NE,48,2.0,11.0,87,0.00,,,0.00,VWS V14.01,2013-02-07 09:11:00,
2013-02-07 03:12:00,24.7,21.4,29.84,NE,48,7.0,11.0,87,0.00,,,0.00,VWS V14.01,2013-02-07 09:12:00,
2013-02-07 03:13:00,24.7,21.4,29.84,NE,48,6.0,11.0,87,0.00,,,0.00,VWS V14.01,2013-02-07 09:13:00,
2013-02-07 03:14:00,24.7,21.4,29.84,NE,48,0.0,11.0,87,0.00,,,0.00,VWS V14.01,2013-02-07 09:14:00,
2013-02-07 03:15:00,24.7,21.4,29.85,NE,50,8.0,11.0,87,0.00,,,0.00,VWS V14.01,2013-02-07 09:15:00,
2013-02-07 03:16:00,24.7,21.4,29.85,NE,51,4.0,11.0,87,0.00,,,0.00,VWS V14.01,2013-02-07 09:16:00,
2013-02-07 03:17:00,24.7,21.4,29.85,NE,51,2.0,11.0,87,0.00,,,0.00,VWS V14.01,2013-02-07 09:17:00,
2013-02-07 03:18:00,24.7,21.4,29.85,NE,51,10.0,11.0,87,0.00,,,0.00,VWS V14.01,2013-02-07 09:18:00,
2013-02-07 03:19:00,24.7,21.4,29.85,NE,51,3.0,11.0,87,0.00,,,0.00,VWS V14.01,2013-02-07 09:19:00,
2013-02-07 03:20:00,24.8,21.8,29.85,NE,51,6.0,11.0,88,0.00,,,0.00,VWS V14.01,2013-02-07 09:20:00,
2013-02-07 03:21:00,24.8,21.5,29.85,NE,51,6.0,11.0,87,0.00,,,0.00,VWS V14.01,2013-02-07 09:21:00,
2013-02-07 03:22:00,24.8,21.5,29.85,NE,51,5.0,11.0,87,0.00,,,0.00,VWS V14.01,2013-02-07 09:22:00,
2013-02-07 03:23:00,24.8,21.5,29.85,NE,51,6.0,11.0,87,0.00,,,0.00,VWS V14.01,2013-02-07 09:23:00,
2013-02-07 03:24:00,24.8,21.5,29.85,NE,50,6.0,11.0,87,0.00,,,0.00,VWS V14.01,2013-02-07 09:24:00,
2013-02-07 03:25:00,24.8,21.5,29.85,NE,50,5.0,11.0,87,0.00,,,0.00,VWS V14.01,2013-02-07 09:25:00,
2013-02-07 03:26:00,24.8,21.8,29.85,NE,50,3.0,11.0,88,0.00,,,0.00,VWS V14.01,2013-02-07 09:26:00,
2013-02-07 03:27:00,24.8,21.8,29.85,NE,50,2.0,11.0,88,0.00,,,0.00,VWS V14.01,2013-02-07 09:27:00,
2013-02-07 03:28:00,24.8,21.5,29.85,NE,50,4.0,11.0,87,0.00,,,0.00,VWS V14.01,2013-02-07 09:28:00,
2013-02-07 03:29:00,24.8,21.8,29.85,NE,50,4.0,11.0,88,0.00,,,0.00,VWS V14.01,2013-02-07 09:29:00,
2013-02-07 03:30:00,25.0,22.0,29.85,NE,50,6.0,11.0,88,0.00,,,0.00,VWS V14.01,2013-02-07 09:30:00,
2013-02-07 03:31:00,25.0,22.0,29.85,NE,50,0.0,6.0,88,0.00,,,0.00,VWS V14.01,2013-02-07 09:31:00,
2013-02-07 03:32:00,25.0,21.7,29.85,NE,50,0.0,6.0,87,0.00,,,0.00,VWS V14.01,2013-02-07 09:32:00,
2013-02-07 03:33:00,25.0,22.0,29.85,NE,50,6.0,7.0,88,0.00,,,0.00,VWS V14.01,2013-02-07 09:33:00,
2013-02-07 03:34:00,25.0,22.0,29.85,NE,50,0.0,8.0,88,0.00,,,0.00,VWS V14.01,2013-02-07 09:34:00,
2013-02-07 03:35:00,25.0,21.7,29.85,NE,50,2.0,8.0,87,0.00,,,0.00,VWS V14.01,2013-02-07 09:35:00,
2013-02-07 03:36:00,25.0,22.0,29.85,NE,50,2.0,8.0,88,0.00,,,0.00,VWS V14.01,2013-02-07 09:36:00,
2013-02-07 03:37:00,25.0,22.0,29.85,NE,50,2.0,8.0,88,0.00,,,0.00,VWS V14.01,2013-02-07 09:37:00,
2013-02-07 03:38:00,25.0,22.0,29.85,NE,50,3.0,8.0,88,0.00,,,0.00,VWS V14.01,2013-02-07 09:38:00,
2013-02-07 03:39:00,25.0,22.0,29.85,NE,50,1.0,8.0,88,0.00,,,0.00,VWS V14.01,2013-02-07 09:39:00,
2013-02-07 03:40:00,25.0,22.0,29.85,NE,50,3.0,8.0,88,0.00,,,0.00,VWS V14.01,2013-02-07 09:40:00,
2013-02-07 03:41:00,25.0,22.0,29.85,NE,50,5.0,8.0,88,0.00,,,0.00,VWS V14.01,2013-02-07 09:41:00,
2013-02-07 03:42:00,25.0,22.0,29.85,NE,50,5.0,8.0,88,0.00,,,0.00,VWS V14.01,2013-02-07 09:42:00,
2013-02-07 03:43:00,25.1,22.0,29.85,NE,50,6.0,8.0,88,0.00,,,0.00,VWS V14.01,2013-02-07 09:43:00,
2013-02-07 03:44:00,25.1,22.0,29.85,NE,50,5.0,8.0,88,0.00,,,0.00,VWS V14.01,2013-02-07 09:44:00,
2013-02-07 03:45:00,25.1,22.0,29.85,NE,50,7.0,8.0,88,0.00,,,0.00,VWS V14.01,2013-02-07 09:45:00,
2013-02-07 03:46:00,25.1,22.0,29.85,NE,50,5.0,8.0,88,0.00,,,0.00,VWS V14.01,2013-02-07 09:46:00,
2013-02-07 03:47:00,25.1,22.0,29.85,NE,48,10.0,10.0,88,0.00,,,0.00,VWS V14.01,2013-02-07 09:47:00,
2013-02-07 03:48:00,25.1,22.0,29.85,NE,50,5.0,10.0,88,0.00,,,0.00,VWS V14.01,2013-02-07 09:48:00,
2013-02-07 03:49:00,25.1,22.0,29.85,NE,50,2.0,10.0,88,0.00,,,0.00,VWS V14.01,2013-02-07 09:49:00,
2013-02-07 03:50:00,25.1,22.0,29.85,NE,50,1.0,10.0,88,0.00,,,0.00,VWS V14.01,2013-02-07 09:50:00,
2013-02-07 03:51:00,25.1,22.0,29.85,NE,48,5.0,11.0,88,0.00,,,0.00,VWS V14.01,2013-02-07 09:51:00,
2013-02-07 03:52:00,25.1,22.0,29.85,NE,48,2.0,11.0,88,0.00,,,0.00,VWS V14.01,2013-02-07 09:52:00,
2013-02-07 03:53:00,25.1,22.0,29.85,NE,48,5.0,11.0,88,0.00,,,0.00,VWS V14.01,2013-02-07 09:53:00,
2013-02-07 03:54:00,25.3,22.2,29.85,NE,47,11.0,11.0,88,0.00,,,0.00,VWS V14.01,2013-02-07 09:54:00,
2013-02-07 03:55:00,25.3,22.0,29.85,NE,47,4.0,11.0,87,0.00,,,0.00,VWS V14.01,2013-02-07 09:55:00,
2013-02-07 03:56:00,25.3,22.0,29.85,NE,47,0.0,11.0,87,0.00,,,0.00,VWS V14.01,2013-02-07 09:56:00,
2013-02-07 03:57:00,25.3,22.2,29.85,NE,47,1.0,11.0,88,0.00,,,0.00,VWS V14.01,2013-02-07 09:57:00,
2013-02-07 03:58:00,25.3,22.0,29.85,NE,47,2.0,11.0,87,0.00,,,0.00,VWS V14.01,2013-02-07 09:58:00,
2013-02-07 03:59:00,25.3,22.0,29.85,NE,47,2.0,11.0,87,0.00,,,0.00,VWS V14.01,2013-02-07 09:59:00,
2013-02-07 04:00:00,25.3,22.0,29.85,NE,47,5.0,11.0,87,0.00,,,0.00,VWS V14.01,2013-02-07 10:00:00,
2013-02-07 04:01:00,25.3,22.0,29.85,NE,47,3.0,8.0,87,0.00,,,0.00,VWS V14.01,2013-02-07 10:01:00,
2013-02-07 04:02:00,25.3,22.0,29.85,NE,47,0.0,8.0,87,0.00,,,0.00,VWS V14.01,2013-02-07 10:02:00,
2013-02-07 04:03:00,25.3,22.0,29.85,NE,47,0.0,8.0,87,0.00,,,0.00,VWS V14.01,2013-02-07 10:03:00,
2013-02-07 04:04:00,25.3,22.0,29.85,NE,47,0.0,8.0,87,0.00,,,0.00,VWS V14.01,2013-02-07 10:04:00,
2013-02-07 04:05:00,25.3,22.0,29.85,NE,47,0.0,8.0,87,0.00,,,0.00,VWS V14.01,2013-02-07 10:05:00,
2013-02-07 04:06:00,25.3,22.0,29.85,NE,47,3.0,8.0,87,0.00,,,0.00,VWS V14.01,2013-02-07 10:06:00,
2013-02-07 04:07:00,25.3,22.0,29.85,NE,47,1.0,8.0,87,0.00,,,0.00,VWS V14.01,2013-02-07 10:07:00,
2013-02-07 04:08:00,25.3,22.0,29.85,NE,47,3.0,8.0,87,0.00,,,0.00,VWS V14.01,2013-02-07 10:08:00,
2013-02-07 04:09:00,25.3,22.0,29.85,NE,48,8.0,8.0,87,0.00,,,0.00,VWS V14.01,2013-02-07 10:09:00,
2013-02-07 04:10:00,25.3,22.0,29.85,NE,48,3.0,8.0,87,0.00,,,0.00,VWS V14.01,2013-02-07 10:10:00,
2013-02-07 04:11:00,25.3,22.0,29.85,NE,48,6.0,8.0,87,0.00,,,0.00,VWS V14.01,2013-02-07 10:11:00,
2013-02-07 04:12:00,25.3,22.0,29.85,NE,47,7.0,8.0,87,0.00,,,0.00,VWS V14.01,2013-02-07 10:12:00,
2013-02-07 04:13:00,25.3,22.0,29.85,NE,47,2.0,8.0,87,0.00,,,0.00,VWS V14.01,2013-02-07 10:13:00,
2013-02-07 04:14:00,25.4,22.1,29.85,NE,47,2.0,8.0,87,0.00,,,0.00,VWS V14.01,2013-02-07 10:14:00,
2013-02-07 04:15:00,25.4,22.1,29.85,NE,47,5.0,8.0,87,0.00,,,0.00,VWS V14.01,2013-02-07 10:15:00,
2013-02-07 04:16:00,25.4,22.1,29.85,NE,47,1.0,8.0,87,0.00,,,0.00,VWS V14.01,2013-02-07 10:16:00,
2013-02-07 04:17:00,25.4,22.1,29.85,NE,46,8.0,10.0,87,0.00,,,0.00,VWS V14.01,2013-02-07 10:17:00,
2013-02-07 04:18:00,25.4,22.1,29.85,NE,47,6.0,10.0,87,0.00,,,0.00,VWS V14.01,2013-02-07 10:18:00,
2013-02-07 04:19:00,25.4,22.1,29.85,NE,46,6.0,10.0,87,0.00,,,0.00,VWS V14.01,2013-02-07 10:19:00,
2013-02-07 04:20:00,25.4,22.1,29.85,NE,46,5.0,10.0,87,0.00,,,0.00,VWS V14.01,2013-02-07 10:20:00,
2013-02-07 04:21:00,25.4,22.1,29.85,NE,46,2.0,10.0,87,0.00,,,0.00,VWS V14.01,2013-02-07 10:21:00,
2013-02-07 04:22:00,25.4,22.1,29.85,NE,46,0.0,10.0,87,0.00,,,0.00,VWS V14.01,2013-02-07 10:22:00,
2013-02-07 04:23:00,25.4,22.1,29.85,NE,46,3.0,10.0,87,0.00,,,0.00,VWS V14.01,2013-02-07 10:23:00,
2013-02-07 04:24:00,25.4,22.1,29.85,NE,44,6.0,10.0,87,0.00,,,0.00,VWS V14.01,2013-02-07 10:24:00,
2013-02-07 04:25:00,25.4,22.1,29.85,NE,44,6.0,10.0,87,0.00,,,0.00,VWS V14.01,2013-02-07 10:25:00,
2013-02-07 04:26:00,25.4,22.1,29.85,NE,44,6.0,10.0,87,0.00,,,0.00,VWS V14.01,2013-02-07 10:26:00,
2013-02-07 04:27:00,25.4,22.1,29.85,NE,44,8.0,10.0,87,0.00,,,0.00,VWS V14.01,2013-02-07 10:27:00,
2013-02-07 04:28:00,25.4,22.1,29.85,NE,44,0.0,10.0,87,0.00,,,0.00,VWS V14.01,2013-02-07 10:28:00,
2013-02-07 04:29:00,25.4,22.1,29.85,NE,44,2.0,10.0,87,0.00,,,0.00,VWS V14.01,2013-02-07 10:29:00,
2013-02-07 04:30:00,25.4,22.1,29.86,NE,44,6.0,10.0,87,0.00,,,0.00,VWS V14.01,2013-02-07 10:30:00,
2013-02-07 04:31:00,25.4,22.1,29.86,NE,43,6.0,11.0,87,0.00,,,0.00,VWS V14.01,2013-02-07 10:31:00,
2013-02-07 04:32:00,25.4,22.1,29.86,NE,43,5.0,11.0,87,0.00,,,0.00,VWS V14.01,2013-02-07 10:32:00,
2013-02-07 04:33:00,25.4,22.1,29.86,NE,43,4.0,11.0,87,0.00,,,0.00,VWS V14.01,2013-02-07 10:33:00,
2013-02-07 04:34:00,25.4,22.1,29.86,NE,43,2.0,11.0,87,0.00,,,0.00,VWS V14.01,2013-02-07 10:34:00,
2013-02-07 04:35:00,25.4,22.1,29.86,NE,41,6.0,11.0,87,0.00,,,0.00,VWS V14.01,2013-02-07 10:35:00,
2013-02-07 04:36:00,25.4,22.1,29.86,NE,41,7.0,11.0,87,0.00,,,0.00,VWS V14.01,2013-02-07 10:36:00,
2013-02-07 04:37:00,25.4,22.1,29.86,NE,40,8.0,11.0,87,0.00,,,0.00,VWS V14.01,2013-02-07 10:37:00,
2013-02-07 04:38:00,25.4,22.1,29.86,NE,38,1.0,11.0,87,0.00,,,0.00,VWS V14.01,2013-02-07 10:38:00,
2013-02-07 04:39:00,25.4,22.1,29.86,NE,38,8.0,11.0,87,0.00,,,0.00,VWS V14.01,2013-02-07 10:39:00,
2013-02-07 04:40:00,25.4,22.1,29.86,NE,36,10.0,11.0,87,0.00,,,0.00,VWS V14.01,2013-02-07 10:40:00,
2013-02-07 04:41:00,25.4,22.1,29.86,NE,37,6.0,11.0,87,0.00,,,0.00,VWS V14.01,2013-02-07 10:41:00,
2013-02-07 04:42:00,25.4,22.1,29.86,NNE,31,10.0,11.0,87,0.00,,,0.00,VWS V14.01,2013-02-07 10:42:00,
2013-02-07 04:43:00,25.4,22.1,29.86,NE,34,6.0,11.0,87,0.00,,,0.00,VWS V14.01,2013-02-07 10:43:00,
2013-02-07 04:44:00,25.4,22.1,29.86,NE,34,10.0,11.0,87,0.00,,,0.00,VWS V14.01,2013-02-07 10:44:00,
2013-02-07 04:45:00,25.4,22.1,29.86,NE,36,5.0,11.0,87,0.00,,,0.00,VWS V14.01,2013-02-07 10:45:00,
2013-02-07 04:46:00,25.4,22.1,29.86,NE,37,10.0,11.0,87,0.00,,,0.00,VWS V14.01,2013-02-07 10:46:00,
2013-02-07 04:47:00,25.4,22.1,29.86,NE,37,5.0,11.0,87,0.00,,,0.00,VWS V14.01,2013-02-07 10:47:00,
2013-02-07 04:48:00,25.4,22.1,29.86,NE,37,10.0,11.0,87,0.00,,,0.00,VWS V14.01,2013-02-07 10:48:00,
2013-02-07 04:49:00,25.4,22.1,29.86,NE,37,0.0,11.0,87,0.00,,,0.00,VWS V14.01,2013-02-07 10:49:00,
2013-02-07 04:50:00,25.4,22.1,29.86,NE,37,10.0,11.0,87,0.00,,,0.00,VWS V14.01,2013-02-07 10:50:00,
2013-02-07 04:51:00,25.4,22.1,29.86,NE,40,6.0,11.0,87,0.00,,,0.00,VWS V14.01,2013-02-07 10:51:00,
2013-02-07 04:52:00,25.4,22.1,29.86,NE,40,5.0,11.0,87,0.00,,,0.00,VWS V14.01,2013-02-07 10:52:00,
2013-02-07 04:53:00,25.4,22.1,29.86,NE,46,4.0,11.0,87,0.00,,,0.00,VWS V14.01,2013-02-07 10:53:00,
2013-02-07 04:54:00,25.4,22.1,29.86,NE,44,5.0,11.0,87,0.00,,,0.00,VWS V14.01,2013-02-07 10:54:00,
2013-02-07 04:55:00,25.4,22.1,29.86,NE,44,8.0,11.0,87,0.00,,,0.00,VWS V14.01,2013-02-07 10:55:00,
2013-02-07 04:56:00,25.4,22.1,29.86,NE,43,7.0,11.0,87,0.00,,,0.00,VWS V14.01,2013-02-07 10:56:00,
2013-02-07 04:57:00,25.4,22.1,29.86,NE,40,7.0,12.0,87,0.00,,,0.00,VWS V14.01,2013-02-07 10:57:00,
2013-02-07 04:58:00,25.4,22.1,29.86,NE,40,7.0,13.0,87,0.00,,,0.00,VWS V14.01,2013-02-07 10:58:00,
2013-02-07 04:59:00,25.4,22.1,29.86,NE,43,6.0,13.0,87,0.00,,,0.00,VWS V14.01,2013-02-07 10:59:00,
2013-02-07 05:00:00,25.4,22.1,29.86,NE,40,6.0,13.0,87,0.00,,,0.00,VWS V14.01,2013-02-07 11:00:00,
2013-02-07 05:01:00,25.4,22.1,29.86,NE,43,11.0,16.0,87,0.00,,,0.00,VWS V14.01,2013-02-07 11:01:00,
2013-02-07 05:02:00,25.4,22.1,29.86,NE,41,4.0,16.0,87,0.00,,,0.00,VWS V14.01,2013-02-07 11:02:00,
2013-02-07 05:03:00,25.4,21.8,29.86,NE,41,8.0,16.0,86,0.00,,,0.00,VWS V14.01,2013-02-07 11:03:00,
2013-02-07 05:04:00,25.4,22.1,29.86,NE,38,5.0,16.0,87,0.00,,,0.00,VWS V14.01,2013-02-07 11:04:00,
2013-02-07 05:05:00,25.4,22.1,29.86,NE,40,6.0,16.0,87,0.00,,,0.00,VWS V14.01,2013-02-07 11:05:00,
2013-02-07 05:06:00,25.4,21.8,29.86,NE,41,6.0,16.0,86,0.00,,,0.00,VWS V14.01,2013-02-07 11:06:00,
2013-02-07 05:07:00,25.4,21.8,29.86,NE,41,10.0,16.0,86,0.00,,,0.00,VWS V14.01,2013-02-07 11:07:00,
2013-02-07 05:08:00,25.4,21.8,29.86,NNE,27,11.0,16.0,86,0.00,,,0.00,VWS V14.01,2013-02-07 11:08:00,
2013-02-07 05:09:00,25.4,21.8,29.86,NNE,27,6.0,16.0,86,0.00,,,0.00,VWS V14.01,2013-02-07 11:09:00,
2013-02-07 05:10:00,25.4,21.8,29.86,NNE,31,10.0,16.0,86,0.00,,,0.00,VWS V14.01,2013-02-07 11:10:00,
2013-02-07 05:11:00,25.4,21.8,29.86,NNE,30,10.0,16.0,86,0.00,,,0.00,VWS V14.01,2013-02-07 11:11:00,
2013-02-07 05:12:00,25.4,21.8,29.86,NNE,29,8.0,16.0,86,0.00,,,0.00,VWS V14.01,2013-02-07 11:12:00,
2013-02-07 05:13:00,25.4,21.8,29.86,NE,37,12.0,16.0,86,0.00,,,0.00,VWS V14.01,2013-02-07 11:13:00,
2013-02-07 05:14:00,25.4,21.8,29.86,NE,37,7.0,16.0,86,0.00,,,0.00,VWS V14.01,2013-02-07 11:14:00,
2013-02-07 05:15:00,25.4,21.8,29.86,NE,38,1.0,16.0,86,0.00,,,0.00,VWS V14.01,2013-02-07 11:15:00,
2013-02-07 05:16:00,25.4,21.8,29.86,NE,34,9.0,16.0,86,0.00,,,0.00,VWS V14.01,2013-02-07 11:16:00,
2013-02-07 05:17:00,25.4,21.8,29.86,NE,53,11.0,16.0,86,0.00,,,0.00,VWS V14.01,2013-02-07 11:17:00,
2013-02-07 05:18:00,25.4,21.8,29.86,NE,44,12.0,16.0,86,0.00,,,0.00,VWS V14.01,2013-02-07 11:18:00,
2013-02-07 05:19:00,25.4,21.8,29.86,NE,43,6.0,16.0,86,0.00,,,0.00,VWS V14.01,2013-02-07 11:19:00,
2013-02-07 05:20:00,25.4,21.8,29.86,NE,44,6.0,16.0,86,0.00,,,0.00,VWS V14.01,2013-02-07 11:20:00,
2013-02-07 05:21:00,25.4,21.8,29.86,NE,43,5.0,16.0,86,0.00,,,0.00,VWS V14.01,2013-02-07 11:21:00,
2013-02-07 05:22:00,25.4,21.8,29.86,NE,43,10.0,16.0,86,0.00,,,0.00,VWS V14.01,2013-02-07 11:22:00,
2013-02-07 05:23:00,25.3,21.7,29.86,NE,41,7.0,16.0,86,0.00,,,0.00,VWS V14.01,2013-02-07 11:23:00,
2013-02-07 05:24:00,25.3,21.7,29.86,NNE,31,10.0,16.0,86,0.00,,,0.00,VWS V14.01,2013-02-07 11:24:00,
2013-02-07 05:25:00,25.3,21.7,29.86,NNE,33,12.0,16.0,86,0.00,,,0.00,VWS V14.01,2013-02-07 11:25:00,
2013-02-07 05:26:00,25.3,21.7,29.86,NE,41,8.0,16.0,86,0.00,,,0.00,VWS V14.01,2013-02-07 11:26:00,
2013-02-07 05:27:00,25.3,21.7,29.86,NE,38,6.0,16.0,86,0.00,,,0.00,VWS V14.01,2013-02-07 11:27:00,
2013-02-07 05:28:00,25.3,21.7,29.86,NE,37,5.0,16.0,86,0.00,,,0.00,VWS V14.01,2013-02-07 11:28:00,
2013-02-07 05:29:00,25.3,21.7,29.86,NE,36,7.0,16.0,86,0.00,,,0.00,VWS V14.01,2013-02-07 11:29:00,
2013-02-07 05:30:00,25.3,21.7,29.86,NE,34,7.0,16.0,86,0.00,,,0.00,VWS V14.01,2013-02-07 11:30:00,
2013-02-07 05:31:00,25.3,21.7,29.86,NE,34,1.0,7.0,86,0.00,,,0.00,VWS V14.01,2013-02-07 11:31:00,
2013-02-07 05:32:00,25.3,21.7,29.86,NE,34,5.0,7.0,86,0.00,,,0.00,VWS V14.01,2013-02-07 11:32:00,
2013-02-07 05:33:00,25.3,21.7,29.86,NNE,27,5.0,8.0,86,0.00,,,0.00,VWS V14.01,2013-02-07 11:33:00,
2013-02-07 05:34:00,25.1,21.5,29.86,NNE,29,6.0,11.0,86,0.00,,,0.00,VWS V14.01,2013-02-07 11:34:00,
2013-02-07 05:35:00,25.1,21.5,29.86,NNE,30,6.0,13.0,86,0.00,,,0.00,VWS V14.01,2013-02-07 11:35:00,
2013-02-07 05:36:00,25.1,21.5,29.86,NNE,30,7.0,13.0,86,0.00,,,0.00,VWS V14.01,2013-02-07 11:36:00,
2013-02-07 05:37:00,25.0,21.4,29.86,NNE,30,4.0,13.0,86,0.00,,,0.00,VWS V14.01,2013-02-07 11:37:00,
2013-02-07 05:38:00,25.0,21.4,29.86,NNE,29,3.0,13.0,86,0.00,,,0.00,VWS V14.01,2013-02-07 11:38:00,
2013-02-07 05:39:00,25.0,21.4,29.86,NNE,29,6.0,13.0,86,0.00,,,0.00,VWS V14.01,2013-02-07 11:39:00,
2013-02-07 05:40:00,25.0,21.4,29.86,NE,54,2.0,13.0,86,0.00,,,0.00,VWS V14.01,2013-02-07 11:40:00,
2013-02-07 05:41:00,24.8,21.2,29.86,NNE,30,12.0,13.0,86,0.00,,,0.00,VWS V14.01,2013-02-07 11:41:00,
2013-02-07 05:42:00,24.8,21.2,29.86,NNE,16,10.0,13.0,86,0.00,,,0.00,VWS V14.01,2013-02-07 11:42:00,
2013-02-07 05:43:00,24.8,21.2,29.86,NNE,29,10.0,13.0,86,0.00,,,0.00,VWS V14.01,2013-02-07 11:43:00,
2013-02-07 05:44:00,24.8,21.2,29.86,NNE,29,5.0,13.0,86,0.00,,,0.00,VWS V14.01,2013-02-07 11:44:00,
2013-02-07 05:45:00,24.8,21.2,29.87,NNE,30,0.0,13.0,86,0.00,,,0.00,VWS V14.01,2013-02-07 11:45:00,
2013-02-07 05:46:00,24.8,21.5,29.87,NNE,30,2.0,13.0,87,0.00,,,0.00,VWS V14.01,2013-02-07 11:46:00,
2013-02-07 05:47:00,24.8,21.5,29.87,NNE,29,5.0,13.0,87,0.00,,,0.00,VWS V14.01,2013-02-07 11:47:00,
2013-02-07 05:48:00,24.7,21.1,29.87,NNE,30,6.0,13.0,86,0.00,,,0.00,VWS V14.01,2013-02-07 11:48:00,
2013-02-07 05:49:00,24.7,21.1,29.87,NNE,30,7.0,13.0,86,0.00,,,0.00,VWS V14.01,2013-02-07 11:49:00,
2013-02-07 05:50:00,24.7,21.4,29.87,NNE,23,11.0,13.0,87,0.00,,,0.00,VWS V14.01,2013-02-07 11:50:00,
2013-02-07 05:51:00,24.7,21.1,29.87,NE,44,6.0,13.0,86,0.00,,,0.00,VWS V14.01,2013-02-07 11:51:00,
2013-02-07 05:52:00,24.7,21.1,29.87,NE,43,7.0,13.0,86,0.00,,,0.00,VWS V14.01,2013-02-07 11:52:00,
2013-02-07 05:53:00,24.7,21.1,29.87,NE,36,4.0,13.0,86,0.00,,,0.00,VWS V14.01,2013-02-07 11:53:00,
2013-02-07 05:54:00,24.7,21.4,29.87,NE,34,6.0,13.0,87,0.00,,,0.00,VWS V14.01,2013-02-07 11:54:00,
2013-02-07 05:55:00,24.7,21.4,29.87,NE,37,6.0,13.0,87,0.00,,,0.00,VWS V14.01,2013-02-07 11:55:00,
2013-02-07 05:56:00,24.7,21.4,29.87,NE,38,2.0,13.0,87,0.00,,,0.00,VWS V14.01,2013-02-07 11:56:00,
2013-02-07 05:57:00,24.5,21.2,29.87,NE,37,7.0,13.0,87,0.00,,,0.00,VWS V14.01,2013-02-07 11:57:00,
2013-02-07 05:58:00,24.5,21.2,29.87,NNE,31,3.0,13.0,87,0.00,,,0.00,VWS V14.01,2013-02-07 11:58:00,
2013-02-07 05:59:00,24.5,21.2,29.87,NNE,33,3.0,13.0,87,0.00,,,0.00,VWS V14.01,2013-02-07 11:59:00,
2013-02-07 06:00:00,24.5,21.2,29.87,NNE,33,6.0,13.0,87,0.00,,,0.00,VWS V14.01,2013-02-07 12:00:00,
2013-02-07 06:01:00,24.5,21.2,29.87,NE,34,6.0,9.0,87,0.00,,,0.00,VWS V14.01,2013-02-07 12:01:00,
2013-02-07 06:02:00,24.5,21.2,29.87,NE,36,0.0,9.0,87,0.00,,,0.00,VWS V14.01,2013-02-07 12:02:00,
2013-02-07 06:03:00,24.5,21.2,29.87,NE,37,7.0,11.0,87,0.00,,,0.00,VWS V14.01,2013-02-07 12:03:00,
2013-02-07 06:04:00,24.5,21.2,29.87,NE,37,7.0,11.0,87,0.00,,,0.00,VWS V14.01,2013-02-07 12:04:00,
2013-02-07 06:05:00,24.5,21.2,29.87,NE,37,7.0,11.0,87,0.00,,,0.00,VWS V14.01,2013-02-07 12:05:00,
2013-02-07 06:06:00,24.4,21.1,29.87,NE,36,3.0,11.0,87,0.00,,,0.00,VWS V14.01,2013-02-07 12:06:00,
2013-02-07 06:07:00,24.4,21.1,29.87,NE,38,8.0,11.0,87,0.00,,,0.00,VWS V14.01,2013-02-07 12:07:00,
2013-02-07 06:08:00,24.4,21.1,29.87,NE,38,6.0,11.0,87,0.00,,,0.00,VWS V14.01,2013-02-07 12:08:00,
2013-02-07 06:09:00,24.4,21.1,29.87,NE,40,11.0,11.0,87,0.00,,,0.00,VWS V14.01,2013-02-07 12:09:00,
2013-02-07 06:10:00,24.4,21.1,29.87,NE,40,3.0,11.0,87,0.00,,,0.00,VWS V14.01,2013-02-07 12:10:00,
2013-02-07 06:11:00,24.4,21.1,29.87,NE,40,1.0,11.0,87,0.00,,,0.00,VWS V14.01,2013-02-07 12:11:00,
2013-02-07 06:12:00,24.4,21.1,29.87,NE,40,8.0,11.0,87,0.00,,,0.00,VWS V14.01,2013-02-07 12:12:00,
2013-02-07 06:13:00,24.4,21.1,29.87,NE,40,4.0,11.0,87,0.00,,,0.00,VWS V14.01,2013-02-07 12:13:00,
2013-02-07 06:14:00,24.4,21.1,29.87,NE,40,2.0,11.0,87,0.00,,,0.00,VWS V14.01,2013-02-07 12:14:00,
2013-02-07 06:15:00,24.4,21.1,29.87,NE,40,0.0,11.0,87,0.00,,,0.00,VWS V14.01,2013-02-07 12:15:00,
2013-02-07 06:16:00,24.4,21.1,29.87,NE,38,1.0,11.0,87,0.00,,,0.00,VWS V14.01,2013-02-07 12:16:00,
2013-02-07 06:17:00,24.4,21.1,29.87,NE,38,0.0,11.0,87,0.00,,,0.00,VWS V14.01,2013-02-07 12:17:00,
2013-02-07 06:18:00,24.2,20.9,29.87,NE,38,0.0,11.0,87,0.00,,,0.00,VWS V14.01,2013-02-07 12:18:00,
2013-02-07 06:19:00,24.2,20.9,29.87,NE,40,7.0,11.0,87,0.00,,,0.00,VWS V14.01,2013-02-07 12:19:00,
2013-02-07 06:20:00,24.2,20.9,29.87,NE,41,7.0,11.0,87,0.00,,,0.00,VWS V14.01,2013-02-07 12:20:00,
2013-02-07 06:21:00,24.2,20.9,29.87,NE,41,0.0,11.0,87,0.00,,,0.00,VWS V14.01,2013-02-07 12:21:00,
2013-02-07 06:22:00,24.2,20.9,29.87,NE,41,7.0,11.0,87,0.00,,,0.00,VWS V14.01,2013-02-07 12:22:00,
2013-02-07 06:23:00,24.2,20.9,29.87,NE,48,10.0,11.0,87,0.00,,,0.00,VWS V14.01,2013-02-07 12:23:00,
2013-02-07 06:24:00,24.2,20.9,29.87,NE,48,8.0,11.0,87,0.00,,,0.00,VWS V14.01,2013-02-07 12:24:00,
2013-02-07 06:25:00,24.2,20.9,29.87,NE,48,7.0,11.0,87,0.00,,,0.00,VWS V14.01,2013-02-07 12:25:00,
2013-02-07 06:26:00,24.2,21.2,29.87,NE,48,6.0,11.0,88,0.00,,,0.00,VWS V14.01,2013-02-07 12:26:00,
2013-02-07 06:27:00,24.2,21.2,29.87,NE,51,10.0,11.0,88,0.00,,,0.00,VWS V14.01,2013-02-07 12:27:00,
2013-02-07 06:28:00,24.2,21.2,29.87,NE,51,8.0,11.0,88,0.00,,,0.00,VWS V14.01,2013-02-07 12:28:00,
2013-02-07 06:29:00,24.2,21.2,29.87,NE,51,2.0,11.0,88,0.00,,,0.00,VWS V14.01,2013-02-07 12:29:00,
2013-02-07 06:30:00,24.2,21.2,29.87,NE,50,10.0,11.0,88,0.00,,,0.00,VWS V14.01,2013-02-07 12:30:00,
2013-02-07 06:31:00,24.2,21.2,29.87,NE,50,3.0,12.0,88,0.00,,,0.00,VWS V14.01,2013-02-07 12:31:00,
2013-02-07 06:32:00,24.2,21.2,29.87,NE,48,7.0,12.0,88,0.00,,,0.00,VWS V14.01,2013-02-07 12:32:00,
2013-02-07 06:33:00,24.2,21.2,29.87,NE,48,5.0,12.0,88,0.00,,,0.00,VWS V14.01,2013-02-07 12:33:00,
2013-02-07 06:34:00,24.2,21.2,29.87,NE,48,1.0,12.0,88,0.00,,,0.00,VWS V14.01,2013-02-07 12:34:00,
2013-02-07 06:35:00,24.2,21.2,29.87,NE,48,8.0,12.0,88,0.00,,,0.00,VWS V14.01,2013-02-07 12:35:00,
2013-02-07 06:36:00,24.2,21.2,29.87,NE,48,4.0,12.0,88,0.00,,,0.00,VWS V14.01,2013-02-07 12:36:00,
2013-02-07 06:37:00,24.2,21.2,29.87,NE,47,0.0,12.0,88,0.00,,,0.00,VWS V14.01,2013-02-07 12:37:00,
2013-02-07 06:38:00,24.2,21.2,29.87,NE,48,6.0,12.0,88,0.00,,,0.00,VWS V14.01,2013-02-07 12:38:00,
2013-02-07 06:39:00,24.2,21.2,29.87,NE,48,4.0,12.0,88,0.00,,,0.00,VWS V14.01,2013-02-07 12:39:00,
2013-02-07 06:40:00,24.2,21.4,29.87,NE,50,3.0,12.0,89,0.00,,,0.00,VWS V14.01,2013-02-07 12:40:00,
2013-02-07 06:41:00,24.2,21.4,29.87,NE,51,9.0,12.0,89,0.00,,,0.00,VWS V14.01,2013-02-07 12:41:00,
2013-02-07 06:42:00,24.2,21.4,29.87,NE,50,6.0,12.0,89,0.00,,,0.00,VWS V14.01,2013-02-07 12:42:00,
2013-02-07 06:43:00,24.2,21.4,29.87,NE,50,4.0,12.0,89,0.00,,,0.00,VWS V14.01,2013-02-07 12:43:00,
2013-02-07 06:44:00,24.2,21.4,29.87,NE,51,6.0,12.0,89,0.00,,,0.00,VWS V14.01,2013-02-07 12:44:00,
2013-02-07 06:45:00,24.2,21.4,29.87,NE,55,2.0,12.0,89,0.00,,,0.00,VWS V14.01,2013-02-07 12:45:00,
2013-02-07 06:46:00,24.2,21.4,29.87,NE,55,7.0,12.0,89,0.00,,,0.00,VWS V14.01,2013-02-07 12:46:00,
2013-02-07 06:47:00,24.2,21.4,29.87,NE,54,6.0,12.0,89,0.00,,,0.00,VWS V14.01,2013-02-07 12:47:00,
2013-02-07 06:48:00,24.2,21.4,29.87,NE,54,4.0,12.0,89,0.00,,,0.00,VWS V14.01,2013-02-07 12:48:00,
2013-02-07 06:49:00,24.2,21.7,29.87,NE,54,7.0,12.0,90,0.00,,,0.00,VWS V14.01,2013-02-07 12:49:00,
2013-02-07 06:50:00,24.2,21.7,29.87,NE,54,5.0,12.0,90,0.00,,,0.00,VWS V14.01,2013-02-07 12:50:00,
2013-02-07 06:51:00,24.2,21.7,29.87,ENE,58,5.0,12.0,90,0.00,,,0.00,VWS V14.01,2013-02-07 12:51:00,
2013-02-07 06:52:00,24.2,21.7,29.87,ENE,58,5.0,12.0,90,0.00,,,0.00,VWS V14.01,2013-02-07 12:52:00,
2013-02-07 06:53:00,24.2,21.7,29.87,ENE,58,0.0,12.0,90,0.00,,,0.00,VWS V14.01,2013-02-07 12:53:00,
2013-02-07 06:54:00,24.2,21.7,29.87,ENE,58,0.0,12.0,90,0.00,,,0.00,VWS V14.01,2013-02-07 12:54:00,
2013-02-07 06:55:00,24.2,21.7,29.87,ENE,58,5.0,12.0,90,0.00,,,0.00,VWS V14.01,2013-02-07 12:55:00,
2013-02-07 06:56:00,24.2,21.7,29.87,ENE,57,3.0,12.0,90,0.00,,,0.00,VWS V14.01,2013-02-07 12:56:00,
2013-02-07 06:57:00,24.2,21.7,29.87,ENE,57,2.0,12.0,90,0.00,,,0.00,VWS V14.01,2013-02-07 12:57:00,
2013-02-07 06:58:00,24.2,21.7,29.87,ENE,58,6.0,12.0,90,0.00,,,0.00,VWS V14.01,2013-02-07 12:58:00,
2013-02-07 06:59:00,24.2,21.7,29.87,ENE,58,3.0,12.0,90,0.00,,,0.00,VWS V14.01,2013-02-07 12:59:00,
2013-02-07 07:00:00,24.2,22.0,29.88,ENE,58,3.0,12.0,91,0.00,,,0.00,VWS V14.01,2013-02-07 13:00:00,
2013-02-07 07:01:00,24.2,22.0,29.88,ENE,58,3.0,6.0,91,0.00,,,0.00,VWS V14.01,2013-02-07 13:01:00,
2013-02-07 07:02:00,24.2,22.0,29.88,ENE,57,0.0,6.0,91,0.00,,,0.00,VWS V14.01,2013-02-07 13:02:00,
2013-02-07 07:03:00,24.2,22.0,29.88,NE,48,10.0,10.0,91,0.00,,,0.00,VWS V14.01,2013-02-07 13:03:00,
2013-02-07 07:04:00,24.2,22.0,29.88,NE,40,5.0,10.0,91,0.00,,,0.00,VWS V14.01,2013-02-07 13:04:00,
2013-02-07 07:05:00,24.2,22.0,29.88,NE,40,8.0,10.0,91,0.00,,,0.00,VWS V14.01,2013-02-07 13:05:00,
2013-02-07 07:06:00,24.2,22.0,29.88,NE,40,7.0,10.0,91,0.00,,,0.00,VWS V14.01,2013-02-07 13:06:00,
2013-02-07 07:07:00,24.2,22.0,29.88,NE,37,6.0,10.0,91,0.00,,,0.00,VWS V14.01,2013-02-07 13:07:00,
2013-02-07 07:08:00,24.2,22.0,29.88,NE,40,4.0,10.0,91,0.00,,,0.00,VWS V14.01,2013-02-07 13:08:00,
2013-02-07 07:09:00,24.2,22.0,29.88,NE,44,6.0,10.0,91,0.00,,,0.00,VWS V14.01,2013-02-07 13:09:00,
2013-02-07 07:10:00,24.2,22.0,29.88,NE,44,5.0,10.0,91,0.00,,,0.00,VWS V14.01,2013-02-07 13:10:00,
2013-02-07 07:11:00,24.2,22.0,29.88,NE,43,7.0,10.0,91,0.00,,,0.00,VWS V14.01,2013-02-07 13:11:00,
2013-02-07 07:12:00,24.1,21.9,29.88,NE,41,3.0,10.0,91,0.00,,,0.00,VWS V14.01,2013-02-07 13:12:00,
2013-02-07 07:13:00,24.2,22.0,29.88,NE,41,5.0,10.0,91,0.00,,,0.00,VWS V14.01,2013-02-07 13:13:00,
2013-02-07 07:14:00,24.2,22.0,29.88,NE,43,5.0,10.0,91,0.00,,,0.00,VWS V14.01,2013-02-07 13:14:00,
2013-02-07 07:15:00,24.2,22.2,29.89,NE,43,7.0,10.0,92,0.00,,,0.00,VWS V14.01,2013-02-07 13:15:00,
2013-02-07 07:16:00,24.2,22.2,29.89,NE,43,0.0,10.0,92,0.00,,,0.00,VWS V14.01,2013-02-07 13:16:00,
2013-02-07 07:17:00,24.2,22.2,29.89,NE,41,2.0,10.0,92,0.00,,,0.00,VWS V14.01,2013-02-07 13:17:00,
2013-02-07 07:18:00,24.2,22.2,29.89,NE,41,8.0,10.0,92,0.00,,,0.00,VWS V14.01,2013-02-07 13:18:00,
2013-02-07 07:19:00,24.2,22.2,29.89,NE,41,5.0,10.0,92,0.00,,,0.00,VWS V14.01,2013-02-07 13:19:00,
2013-02-07 07:20:00,24.2,22.2,29.89,NE,44,5.0,10.0,92,0.00,,,0.00,VWS V14.01,2013-02-07 13:20:00,
2013-02-07 07:21:00,24.1,22.1,29.89,NE,44,6.0,10.0,92,0.00,,,0.00,VWS V14.01,2013-02-07 13:21:00,
2013-02-07 07:22:00,24.2,22.2,29.89,NE,44,7.0,10.0,92,0.00,,,0.00,VWS V14.01,2013-02-07 13:22:00,
2013-02-07 07:23:00,24.2,22.2,29.89,NE,44,7.0,10.0,92,0.00,,,0.00,VWS V14.01,2013-02-07 13:23:00,
2013-02-07 07:24:00,24.2,22.2,29.89,NE,46,12.0,12.0,92,0.00,,,0.00,VWS V14.01,2013-02-07 13:24:00,
2013-02-07 07:25:00,24.1,22.1,29.89,NE,46,7.0,12.0,92,0.00,,,0.00,VWS V14.01,2013-02-07 13:25:00,
2013-02-07 07:26:00,24.2,22.2,29.89,NE,46,1.0,12.0,92,0.00,,,0.00,VWS V14.01,2013-02-07 13:26:00,
2013-02-07 07:27:00,24.1,22.1,29.89,NE,46,1.0,12.0,92,0.00,,,0.00,VWS V14.01,2013-02-07 13:27:00,
2013-02-07 07:28:00,24.1,22.1,29.89,NE,46,0.0,12.0,92,0.00,,,0.00,VWS V14.01,2013-02-07 13:28:00,
2013-02-07 07:29:00,24.1,22.1,29.89,NE,46,6.0,12.0,92,0.00,,,0.00,VWS V14.01,2013-02-07 13:29:00,
2013-02-07 07:30:00,24.2,22.2,29.90,NE,41,10.0,12.0,92,0.00,,,0.00,VWS V14.01,2013-02-07 13:30:00,
2013-02-07 07:31:00,24.2,22.2,29.90,NE,47,6.0,10.0,92,0.00,,,0.00,VWS V14.01,2013-02-07 13:31:00,
2013-02-07 07:32:00,24.2,22.2,29.90,NE,46,6.0,10.0,92,0.00,,,0.00,VWS V14.01,2013-02-07 13:32:00,
2013-02-07 07:33:00,24.2,22.2,29.90,NE,46,6.0,10.0,92,0.00,,,0.00,VWS V14.01,2013-02-07 13:33:00,
2013-02-07 07:34:00,24.2,22.2,29.90,NE,44,7.0,10.0,92,0.00,,,0.00,VWS V14.01,2013-02-07 13:34:00,
2013-02-07 07:35:00,24.2,22.2,29.90,NE,44,5.0,10.0,92,0.00,,,0.00,VWS V14.01,2013-02-07 13:35:00,
2013-02-07 07:36:00,24.2,22.2,29.90,NE,41,10.0,11.0,92,0.00,,,0.00,VWS V14.01,2013-02-07 13:36:00,
2013-02-07 07:37:00,24.2,22.2,29.90,NE,43,6.0,11.0,92,0.00,,,0.00,VWS V14.01,2013-02-07 13:37:00,
2013-02-07 07:38:00,24.2,22.2,29.90,NE,43,6.0,11.0,92,0.00,,,0.00,VWS V14.01,2013-02-07 13:38:00,
2013-02-07 07:39:00,24.2,22.5,29.90,NE,43,5.0,11.0,93,0.00,,,0.00,VWS V14.01,2013-02-07 13:39:00,
2013-02-07 07:40:00,24.2,22.5,29.90,NE,43,1.0,11.0,93,0.00,,,0.00,VWS V14.01,2013-02-07 13:40:00,
2013-02-07 07:41:00,24.2,22.5,29.90,NE,43,0.0,11.0,93,0.00,,,0.00,VWS V14.01,2013-02-07 13:41:00,
2013-02-07 07:42:00,24.2,22.5,29.90,NE,44,8.0,11.0,93,0.00,,,0.00,VWS V14.01,2013-02-07 13:42:00,
2013-02-07 07:43:00,24.2,22.5,29.90,NE,50,6.0,12.0,93,0.00,,,0.00,VWS V14.01,2013-02-07 13:43:00,
2013-02-07 07:44:00,24.2,22.5,29.90,NE,38,11.0,12.0,93,0.00,,,0.00,VWS V14.01,2013-02-07 13:44:00,
2013-02-07 07:45:00,24.2,22.5,29.91,NNE,31,8.0,12.0,93,0.00,,,0.00,VWS V14.01,2013-02-07 13:45:00,
2013-02-07 07:46:00,24.2,22.5,29.91,NNE,30,6.0,12.0,93,0.00,,,0.00,VWS V14.01,2013-02-07 13:46:00,
2013-02-07 07:47:00,24.2,22.5,29.91,NNE,31,1.0,12.0,93,0.00,,,0.00,VWS V14.01,2013-02-07 13:47:00,
2013-02-07 07:48:00,24.2,22.5,29.91,NNE,31,1.0,12.0,93,0.00,,,0.00,VWS V14.01,2013-02-07 13:48:00,
2013-02-07 07:49:00,24.2,22.5,29.91,NNE,13,7.0,13.0,93,0.00,,,0.00,VWS V14.01,2013-02-07 13:49:00,
2013-02-07 07:50:00,24.2,22.5,29.91,NE,34,1.0,13.0,93,0.00,,,0.00,VWS V14.01,2013-02-07 13:50:00,
2013-02-07 07:51:00,24.2,22.5,29.91,NE,34,5.0,13.0,93,0.00,,,0.00,VWS V14.01,2013-02-07 13:51:00,
2013-02-07 07:52:00,24.2,22.5,29.91,NNE,29,5.0,13.0,93,0.00,,,0.00,VWS V14.01,2013-02-07 13:52:00,
2013-02-07 07:53:00,24.2,22.5,29.91,NNE,29,5.0,13.0,93,0.00,,,0.00,VWS V14.01,2013-02-07 13:53:00,
2013-02-07 07:54:00,24.2,22.5,29.91,NNE,27,6.0,13.0,93,0.00,,,0.00,VWS V14.01,2013-02-07 13:54:00,
2013-02-07 07:55:00,24.2,22.5,29.91,NNE,16,1.0,13.0,93,0.00,,,0.00,VWS V14.01,2013-02-07 13:55:00,
2013-02-07 07:56:00,24.2,22.5,29.91,NNE,20,5.0,13.0,93,0.00,,,0.00,VWS V14.01,2013-02-07 13:56:00,
2013-02-07 07:57:00,24.2,22.5,29.91,NNE,22,0.0,13.0,93,0.00,,,0.00,VWS V14.01,2013-02-07 13:57:00,
2013-02-07 07:58:00,24.2,22.5,29.91,NNE,27,11.0,13.0,93,0.00,,,0.00,VWS V14.01,2013-02-07 13:58:00,
2013-02-07 07:59:00,24.2,22.5,29.91,NNE,31,2.0,13.0,93,0.00,,,0.00,VWS V14.01,2013-02-07 13:59:00,
2013-02-07 08:00:00,24.2,22.5,29.92,NNE,30,6.0,13.0,93,0.00,,,0.00,VWS V14.01,2013-02-07 14:00:00,
2013-02-07 08:01:00,24.2,22.5,29.92,NNE,23,13.0,13.0,93,0.00,,,0.00,VWS V14.01,2013-02-07 14:01:00,
2013-02-07 08:02:00,24.2,22.5,29.92,NNE,26,6.0,13.0,93,0.00,,,0.00,VWS V14.01,2013-02-07 14:02:00,
2013-02-07 08:03:00,24.2,22.7,29.92,NE,38,3.0,13.0,94,0.00,,,0.00,VWS V14.01,2013-02-07 14:03:00,
2013-02-07 08:04:00,24.2,22.7,29.92,NE,40,0.0,13.0,94,0.00,,,0.00,VWS V14.01,2013-02-07 14:04:00,
2013-02-07 08:05:00,24.2,22.7,29.92,NE,40,2.0,13.0,94,0.00,,,0.00,VWS V14.01,2013-02-07 14:05:00,
2013-02-07 08:06:00,24.2,22.7,29.92,NE,38,2.0,13.0,94,0.00,,,0.00,VWS V14.01,2013-02-07 14:06:00,
2013-02-07 08:07:00,24.2,22.7,29.92,NE,37,2.0,13.0,94,0.00,,,0.00,VWS V14.01,2013-02-07 14:07:00,
2013-02-07 08:08:00,24.2,22.7,29.92,NE,40,5.0,13.0,94,0.00,,,0.00,VWS V14.01,2013-02-07 14:08:00,
2013-02-07 08:09:00,24.2,22.7,29.92,NE,40,4.0,13.0,94,0.00,,,0.00,VWS V14.01,2013-02-07 14:09:00,
2013-02-07 08:10:00,24.2,22.7,29.92,NE,40,3.0,13.0,94,0.00,,,0.00,VWS V14.01,2013-02-07 14:10:00,
2013-02-07 08:11:00,24.2,22.7,29.92,NE,40,0.0,13.0,94,0.00,,,0.00,VWS V14.01,2013-02-07 14:11:00,
2013-02-07 08:12:00,24.2,22.7,29.92,NE,37,4.0,13.0,94,0.00,,,0.00,VWS V14.01,2013-02-07 14:12:00,
2013-02-07 08:13:00,24.2,22.7,29.92,NE,37,5.0,13.0,94,0.00,,,0.00,VWS V14.01,2013-02-07 14:13:00,
2013-02-07 08:14:00,24.4,22.9,29.92,NE,36,7.0,13.0,94,0.00,,,0.00,VWS V14.01,2013-02-07 14:14:00,
2013-02-07 08:15:00,24.4,22.9,29.93,NNE,31,6.0,13.0,94,0.00,,,0.00,VWS V14.01,2013-02-07 14:15:00,
2013-02-07 08:16:00,24.4,22.9,29.93,NNE,24,5.0,13.0,94,0.00,,,0.00,VWS V14.01,2013-02-07 14:16:00,
2013-02-07 08:17:00,24.4,22.9,29.93,NNE,24,3.0,13.0,94,0.00,,,0.00,VWS V14.01,2013-02-07 14:17:00,
2013-02-07 08:18:00,24.2,22.7,29.93,NNE,27,3.0,13.0,94,0.00,,,0.00,VWS V14.01,2013-02-07 14:18:00,
2013-02-07 08:19:00,24.4,22.9,29.93,NNE,27,9.0,13.0,94,0.00,,,0.00,VWS V14.01,2013-02-07 14:19:00,
2013-02-07 08:20:00,24.4,22.9,29.93,NNE,27,6.0,13.0,94,0.00,,,0.00,VWS V14.01,2013-02-07 14:20:00,
2013-02-07 08:21:00,24.4,22.9,29.93,NNE,30,7.0,13.0,94,0.00,,,0.00,VWS V14.01,2013-02-07 14:21:00,
2013-02-07 08:22:00,24.2,22.7,29.93,NNE,22,7.0,13.0,94,0.00,,,0.00,VWS V14.01,2013-02-07 14:22:00,
2013-02-07 08:23:00,24.4,22.9,29.93,NNE,22,1.0,13.0,94,0.00,,,0.00,VWS V14.01,2013-02-07 14:23:00,
2013-02-07 08:24:00,24.4,22.9,29.93,NNE,23,0.0,13.0,94,0.00,,,0.00,VWS V14.01,2013-02-07 14:24:00,
2013-02-07 08:25:00,24.4,22.9,29.93,NE,43,5.0,13.0,94,0.00,,,0.00,VWS V14.01,2013-02-07 14:25:00,
2013-02-07 08:26:00,24.4,22.9,29.93,NE,41,6.0,13.0,94,0.00,,,0.00,VWS V14.01,2013-02-07 14:26:00,
2013-02-07 08:27:00,24.4,22.9,29.93,NE,41,2.0,13.0,94,0.00,,,0.00,VWS V14.01,2013-02-07 14:27:00,
2013-02-07 08:28:00,24.4,22.9,29.93,NE,40,6.0,13.0,94,0.00,,,0.00,VWS V14.01,2013-02-07 14:28:00,
2013-02-07 08:29:00,24.4,22.9,29.93,NE,37,5.0,13.0,94,0.00,,,0.00,VWS V14.01,2013-02-07 14:29:00,
2013-02-07 08:30:00,24.4,22.9,29.94,NE,37,0.0,13.0,94,0.00,,,0.00,VWS V14.01,2013-02-07 14:30:00,
2013-02-07 08:31:00,24.4,22.9,29.94,NE,37,4.0,5.0,94,0.00,,,0.00,VWS V14.01,2013-02-07 14:31:00,
2013-02-07 08:32:00,24.4,22.9,29.94,NE,37,3.0,7.0,94,0.00,,,0.00,VWS V14.01,2013-02-07 14:32:00,
2013-02-07 08:33:00,24.4,22.9,29.94,NE,38,8.0,8.0,94,0.00,,,0.00,VWS V14.01,2013-02-07 14:33:00,
2013-02-07 08:34:00,24.4,22.9,29.94,NE,43,10.0,10.0,94,0.00,,,0.00,VWS V14.01,2013-02-07 14:34:00,
2013-02-07 08:35:00,24.4,22.9,29.94,NE,43,5.0,10.0,94,0.00,,,0.00,VWS V14.01,2013-02-07 14:35:00,
2013-02-07 08:36:00,24.4,22.9,29.94,NE,43,5.0,10.0,94,0.00,,,0.00,VWS V14.01,2013-02-07 14:36:00,
2013-02-07 08:37:00,24.4,22.9,29.94,NE,43,7.0,13.0,94,0.00,,,0.00,VWS V14.01,2013-02-07 14:37:00,
2013-02-07 08:38:00,24.4,22.9,29.94,NE,43,6.0,13.0,94,0.00,,,0.00,VWS V14.01,2013-02-07 14:38:00,
2013-02-07 08:39:00,24.4,22.9,29.94,NE,41,6.0,13.0,94,0.00,,,0.00,VWS V14.01,2013-02-07 14:39:00,
2013-02-07 08:40:00,24.4,22.9,29.94,NE,41,0.0,13.0,94,0.00,,,0.00,VWS V14.01,2013-02-07 14:40:00,
2013-02-07 08:41:00,24.4,22.9,29.94,NE,43,3.0,13.0,94,0.00,,,0.00,VWS V14.01,2013-02-07 14:41:00,
2013-02-07 08:42:00,24.4,22.9,29.94,NE,44,5.0,13.0,94,0.00,,,0.00,VWS V14.01,2013-02-07 14:42:00,
2013-02-07 08:43:00,24.4,22.9,29.94,NE,46,7.0,13.0,94,0.00,,,0.00,VWS V14.01,2013-02-07 14:43:00,
2013-02-07 08:44:00,24.4,22.9,29.94,NE,46,6.0,13.0,94,0.00,,,0.00,VWS V14.01,2013-02-07 14:44:00,
2013-02-07 08:45:00,24.4,22.9,29.93,NE,46,4.0,13.0,94,0.00,,,0.00,VWS V14.01,2013-02-07 14:45:00,
2013-02-07 08:46:00,24.4,22.7,29.93,NE,46,11.0,13.0,93,0.00,,,0.00,VWS V14.01,2013-02-07 14:46:00,
2013-02-07 08:47:00,24.4,22.7,29.93,NE,40,6.0,16.0,93,0.00,,,0.00,VWS V14.01,2013-02-07 14:47:00,
2013-02-07 08:48:00,24.4,22.7,29.93,NE,38,8.0,16.0,93,0.00,,,0.00,VWS V14.01,2013-02-07 14:48:00,
2013-02-07 08:49:00,24.5,22.8,29.93,NE,38,4.0,16.0,93,0.00,,,0.00,VWS V14.01,2013-02-07 14:49:00,
2013-02-07 08:50:00,24.5,22.8,29.93,NE,41,3.0,16.0,93,0.00,,,0.00,VWS V14.01,2013-02-07 14:50:00,
2013-02-07 08:51:00,24.5,22.8,29.93,NE,44,8.0,16.0,93,0.00,,,0.00,VWS V14.01,2013-02-07 14:51:00,
2013-02-07 08:52:00,24.5,22.8,29.93,NE,43,7.0,16.0,93,0.00,,,0.00,VWS V14.01,2013-02-07 14:52:00,
2013-02-07 08:53:00,24.5,22.8,29.93,NE,43,6.0,16.0,93,0.00,,,0.00,VWS V14.01,2013-02-07 14:53:00,
2013-02-07 08:54:00,24.5,22.8,29.93,NE,41,2.0,16.0,93,0.00,,,0.00,VWS V14.01,2013-02-07 14:54:00,
2013-02-07 08:55:00,24.5,22.8,29.93,NE,41,5.0,16.0,93,0.00,,,0.00,VWS V14.01,2013-02-07 14:55:00,
2013-02-07 08:56:00,24.5,22.8,29.93,NE,40,5.0,16.0,93,0.00,,,0.00,VWS V14.01,2013-02-07 14:56:00,
2013-02-07 08:57:00,24.5,22.8,29.93,NE,40,7.0,16.0,93,0.00,,,0.00,VWS V14.01,2013-02-07 14:57:00,
2013-02-07 08:58:00,24.5,22.8,29.93,NE,40,0.0,16.0,93,0.00,,,0.00,VWS V14.01,2013-02-07 14:58:00,
2013-02-07 08:59:00,24.5,22.8,29.93,NE,41,7.0,16.0,93,0.00,,,0.00,VWS V14.01,2013-02-07 14:59:00,
2013-02-07 09:00:00,24.5,22.8,29.93,NE,38,7.0,16.0,93,0.00,,,0.00,VWS V14.01,2013-02-07 15:00:00,
2013-02-07 09:01:00,24.5,22.8,29.93,NE,40,8.0,8.0,93,0.00,,,0.00,VWS V14.01,2013-02-07 15:01:00,
2013-02-07 09:02:00,24.5,22.8,29.93,NE,41,6.0,11.0,93,0.00,,,0.00,VWS V14.01,2013-02-07 15:02:00,
2013-02-07 09:03:00,24.7,23.0,29.93,NE,41,5.0,11.0,93,0.00,,,0.00,VWS V14.01,2013-02-07 15:03:00,
2013-02-07 09:04:00,24.7,23.0,29.93,NE,41,2.0,11.0,93,0.00,,,0.00,VWS V14.01,2013-02-07 15:04:00,
2013-02-07 09:05:00,24.7,23.0,29.93,NE,41,5.0,11.0,93,0.00,,,0.00,VWS V14.01,2013-02-07 15:05:00,
2013-02-07 09:06:00,24.7,23.0,29.93,NE,41,5.0,11.0,93,0.00,,,0.00,VWS V14.01,2013-02-07 15:06:00,
2013-02-07 09:07:00,24.7,23.0,29.93,NE,40,12.0,12.0,93,0.00,,,0.00,VWS V14.01,2013-02-07 15:07:00,
2013-02-07 09:08:00,24.7,23.0,29.93,NE,37,2.0,12.0,93,0.00,,,0.00,VWS V14.01,2013-02-07 15:08:00,
2013-02-07 09:09:00,24.7,23.0,29.93,NE,38,2.0,12.0,93,0.00,,,0.00,VWS V14.01,2013-02-07 15:09:00,
2013-02-07 09:10:00,24.7,23.0,29.93,NE,41,7.0,12.0,93,0.00,,,0.00,VWS V14.01,2013-02-07 15:10:00,
2013-02-07 09:11:00,24.7,23.0,29.93,NE,40,8.0,12.0,93,0.00,,,0.00,VWS V14.01,2013-02-07 15:11:00,
2013-02-07 09:12:00,24.7,23.0,29.93,NE,38,10.0,12.0,93,0.00,,,0.00,VWS V14.01,2013-02-07 15:12:00,
2013-02-07 09:13:00,24.7,23.0,29.93,NE,38,7.0,12.0,93,0.00,,,0.00,VWS V14.01,2013-02-07 15:13:00,
2013-02-07 09:14:00,24.7,23.0,29.93,NE,38,3.0,12.0,93,0.00,,,0.00,VWS V14.01,2013-02-07 15:14:00,
2013-02-07 09:15:00,24.7,23.0,29.93,NE,38,8.0,12.0,93,0.00,,,0.00,VWS V14.01,2013-02-07 15:15:00,
2013-02-07 09:16:00,24.7,23.0,29.93,NE,37,9.0,12.0,93,0.00,,,0.00,VWS V14.01,2013-02-07 15:16:00,
2013-02-07 09:17:00,24.7,23.0,29.93,NNE,31,8.0,12.0,93,0.00,,,0.00,VWS V14.01,2013-02-07 15:17:00,
2013-02-07 09:18:00,24.7,23.0,29.93,NE,34,8.0,12.0,93,0.00,,,0.00,VWS V14.01,2013-02-07 15:18:00,
2013-02-07 09:19:00,24.7,23.0,29.93,NNE,30,7.0,12.0,93,0.00,,,0.00,VWS V14.01,2013-02-07 15:19:00,
2013-02-07 09:20:00,24.7,23.0,29.93,NNE,29,5.0,12.0,93,0.00,,,0.00,VWS V14.01,2013-02-07 15:20:00,
2013-02-07 09:21:00,24.7,23.0,29.93,NNE,29,7.0,12.0,93,0.00,,,0.00,VWS V14.01,2013-02-07 15:21:00,
2013-02-07 09:22:00,24.7,23.0,29.93,NNE,29,5.0,12.0,93,0.00,,,0.00,VWS V14.01,2013-02-07 15:22:00,
2013-02-07 09:23:00,24.7,23.0,29.93,NNE,23,12.0,12.0,93,0.00,,,0.00,VWS V14.01,2013-02-07 15:23:00,
2013-02-07 09:24:00,24.7,23.0,29.93,NE,41,7.0,14.0,93,0.00,,,0.00,VWS V14.01,2013-02-07 15:24:00,
2013-02-07 09:25:00,24.7,23.0,29.93,NE,38,7.0,14.0,93,0.00,,,0.00,VWS V14.01,2013-02-07 15:25:00,
2013-02-07 09:26:00,24.7,23.0,29.93,NNE,30,12.0,14.0,93,0.00,,,0.00,VWS V14.01,2013-02-07 15:26:00,
2013-02-07 09:27:00,24.7,23.0,29.93,NNE,30,3.0,14.0,93,0.00,,,0.00,VWS V14.01,2013-02-07 15:27:00,
2013-02-07 09:28:00,24.7,23.0,29.93,NNE,19,7.0,14.0,93,0.00,,,0.00,VWS V14.01,2013-02-07 15:28:00,
2013-02-07 09:29:00,24.7,23.0,29.93,NE,38,10.0,14.0,93,0.00,,,0.00,VWS V14.01,2013-02-07 15:29:00,
2013-02-07 09:30:00,24.7,23.0,29.94,NE,37,7.0,14.0,93,0.00,,,0.00,VWS V14.01,2013-02-07 15:30:00,
2013-02-07 09:31:00,24.7,23.0,29.94,NE,46,5.0,11.0,93,0.00,,,0.00,VWS V14.01,2013-02-07 15:31:00,
2013-02-07 09:32:00,24.7,23.0,29.94,NE,37,3.0,11.0,93,0.00,,,0.00,VWS V14.01,2013-02-07 15:32:00,
2013-02-07 09:33:00,24.7,23.0,29.94,NE,41,4.0,11.0,93,0.00,,,0.00,VWS V14.01,2013-02-07 15:33:00,
2013-02-07 09:34:00,24.7,23.0,29.94,NE,40,3.0,11.0,93,0.00,,,0.00,VWS V14.01,2013-02-07 15:34:00,
2013-02-07 09:35:00,24.7,23.0,29.94,NE,40,5.0,11.0,93,0.00,,,0.00,VWS V14.01,2013-02-07 15:35:00,
2013-02-07 09:36:00,24.7,23.0,29.94,NE,34,10.0,12.0,93,0.00,,,0.00,VWS V14.01,2013-02-07 15:36:00,
2013-02-07 09:37:00,24.7,23.0,29.94,NNE,22,8.0,12.0,93,0.00,,,0.00,VWS V14.01,2013-02-07 15:37:00,
2013-02-07 09:38:00,24.7,23.0,29.94,NNE,23,8.0,12.0,93,0.00,,,0.00,VWS V14.01,2013-02-07 15:38:00,
2013-02-07 09:39:00,24.7,23.0,29.94,NNE,33,7.0,12.0,93,0.00,,,0.00,VWS V14.01,2013-02-07 15:39:00,
2013-02-07 09:40:00,24.7,22.7,29.94,NE,48,6.0,12.0,92,0.00,,,0.00,VWS V14.01,2013-02-07 15:40:00,
2013-02-07 09:41:00,24.7,22.7,29.94,NNE,30,10.0,12.0,92,0.00,,,0.00,VWS V14.01,2013-02-07 15:41:00,
2013-02-07 09:42:00,24.7,22.7,29.94,North,352,6.0,12.0,92,0.00,,,0.00,VWS V14.01,2013-02-07 15:42:00,
2013-02-07 09:43:00,24.7,22.7,29.94,NE,55,8.0,12.0,92,0.00,,,0.00,VWS V14.01,2013-02-07 15:43:00,
2013-02-07 09:44:00,24.7,22.7,29.94,NE,37,5.0,12.0,92,0.00,,,0.00,VWS V14.01,2013-02-07 15:44:00,
2013-02-07 09:45:00,24.7,22.7,29.94,NE,38,4.0,12.0,92,0.00,,,0.00,VWS V14.01,2013-02-07 15:45:00,
2013-02-07 09:46:00,24.7,22.7,29.94,NE,38,5.0,12.0,92,0.00,,,0.00,VWS V14.01,2013-02-07 15:46:00,
2013-02-07 09:47:00,24.7,22.7,29.94,NE,40,12.0,12.0,92,0.00,,,0.00,VWS V14.01,2013-02-07 15:47:00,
2013-02-07 09:48:00,24.7,22.7,29.94,ENE,58,10.0,12.0,92,0.00,,,0.00,VWS V14.01,2013-02-07 15:48:00,
2013-02-07 09:49:00,24.7,22.7,29.94,NE,55,2.0,12.0,92,0.00,,,0.00,VWS V14.01,2013-02-07 15:49:00,
2013-02-07 09:50:00,24.7,22.7,29.94,NE,53,3.0,12.0,92,0.00,,,0.00,VWS V14.01,2013-02-07 15:50:00,
2013-02-07 09:51:00,24.7,23.0,29.94,North,9,4.0,12.0,93,0.00,,,0.00,VWS V14.01,2013-02-07 15:51:00,
2013-02-07 09:52:00,24.7,23.0,29.94,NNE,13,3.0,12.0,93,0.00,,,0.00,VWS V14.01,2013-02-07 15:52:00,
2013-02-07 09:53:00,24.7,23.0,29.94,NNE,26,6.0,12.0,93,0.00,,,0.00,VWS V14.01,2013-02-07 15:53:00,
2013-02-07 09:54:00,24.7,23.0,29.94,NE,34,9.0,12.0,93,0.00,,,0.00,VWS V14.01,2013-02-07 15:54:00,
2013-02-07 09:55:00,24.7,23.0,29.94,NE,41,2.0,12.0,93,0.00,,,0.00,VWS V14.01,2013-02-07 15:55:00,
2013-02-07 09:56:00,24.7,23.0,29.94,NE,41,5.0,12.0,93,0.00,,,0.00,VWS V14.01,2013-02-07 15:56:00,
2013-02-07 09:57:00,24.7,23.0,29.94,NE,50,13.0,13.0,93,0.00,,,0.00,VWS V14.01,2013-02-07 15:57:00,
2013-02-07 09:58:00,24.7,23.0,29.94,NE,47,5.0,13.0,93,0.00,,,0.00,VWS V14.01,2013-02-07 15:58:00,
2013-02-07 09:59:00,24.7,23.0,29.94,NE,47,0.0,13.0,93,0.00,,,0.00,VWS V14.01,2013-02-07 15:59:00,
2013-02-07 10:00:00,24.7,23.0,29.95,NE,37,5.0,13.0,93,0.00,,,0.00,VWS V14.01,2013-02-07 16:00:00,
2013-02-07 10:01:00,24.7,23.0,29.95,NE,37,7.0,7.0,93,0.00,,,0.00,VWS V14.01,2013-02-07 16:01:00,
2013-02-07 10:02:00,24.7,23.0,29.95,NE,36,5.0,7.0,93,0.00,,,0.00,VWS V14.01,2013-02-07 16:02:00,
2013-02-07 10:03:00,24.7,23.0,29.95,NE,36,5.0,10.0,93,0.00,,,0.00,VWS V14.01,2013-02-07 16:03:00,
2013-02-07 10:04:00,24.7,23.0,29.95,NE,36,6.0,10.0,93,0.00,,,0.00,VWS V14.01,2013-02-07 16:04:00,
2013-02-07 10:05:00,24.7,23.0,29.95,North,6,11.0,11.0,93,0.00,,,0.00,VWS V14.01,2013-02-07 16:05:00,
2013-02-07 10:06:00,24.7,23.0,29.95,NNE,26,10.0,11.0,93,0.00,,,0.00,VWS V14.01,2013-02-07 16:06:00,
2013-02-07 10:07:00,24.7,23.0,29.95,NNE,20,10.0,12.0,93,0.00,,,0.00,VWS V14.01,2013-02-07 16:07:00,
2013-02-07 10:08:00,24.7,22.7,29.95,NNE,30,8.0,12.0,92,0.00,,,0.00,VWS V14.01,2013-02-07 16:08:00,
2013-02-07 10:09:00,24.7,22.7,29.95,NE,37,5.0,12.0,92,0.00,,,0.00,VWS V14.01,2013-02-07 16:09:00,
2013-02-07 10:10:00,24.7,23.0,29.95,NNE,27,8.0,12.0,93,0.00,,,0.00,VWS V14.01,2013-02-07 16:10:00,
2013-02-07 10:11:00,24.7,22.7,29.95,NNE,31,9.0,12.0,92,0.00,,,0.00,VWS V14.01,2013-02-07 16:11:00,
2013-02-07 10:12:00,24.7,22.7,29.95,NE,40,5.0,12.0,92,0.00,,,0.00,VWS V14.01,2013-02-07 16:12:00,
2013-02-07 10:13:00,24.7,22.7,29.95,NE,36,6.0,12.0,92,0.00,,,0.00,VWS V14.01,2013-02-07 16:13:00,
2013-02-07 10:14:00,24.7,22.7,29.95,NE,37,7.0,12.0,92,0.00,,,0.00,VWS V14.01,2013-02-07 16:14:00,
2013-02-07 10:15:00,24.7,22.7,29.95,NE,47,5.0,12.0,92,0.00,,,0.00,VWS V14.01,2013-02-07 16:15:00,
2013-02-07 10:16:00,24.7,22.7,29.95,NE,44,6.0,12.0,92,0.00,,,0.00,VWS V14.01,2013-02-07 16:16:00,
2013-02-07 10:17:00,24.7,22.7,29.95,NE,41,5.0,12.0,92,0.00,,,0.00,VWS V14.01,2013-02-07 16:17:00,
2013-02-07 10:18:00,24.7,22.7,29.95,NE,43,7.0,12.0,92,0.00,,,0.00,VWS V14.01,2013-02-07 16:18:00,
2013-02-07 10:19:00,24.7,22.7,29.95,NE,38,2.0,12.0,92,0.00,,,0.00,VWS V14.01,2013-02-07 16:19:00,
2013-02-07 10:20:00,24.7,22.7,29.95,NNE,30,9.0,12.0,92,0.00,,,0.00,VWS V14.01,2013-02-07 16:20:00,
2013-02-07 10:21:00,24.7,22.7,29.95,NE,40,7.0,13.0,92,0.00,,,0.00,VWS V14.01,2013-02-07 16:21:00,
2013-02-07 10:22:00,24.7,22.7,29.95,NE,34,5.0,13.0,92,0.00,,,0.00,VWS V14.01,2013-02-07 16:22:00,
2013-02-07 10:23:00,24.7,22.7,29.95,NE,34,11.0,13.0,92,0.00,,,0.00,VWS V14.01,2013-02-07 16:23:00,
2013-02-07 10:24:00,24.7,22.7,29.95,NE,40,3.0,13.0,92,0.00,,,0.00,VWS V14.01,2013-02-07 16:24:00,
2013-02-07 10:25:00,24.7,22.7,29.95,NE,43,4.0,13.0,92,0.00,,,0.00,VWS V14.01,2013-02-07 16:25:00,
2013-02-07 10:26:00,24.7,22.7,29.95,NNE,27,2.0,13.0,92,0.00,,,0.00,VWS V14.01,2013-02-07 16:26:00,
2013-02-07 10:27:00,24.7,22.7,29.95,NE,43,6.0,13.0,92,0.00,,,0.00,VWS V14.01,2013-02-07 16:27:00,
2013-02-07 10:28:00,24.7,22.7,29.95,NE,37,8.0,13.0,92,0.00,,,0.00,VWS V14.01,2013-02-07 16:28:00,
2013-02-07 10:29:00,24.5,22.5,29.95,NNE,33,6.0,13.0,92,0.00,,,0.00,VWS V14.01,2013-02-07 16:29:00,
2013-02-07 10:30:00,24.5,22.5,29.95,NE,53,10.0,13.0,92,0.00,,,0.00,VWS V14.01,2013-02-07 16:30:00,
2013-02-07 10:31:00,24.5,22.5,29.95,NE,38,6.0,10.0,92,0.00,,,0.00,VWS V14.01,2013-02-07 16:31:00,
2013-02-07 10:32:00,24.5,22.5,29.95,NE,40,2.0,10.0,92,0.00,,,0.00,VWS V14.01,2013-02-07 16:32:00,
2013-02-07 10:33:00,24.7,22.7,29.95,NE,43,5.0,10.0,92,0.00,,,0.00,VWS V14.01,2013-02-07 16:33:00,
2013-02-07 10:34:00,24.7,22.7,29.95,NE,48,6.0,11.0,92,0.00,,,0.00,VWS V14.01,2013-02-07 16:34:00,
2013-02-07 10:35:00,24.7,22.7,29.95,ENE,57,9.0,16.0,92,0.00,,,0.00,VWS V14.01,2013-02-07 16:35:00,
2013-02-07 10:36:00,24.5,22.5,29.95,NNE,22,3.0,16.0,92,0.00,,,0.00,VWS V14.01,2013-02-07 16:36:00,
2013-02-07 10:37:00,24.7,22.7,29.95,NE,40,10.0,16.0,92,0.00,,,0.00,VWS V14.01,2013-02-07 16:37:00,
2013-02-07 10:38:00,24.7,22.7,29.95,NE,47,14.0,16.0,92,0.00,,,0.00,VWS V14.01,2013-02-07 16:38:00,
2013-02-07 10:39:00,24.7,22.7,29.95,NE,41,13.0,16.0,92,0.00,,,0.00,VWS V14.01,2013-02-07 16:39:00,
2013-02-07 10:40:00,24.7,22.7,29.95,NE,40,5.0,16.0,92,0.00,,,0.00,VWS V14.01,2013-02-07 16:40:00,
2013-02-07 10:41:00,24.7,22.7,29.95,NE,40,5.0,16.0,92,0.00,,,0.00,VWS V14.01,2013-02-07 16:41:00,
2013-02-07 10:42:00,24.7,22.7,29.95,NNE,30,5.0,16.0,92,0.00,,,0.00,VWS V14.01,2013-02-07 16:42:00,
2013-02-07 10:43:00,24.7,22.7,29.95,NE,36,7.0,16.0,92,0.00,,,0.00,VWS V14.01,2013-02-07 16:43:00,
2013-02-07 10:44:00,24.7,22.7,29.95,NE,44,13.0,16.0,92,0.00,,,0.00,VWS V14.01,2013-02-07 16:44:00,
2013-02-07 10:45:00,24.7,22.7,29.95,NE,41,7.0,16.0,92,0.00,,,0.00,VWS V14.01,2013-02-07 16:45:00,
2013-02-07 10:46:00,24.7,22.7,29.95,NE,47,4.0,16.0,92,0.00,,,0.00,VWS V14.01,2013-02-07 16:46:00,
2013-02-07 10:47:00,24.7,22.7,29.95,NNE,30,10.0,16.0,92,0.00,,,0.00,VWS V14.01,2013-02-07 16:47:00,
2013-02-07 10:48:00,24.7,22.7,29.95,NNE,31,6.0,16.0,92,0.00,,,0.00,VWS V14.01,2013-02-07 16:48:00,
2013-02-07 10:49:00,24.7,22.7,29.95,NE,40,12.0,16.0,92,0.00,,,0.00,VWS V14.01,2013-02-07 16:49:00,
2013-02-07 10:50:00,24.7,22.7,29.95,North,359,7.0,16.0,92,0.00,,,0.00,VWS V14.01,2013-02-07 16:50:00,
2013-02-07 10:51:00,24.7,22.7,29.95,NE,51,8.0,18.0,92,0.00,,,0.00,VWS V14.01,2013-02-07 16:51:00,
2013-02-07 10:52:00,24.7,22.7,29.95,NNE,30,7.0,18.0,92,0.00,,,0.00,VWS V14.01,2013-02-07 16:52:00,
2013-02-07 10:53:00,24.7,22.7,29.95,NE,44,9.0,18.0,92,0.00,,,0.00,VWS V14.01,2013-02-07 16:53:00,
2013-02-07 10:54:00,24.7,22.7,29.95,NE,40,11.0,18.0,92,0.00,,,0.00,VWS V14.01,2013-02-07 16:54:00,
2013-02-07 10:55:00,24.7,22.7,29.95,NE,38,4.0,18.0,92,0.00,,,0.00,VWS V14.01,2013-02-07 16:55:00,
2013-02-07 10:56:00,24.7,22.7,29.95,NE,34,2.0,18.0,92,0.00,,,0.00,VWS V14.01,2013-02-07 16:56:00,
2013-02-07 10:57:00,24.7,22.7,29.95,NE,44,7.0,18.0,92,0.00,,,0.00,VWS V14.01,2013-02-07 16:57:00,
2013-02-07 10:58:00,24.7,22.7,29.95,NE,50,7.0,18.0,92,0.00,,,0.00,VWS V14.01,2013-02-07 16:58:00,
2013-02-07 10:59:00,24.7,22.7,29.95,NE,48,3.0,18.0,92,0.00,,,0.00,VWS V14.01,2013-02-07 16:59:00,
2013-02-07 11:00:00,24.8,22.8,29.96,NNE,33,6.0,18.0,92,0.00,,,0.00,VWS V14.01,2013-02-07 17:00:00,
2013-02-07 11:01:00,24.8,22.8,29.96,NE,34,0.0,8.0,92,0.00,,,0.00,VWS V14.01,2013-02-07 17:01:00,
2013-02-07 11:02:00,24.8,22.8,29.96,NE,36,6.0,8.0,92,0.00,,,0.00,VWS V14.01,2013-02-07 17:02:00,
2013-02-07 11:03:00,24.8,22.8,29.96,NE,53,7.0,8.0,92,0.00,,,0.00,VWS V14.01,2013-02-07 17:03:00,
2013-02-07 11:04:00,24.8,22.8,29.96,NE,47,7.0,12.0,92,0.00,,,0.00,VWS V14.01,2013-02-07 17:04:00,
2013-02-07 11:05:00,24.8,22.8,29.96,NE,44,4.0,12.0,92,0.00,,,0.00,VWS V14.01,2013-02-07 17:05:00,
2013-02-07 11:06:00,24.8,22.8,29.96,NE,41,5.0,12.0,92,0.00,,,0.00,VWS V14.01,2013-02-07 17:06:00,
2013-02-07 11:07:00,24.8,22.8,29.96,NE,41,5.0,12.0,92,0.00,,,0.00,VWS V14.01,2013-02-07 17:07:00,
2013-02-07 11:08:00,24.8,22.8,29.96,NE,41,3.0,12.0,92,0.00,,,0.00,VWS V14.01,2013-02-07 17:08:00,
2013-02-07 11:09:00,24.8,22.8,29.96,NNE,19,11.0,12.0,92,0.00,,,0.00,VWS V14.01,2013-02-07 17:09:00,
2013-02-07 11:10:00,24.8,22.8,29.96,NNE,30,6.0,12.0,92,0.00,,,0.00,VWS V14.01,2013-02-07 17:10:00,
2013-02-07 11:11:00,24.8,22.8,29.96,NNE,29,10.0,12.0,92,0.00,,,0.00,VWS V14.01,2013-02-07 17:11:00,
2013-02-07 11:12:00,24.8,22.8,29.96,NE,34,3.0,12.0,92,0.00,,,0.00,VWS V14.01,2013-02-07 17:12:00,
2013-02-07 11:13:00,24.8,22.8,29.96,NNE,33,8.0,12.0,92,0.00,,,0.00,VWS V14.01,2013-02-07 17:13:00,
2013-02-07 11:14:00,24.8,22.8,29.96,NE,41,1.0,12.0,92,0.00,,,0.00,VWS V14.01,2013-02-07 17:14:00,
2013-02-07 11:15:00,24.8,22.8,29.96,NE,41,5.0,12.0,92,0.00,,,0.00,VWS V14.01,2013-02-07 17:15:00,
2013-02-07 11:16:00,24.8,22.8,29.96,North,6,7.0,12.0,92,0.00,,,0.00,VWS V14.01,2013-02-07 17:16:00,
2013-02-07 11:17:00,24.8,22.8,29.96,North,10,4.0,12.0,92,0.00,,,0.00,VWS V14.01,2013-02-07 17:17:00,
2013-02-07 11:18:00,24.8,22.8,29.96,NNE,24,9.0,12.0,92,0.00,,,0.00,VWS V14.01,2013-02-07 17:18:00,
2013-02-07 11:19:00,24.8,22.8,29.96,NNE,29,8.0,12.0,92,0.00,,,0.00,VWS V14.01,2013-02-07 17:19:00,
2013-02-07 11:20:00,24.8,22.8,29.96,NNE,20,8.0,13.0,92,0.00,,,0.00,VWS V14.01,2013-02-07 17:20:00,
2013-02-07 11:21:00,24.8,22.8,29.96,NNE,12,7.0,13.0,92,0.00,,,0.00,VWS V14.01,2013-02-07 17:21:00,
2013-02-07 11:22:00,24.7,22.5,29.96,NNE,31,12.0,14.0,91,0.00,,,0.00,VWS V14.01,2013-02-07 17:22:00,
2013-02-07 11:23:00,24.7,22.5,29.96,NNE,14,9.0,14.0,91,0.00,,,0.00,VWS V14.01,2013-02-07 17:23:00,
2013-02-07 11:24:00,24.7,22.5,29.96,NNE,16,7.0,14.0,91,0.00,,,0.00,VWS V14.01,2013-02-07 17:24:00,
2013-02-07 11:25:00,24.7,22.5,29.96,NNE,20,9.0,14.0,91,0.00,,,0.00,VWS V14.01,2013-02-07 17:25:00,
2013-02-07 11:26:00,24.7,22.5,29.96,NNE,24,2.0,14.0,91,0.00,,,0.00,VWS V14.01,2013-02-07 17:26:00,
2013-02-07 11:27:00,24.7,22.5,29.96,NNE,13,10.0,14.0,91,0.00,,,0.00,VWS V14.01,2013-02-07 17:27:00,
2013-02-07 11:28:00,24.7,22.5,29.96,NNE,20,11.0,14.0,91,0.00,,,0.00,VWS V14.01,2013-02-07 17:28:00,
2013-02-07 11:29:00,24.7,22.5,29.96,NNE,24,7.0,14.0,91,0.00,,,0.00,VWS V14.01,2013-02-07 17:29:00,
2013-02-07 11:30:00,24.7,22.5,29.96,NNE,13,2.0,14.0,91,0.00,,,0.00,VWS V14.01,2013-02-07 17:30:00,
2013-02-07 11:31:00,24.7,22.5,29.96,NNE,17,1.0,10.0,91,0.00,,,0.00,VWS V14.01,2013-02-07 17:31:00,
2013-02-07 11:32:00,24.7,22.5,29.96,NNE,27,6.0,11.0,91,0.00,,,0.00,VWS V14.01,2013-02-07 17:32:00,
2013-02-07 11:33:00,24.7,22.5,29.96,NNE,17,5.0,11.0,91,0.00,,,0.00,VWS V14.01,2013-02-07 17:33:00,
2013-02-07 11:34:00,24.7,22.5,29.96,NNE,26,6.0,11.0,91,0.00,,,0.00,VWS V14.01,2013-02-07 17:34:00,
2013-02-07 11:35:00,24.7,22.5,29.96,NNE,26,7.0,11.0,91,0.00,,,0.00,VWS V14.01,2013-02-07 17:35:00,
2013-02-07 11:36:00,24.7,22.5,29.96,NNE,26,5.0,11.0,91,0.00,,,0.00,VWS V14.01,2013-02-07 17:36:00,
2013-02-07 11:37:00,24.7,22.5,29.96,NNE,27,12.0,12.0,91,0.00,,,0.00,VWS V14.01,2013-02-07 17:37:00,
2013-02-07 11:38:00,24.7,22.5,29.96,NNE,31,7.0,12.0,91,0.00,,,0.00,VWS V14.01,2013-02-07 17:38:00,
2013-02-07 11:39:00,24.7,22.5,29.96,NNE,33,3.0,12.0,91,0.00,,,0.00,VWS V14.01,2013-02-07 17:39:00,
2013-02-07 11:40:00,24.7,22.5,29.96,NNE,27,5.0,12.0,91,0.00,,,0.00,VWS V14.01,2013-02-07 17:40:00,
2013-02-07 11:41:00,24.7,22.5,29.96,NNE,22,13.0,16.0,91,0.00,,,0.00,VWS V14.01,2013-02-07 17:41:00,
2013-02-07 11:42:00,24.7,22.5,29.96,North,3,7.0,16.0,91,0.00,,,0.00,VWS V14.01,2013-02-07 17:42:00,
2013-02-07 11:43:00,24.7,22.5,29.96,NE,40,6.0,16.0,91,0.00,,,0.00,VWS V14.01,2013-02-07 17:43:00,
2013-02-07 11:44:00,24.7,22.5,29.96,NNE,27,8.0,17.0,91,0.00,,,0.00,VWS V14.01,2013-02-07 17:44:00,
2013-02-07 11:45:00,24.7,22.5,29.95,North,9,5.0,17.0,91,0.00,,,0.00,VWS V14.01,2013-02-07 17:45:00,
2013-02-07 11:46:00,24.7,22.5,29.95,NNE,16,6.0,17.0,91,0.00,,,0.00,VWS V14.01,2013-02-07 17:46:00,
2013-02-07 11:47:00,24.7,22.5,29.95,NE,37,8.0,17.0,91,0.00,,,0.00,VWS V14.01,2013-02-07 17:47:00,
2013-02-07 11:48:00,24.7,22.5,29.95,NE,37,0.0,17.0,91,0.00,,,0.00,VWS V14.01,2013-02-07 17:48:00,
2013-02-07 11:49:00,24.7,22.5,29.95,NNE,26,12.0,17.0,91,0.00,,,0.00,VWS V14.01,2013-02-07 17:49:00,
2013-02-07 11:50:00,24.7,22.5,29.95,NE,46,11.0,17.0,91,0.00,,,0.00,VWS V14.01,2013-02-07 17:50:00,
2013-02-07 11:51:00,24.7,22.5,29.95,North,10,9.0,17.0,91,0.00,,,0.00,VWS V14.01,2013-02-07 17:51:00,
2013-02-07 11:52:00,24.7,22.5,29.95,NNE,33,10.0,17.0,91,0.00,,,0.00,VWS V14.01,2013-02-07 17:52:00,
2013-02-07 11:53:00,24.7,22.2,29.95,North,6,6.0,17.0,90,0.00,,,0.00,VWS V14.01,2013-02-07 17:53:00,
2013-02-07 11:54:00,24.7,22.5,29.95,North,3,4.0,17.0,91,0.00,,,0.00,VWS V14.01,2013-02-07 17:54:00,
2013-02-07 11:55:00,24.7,22.5,29.95,NNE,16,8.0,17.0,91,0.00,,,0.00,VWS V14.01,2013-02-07 17:55:00,
2013-02-07 11:56:00,24.7,22.5,29.95,North,353,7.0,17.0,91,0.00,,,0.00,VWS V14.01,2013-02-07 17:56:00,
2013-02-07 11:57:00,24.7,22.5,29.95,NNE,30,11.0,17.0,91,0.00,,,0.00,VWS V14.01,2013-02-07 17:57:00,
2013-02-07 11:58:00,24.7,22.5,29.95,North,6,13.0,17.0,91,0.00,,,0.00,VWS V14.01,2013-02-07 17:58:00,
2013-02-07 11:59:00,24.7,22.2,29.95,NNE,19,9.0,17.0,90,0.00,,,0.00,VWS V14.01,2013-02-07 17:59:00,
2013-02-07 12:00:00,24.7,22.2,29.95,North,7,6.0,17.0,90,0.00,,,0.00,VWS V14.01,2013-02-07 18:00:00,
2013-02-07 12:01:00,24.7,22.2,29.95,NNE,19,5.0,13.0,90,0.00,,,0.00,VWS V14.01,2013-02-07 18:01:00,
2013-02-07 12:02:00,24.7,22.2,29.95,North,6,7.0,13.0,90,0.00,,,0.00,VWS V14.01,2013-02-07 18:02:00,
2013-02-07 12:03:00,24.7,22.2,29.95,NNE,31,10.0,13.0,90,0.00,,,0.00,VWS V14.01,2013-02-07 18:03:00,
2013-02-07 12:04:00,24.7,22.2,29.95,NNE,23,6.0,13.0,90,0.00,,,0.00,VWS V14.01,2013-02-07 18:04:00,
2013-02-07 12:05:00,24.8,22.3,29.95,NNE,24,7.0,13.0,90,0.00,,,0.00,VWS V14.01,2013-02-07 18:05:00,
2013-02-07 12:06:00,24.8,22.3,29.95,NNE,22,7.0,13.0,90,0.00,,,0.00,VWS V14.01,2013-02-07 18:06:00,
2013-02-07 12:07:00,24.8,22.3,29.95,NNE,22,7.0,13.0,90,0.00,,,0.00,VWS V14.01,2013-02-07 18:07:00,
2013-02-07 12:08:00,24.8,22.3,29.95,NNE,22,7.0,13.0,90,0.00,,,0.00,VWS V14.01,2013-02-07 18:08:00,
2013-02-07 12:09:00,24.8,22.3,29.95,NNE,23,11.0,13.0,90,0.00,,,0.00,VWS V14.01,2013-02-07 18:09:00,
2013-02-07 12:10:00,24.8,22.3,29.95,NE,41,11.0,14.0,90,0.00,,,0.00,VWS V14.01,2013-02-07 18:10:00,
2013-02-07 12:11:00,24.8,22.3,29.95,North,349,2.0,14.0,90,0.00,,,0.00,VWS V14.01,2013-02-07 18:11:00,
2013-02-07 12:12:00,24.8,22.3,29.95,NNE,20,7.0,14.0,90,0.00,,,0.00,VWS V14.01,2013-02-07 18:12:00,
2013-02-07 12:13:00,24.8,22.3,29.95,NNE,24,10.0,14.0,90,0.00,,,0.00,VWS V14.01,2013-02-07 18:13:00,
2013-02-07 12:14:00,24.8,22.3,29.95,NNW,348,10.0,14.0,90,0.00,,,0.00,VWS V14.01,2013-02-07 18:14:00,
2013-02-07 12:15:00,24.8,22.3,29.95,NNE,26,7.0,14.0,90,0.00,,,0.00,VWS V14.01,2013-02-07 18:15:00,
2013-02-07 12:16:00,24.8,22.0,29.95,NNE,16,13.0,14.0,89,0.00,,,0.00,VWS V14.01,2013-02-07 18:16:00,
2013-02-07 12:17:00,24.8,22.0,29.95,NNE,23,8.0,14.0,89,0.00,,,0.00,VWS V14.01,2013-02-07 18:17:00,
2013-02-07 12:18:00,24.8,22.0,29.95,NNE,27,10.0,14.0,89,0.00,,,0.00,VWS V14.01,2013-02-07 18:18:00,
2013-02-07 12:19:00,24.8,22.0,29.95,NNE,31,4.0,14.0,89,0.00,,,0.00,VWS V14.01,2013-02-07 18:19:00,
2013-02-07 12:20:00,24.8,22.0,29.95,NNE,26,6.0,14.0,89,0.00,,,0.00,VWS V14.01,2013-02-07 18:20:00,
2013-02-07 12:21:00,24.8,22.0,29.95,NNE,31,7.0,14.0,89,0.00,,,0.00,VWS V14.01,2013-02-07 18:21:00,
2013-02-07 12:22:00,24.8,22.0,29.95,NNE,20,6.0,14.0,89,0.00,,,0.00,VWS V14.01,2013-02-07 18:22:00,
2013-02-07 12:23:00,24.8,22.0,29.95,NNE,31,9.0,14.0,89,0.00,,,0.00,VWS V14.01,2013-02-07 18:23:00,
2013-02-07 12:24:00,25.0,22.2,29.95,NNE,29,8.0,14.0,89,0.00,,,0.00,VWS V14.01,2013-02-07 18:24:00,
2013-02-07 12:25:00,25.0,22.2,29.95,North,7,7.0,14.0,89,0.00,,,0.00,VWS V14.01,2013-02-07 18:25:00,
2013-02-07 12:26:00,25.0,22.2,29.95,North,9,6.0,14.0,89,0.00,,,0.00,VWS V14.01,2013-02-07 18:26:00,
2013-02-07 12:27:00,25.0,22.2,29.95,NNE,31,6.0,14.0,89,0.00,,,0.00,VWS V14.01,2013-02-07 18:27:00,
2013-02-07 12:28:00,25.0,22.2,29.95,North,355,3.0,14.0,89,0.00,,,0.00,VWS V14.01,2013-02-07 18:28:00,
2013-02-07 12:29:00,25.0,22.2,29.95,NE,34,11.0,14.0,89,0.00,,OVC012,0.00,VWS V14.01,2013-02-07 18:29:00,
2013-02-07 12:30:00,25.0,22.2,29.95,NNE,22,5.0,14.0,89,0.00,,OVC012,0.00,VWS V14.01,2013-02-07 18:30:00,
2013-02-07 12:31:00,25.0,22.2,29.95,NNE,29,6.0,11.0,89,0.00,,OVC012,0.00,VWS V14.01,2013-02-07 18:31:00,
2013-02-07 12:32:00,25.1,22.0,29.95,NNE,24,8.0,11.0,88,0.00,,OVC012,0.00,VWS V14.01,2013-02-07 18:32:00,
2013-02-07 12:33:00,25.1,22.0,29.95,NNE,29,13.0,18.0,88,0.00,,OVC012,0.00,VWS V14.01,2013-02-07 18:33:00,
2013-02-07 12:34:00,25.1,22.0,29.95,NNE,33,11.0,18.0,88,0.00,,OVC012,0.00,VWS V14.01,2013-02-07 18:34:00,
2013-02-07 12:35:00,25.1,22.0,29.95,NNE,20,10.0,18.0,88,0.00,,OVC012,0.00,VWS V14.01,2013-02-07 18:35:00,
2013-02-07 12:36:00,25.1,21.8,29.95,North,6,7.0,18.0,87,0.00,,OVC012,0.00,VWS V14.01,2013-02-07 18:36:00,
2013-02-07 12:37:00,25.1,21.8,29.95,NE,36,7.0,18.0,87,0.00,,OVC012,0.00,VWS V14.01,2013-02-07 18:37:00,
2013-02-07 12:38:00,25.1,21.8,29.95,North,6,9.0,18.0,87,0.00,,OVC012,0.00,VWS V14.01,2013-02-07 18:38:00,
2013-02-07 12:39:00,25.1,21.8,29.95,North,353,8.0,18.0,87,0.00,,OVC012,0.00,VWS V14.01,2013-02-07 18:39:00,
2013-02-07 12:40:00,25.1,21.8,29.95,NNE,30,10.0,18.0,87,0.00,,OVC012,0.00,VWS V14.01,2013-02-07 18:40:00,
2013-02-07 12:41:00,25.1,21.8,29.95,NE,40,8.0,18.0,87,0.00,,OVC012,0.00,VWS V14.01,2013-02-07 18:41:00,
2013-02-07 12:42:00,25.3,22.0,29.95,NNE,22,11.0,18.0,87,0.00,,OVC012,0.00,VWS V14.01,2013-02-07 18:42:00,
2013-02-07 12:43:00,25.3,21.7,29.95,North,9,11.0,18.0,86,0.00,,OVC012,0.00,VWS V14.01,2013-02-07 18:43:00,
2013-02-07 12:44:00,25.3,21.7,29.95,NE,41,11.0,18.0,86,0.00,,OVC012,0.00,VWS V14.01,2013-02-07 18:44:00,
2013-02-07 12:45:00,25.3,21.7,29.95,NNW,345,0.0,18.0,86,0.00,,OVC012,0.00,VWS V14.01,2013-02-07 18:45:00,
2013-02-07 12:46:00,25.3,21.7,29.95,NNE,17,11.0,18.0,86,0.00,,OVC012,0.00,VWS V14.01,2013-02-07 18:46:00,
2013-02-07 12:47:00,25.4,21.8,29.95,NE,37,7.0,18.0,86,0.00,,OVC012,0.00,VWS V14.01,2013-02-07 18:47:00,
2013-02-07 12:48:00,25.4,21.5,29.95,North,3,8.0,18.0,85,0.00,,OVC012,0.00,VWS V14.01,2013-02-07 18:48:00,
2013-02-07 12:49:00,25.4,21.5,29.95,NE,34,10.0,18.0,85,0.00,,OVC012,0.00,VWS V14.01,2013-02-07 18:49:00,
2013-02-07 12:50:00,25.4,21.5,29.95,North,9,4.0,18.0,85,0.00,,OVC012,0.00,VWS V14.01,2013-02-07 18:50:00,
2013-02-07 12:51:00,25.4,21.5,29.95,NNE,31,1.0,18.0,85,0.00,,OVC012,0.00,VWS V14.01,2013-02-07 18:51:00,
2013-02-07 12:52:00,25.4,21.5,29.95,NNE,23,7.0,18.0,85,0.00,,OVC012,0.00,VWS V14.01,2013-02-07 18:52:00,
2013-02-07 12:53:00,25.4,21.5,29.95,NNE,17,8.0,18.0,85,0.00,,OVC012,0.00,VWS V14.01,2013-02-07 18:53:00,
2013-02-07 12:54:00,25.4,21.5,29.95,North,10,11.0,18.0,85,0.00,,OVC012,0.00,VWS V14.01,2013-02-07 18:54:00,
2013-02-07 12:55:00,25.4,21.2,29.95,ENE,60,8.0,18.0,84,0.00,,OVC012,0.00,VWS V14.01,2013-02-07 18:55:00,
2013-02-07 12:56:00,25.4,21.2,29.95,NE,38,8.0,18.0,84,0.00,,OVC012,0.00,VWS V14.01,2013-02-07 18:56:00,
2013-02-07 12:57:00,25.4,21.2,29.95,NE,41,12.0,18.0,84,0.00,,OVC012,0.00,VWS V14.01,2013-02-07 18:57:00,
2013-02-07 12:58:00,25.4,21.2,29.95,NNE,27,10.0,18.0,84,0.00,,OVC012,0.00,VWS V14.01,2013-02-07 18:58:00,
2013-02-07 12:59:00,25.4,21.2,29.95,NNE,23,4.0,18.0,84,0.00,,OVC012,0.00,VWS V14.01,2013-02-07 18:59:00,
2013-02-07 13:00:00,25.6,21.5,29.94,NNE,30,12.0,18.0,84,0.00,,,0.00,VWS V14.01,2013-02-07 19:00:00,
2013-02-07 13:01:00,25.6,21.5,29.94,NE,46,11.0,15.0,84,0.00,,,0.00,VWS V14.01,2013-02-07 19:01:00,
2013-02-07 13:02:00,25.6,21.5,29.94,NNE,29,10.0,15.0,84,0.00,,,0.00,VWS V14.01,2013-02-07 19:02:00,
2013-02-07 13:03:00,25.6,21.5,29.94,NNE,12,2.0,15.0,84,0.00,,,0.00,VWS V14.01,2013-02-07 19:03:00,
2013-02-07 13:04:00,25.6,21.5,29.94,NNE,27,8.0,15.0,84,0.00,,,0.00,VWS V14.01,2013-02-07 19:04:00,
2013-02-07 13:05:00,25.6,21.5,29.94,NE,47,8.0,15.0,84,0.00,,,0.00,VWS V14.01,2013-02-07 19:05:00,
2013-02-07 13:06:00,25.6,21.5,29.94,NNE,23,16.0,16.0,84,0.00,,,0.00,VWS V14.01,2013-02-07 19:06:00,
2013-02-07 13:07:00,25.6,21.5,29.94,NNE,26,6.0,16.0,84,0.00,,,0.00,VWS V14.01,2013-02-07 19:07:00,
2013-02-07 13:08:00,25.6,21.5,29.94,North,353,12.0,19.0,84,0.00,,,0.00,VWS V14.01,2013-02-07 19:08:00,
2013-02-07 13:09:00,25.6,21.5,29.94,NNE,23,12.0,19.0,84,0.00,,,0.00,VWS V14.01,2013-02-07 19:09:00,
2013-02-07 13:10:00,25.6,21.5,29.94,NNE,31,19.0,19.0,84,0.00,,,0.00,VWS V14.01,2013-02-07 19:10:00,
2013-02-07 13:11:00,25.6,21.5,29.94,NE,40,3.0,19.0,84,0.00,,,0.00,VWS V14.01,2013-02-07 19:11:00,
2013-02-07 13:12:00,25.6,21.5,29.94,NNE,19,11.0,19.0,84,0.00,,,0.00,VWS V14.01,2013-02-07 19:12:00,
2013-02-07 13:13:00,25.6,21.5,29.94,NE,40,20.0,20.0,84,0.00,,,0.00,VWS V14.01,2013-02-07 19:13:00,
2013-02-07 13:14:00,25.6,21.5,29.94,North,356,6.0,20.0,84,0.00,,,0.00,VWS V14.01,2013-02-07 19:14:00,
2013-02-07 13:15:00,25.4,21.2,29.94,NNE,12,12.0,20.0,84,0.00,,,0.00,VWS V14.01,2013-02-07 19:15:00,
2013-02-07 13:16:00,25.4,21.2,29.94,NNE,23,13.0,20.0,84,0.00,,,0.00,VWS V14.01,2013-02-07 19:16:00,
2013-02-07 13:17:00,25.4,21.2,29.94,NNE,33,7.0,20.0,84,0.00,,,0.00,VWS V14.01,2013-02-07 19:17:00,
2013-02-07 13:18:00,25.4,21.2,29.94,NNE,29,10.0,20.0,84,0.00,,,0.00,VWS V14.01,2013-02-07 19:18:00,
2013-02-07 13:19:00,25.4,21.2,29.94,ENE,70,11.0,20.0,84,0.00,,,0.00,VWS V14.01,2013-02-07 19:19:00,
2013-02-07 13:20:00,25.3,21.4,29.94,NNE,31,11.0,20.0,85,0.00,,,0.00,VWS V14.01,2013-02-07 19:20:00,
2013-02-07 13:21:00,25.3,21.4,29.94,NE,43,12.0,20.0,85,0.00,,,0.00,VWS V14.01,2013-02-07 19:21:00,
2013-02-07 13:22:00,25.3,21.4,29.94,North,10,9.0,20.0,85,0.00,,,0.00,VWS V14.01,2013-02-07 19:22:00,
2013-02-07 13:23:00,25.3,21.4,29.94,NNE,29,7.0,20.0,85,0.00,,,0.00,VWS V14.01,2013-02-07 19:23:00,
2013-02-07 13:24:00,25.3,21.4,29.94,NNE,31,10.0,20.0,85,0.00,,,0.00,VWS V14.01,2013-02-07 19:24:00,
2013-02-07 13:25:00,25.3,21.4,29.94,NE,44,12.0,20.0,85,0.00,,,0.00,VWS V14.01,2013-02-07 19:25:00,
2013-02-07 13:26:00,25.3,21.4,29.94,NE,47,9.0,20.0,85,0.00,,,0.00,VWS V14.01,2013-02-07 19:26:00,
2013-02-07 13:27:00,25.3,21.4,29.94,NE,34,6.0,20.0,85,0.00,,,0.00,VWS V14.01,2013-02-07 19:27:00,
2013-02-07 13:28:00,25.3,21.4,29.94,NNE,33,12.0,20.0,85,0.00,,,0.00,VWS V14.01,2013-02-07 19:28:00,
2013-02-07 13:29:00,25.3,21.4,29.94,NNE,24,6.0,20.0,85,0.00,,,0.00,VWS V14.01,2013-02-07 19:29:00,
2013-02-07 13:30:00,25.3,21.4,29.95,NNE,33,16.0,20.0,85,0.00,,,0.00,VWS V14.01,2013-02-07 19:30:00,
2013-02-07 13:31:00,25.3,21.4,29.95,NE,34,11.0,18.0,85,0.00,,,0.00,VWS V14.01,2013-02-07 19:31:00,
2013-02-07 13:32:00,25.3,21.4,29.95,NE,43,7.0,18.0,85,0.00,,,0.00,VWS V14.01,2013-02-07 19:32:00,
2013-02-07 13:33:00,25.3,21.4,29.95,NE,37,3.0,18.0,85,0.00,,,0.00,VWS V14.01,2013-02-07 19:33:00,
2013-02-07 13:34:00,25.3,21.7,29.95,North,3,6.0,18.0,86,0.00,,,0.00,VWS V14.01,2013-02-07 19:34:00,
2013-02-07 13:35:00,25.3,21.7,29.95,NE,38,17.0,18.0,86,0.00,,,0.00,VWS V14.01,2013-02-07 19:35:00,
2013-02-07 13:36:00,25.3,21.4,29.95,NE,40,17.0,19.0,85,0.00,,,0.00,VWS V14.01,2013-02-07 19:36:00,
2013-02-07 13:37:00,25.3,21.7,29.95,NNE,26,9.0,19.0,86,0.00,,,0.00,VWS V14.01,2013-02-07 19:37:00,
2013-02-07 13:38:00,25.3,21.7,29.95,NNE,17,9.0,19.0,86,0.00,,,0.00,VWS V14.01,2013-02-07 19:38:00,
2013-02-07 13:39:00,25.3,21.7,29.95,NE,37,8.0,19.0,86,0.00,,,0.00,VWS V14.01,2013-02-07 19:39:00,
2013-02-07 13:40:00,25.3,21.7,29.95,ENE,77,7.0,19.0,86,0.00,,,0.00,VWS V14.01,2013-02-07 19:40:00,
2013-02-07 13:41:00,25.3,21.7,29.95,NE,36,6.0,19.0,86,0.00,,,0.00,VWS V14.01,2013-02-07 19:41:00,
2013-02-07 13:42:00,25.3,21.7,29.95,NE,37,8.0,19.0,86,0.00,,,0.00,VWS V14.01,2013-02-07 19:42:00,
2013-02-07 13:43:00,25.3,21.7,29.95,NE,43,10.0,19.0,86,0.00,,,0.00,VWS V14.01,2013-02-07 19:43:00,
2013-02-07 13:44:00,25.3,21.7,29.95,NNE,27,7.0,19.0,86,0.00,,OVC010,0.00,VWS V14.01,2013-02-07 19:44:00,
2013-02-07 13:45:00,25.3,21.7,29.94,North,6,10.0,19.0,86,0.00,,OVC010,0.00,VWS V14.01,2013-02-07 19:45:00,
2013-02-07 13:46:00,25.3,22.0,29.94,NE,38,13.0,19.0,87,0.00,,OVC010,0.00,VWS V14.01,2013-02-07 19:46:00,
2013-02-07 13:47:00,25.3,22.0,29.94,NE,34,10.0,19.0,87,0.00,,OVC010,0.00,VWS V14.01,2013-02-07 19:47:00,
2013-02-07 13:48:00,25.3,22.0,29.94,North,356,8.0,19.0,87,0.00,,OVC010,0.00,VWS V14.01,2013-02-07 19:48:00,
2013-02-07 13:49:00,25.3,22.0,29.94,NNE,24,7.0,19.0,87,0.00,,OVC010,0.00,VWS V14.01,2013-02-07 19:49:00,
2013-02-07 13:50:00,25.3,22.0,29.94,NE,37,11.0,19.0,87,0.00,,OVC010,0.00,VWS V14.01,2013-02-07 19:50:00,
2013-02-07 13:51:00,25.3,22.0,29.94,ENE,68,6.0,19.0,87,0.00,,OVC010,0.00,VWS V14.01,2013-02-07 19:51:00,
2013-02-07 13:52:00,25.3,22.0,29.94,NE,41,16.0,19.0,87,0.00,,OVC010,0.00,VWS V14.01,2013-02-07 19:52:00,
2013-02-07 13:53:00,25.3,22.0,29.94,NE,36,8.0,20.0,87,0.00,,OVC010,0.00,VWS V14.01,2013-02-07 19:53:00,
2013-02-07 13:54:00,25.3,22.0,29.94,NNE,24,11.0,20.0,87,0.00,,OVC010,0.00,VWS V14.01,2013-02-07 19:54:00,
2013-02-07 13:55:00,25.3,22.0,29.94,NE,48,10.0,20.0,87,0.00,,OVC010,0.00,VWS V14.01,2013-02-07 19:55:00,
2013-02-07 13:56:00,25.3,22.0,29.94,NE,50,7.0,20.0,87,0.00,,OVC010,0.00,VWS V14.01,2013-02-07 19:56:00,
2013-02-07 13:57:00,25.3,22.0,29.94,NNE,22,12.0,20.0,87,0.00,,OVC010,0.00,VWS V14.01,2013-02-07 19:57:00,
2013-02-07 13:58:00,25.3,22.0,29.94,NE,44,10.0,20.0,87,0.00,,OVC010,0.00,VWS V14.01,2013-02-07 19:58:00,
2013-02-07 13:59:00,25.3,22.2,29.94,NE,40,8.0,20.0,88,0.00,,OVC010,0.00,VWS V14.01,2013-02-07 19:59:00,
2013-02-07 14:00:00,25.3,22.2,29.95,NNE,26,7.0,20.0,88,0.00,,OVC010,0.00,VWS V14.01,2013-02-07 20:00:00,
2013-02-07 14:01:00,25.3,22.2,29.95,NNE,14,10.0,11.0,88,0.00,,OVC010,0.00,VWS V14.01,2013-02-07 20:01:00,
2013-02-07 14:02:00,25.3,22.2,29.95,NE,36,7.0,11.0,88,0.00,,OVC010,0.00,VWS V14.01,2013-02-07 20:02:00,
2013-02-07 14:03:00,25.3,22.2,29.95,North,5,3.0,12.0,88,0.00,,OVC010,0.00,VWS V14.01,2013-02-07 20:03:00,
2013-02-07 14:04:00,25.3,22.2,29.95,NNE,17,5.0,12.0,88,0.00,,OVC010,0.00,VWS V14.01,2013-02-07 20:04:00,
2013-02-07 14:05:00,25.3,22.2,29.95,NNE,20,6.0,12.0,88,0.00,,OVC010,0.00,VWS V14.01,2013-02-07 20:05:00,
2013-02-07 14:06:00,25.3,22.2,29.95,NE,34,12.0,14.0,88,0.00,,OVC010,0.00,VWS V14.01,2013-02-07 20:06:00,
2013-02-07 14:07:00,25.3,22.2,29.95,NE,41,8.0,16.0,88,0.00,,OVC010,0.00,VWS V14.01,2013-02-07 20:07:00,
2013-02-07 14:08:00,25.3,22.2,29.95,NNE,27,13.0,16.0,88,0.00,,OVC010,0.00,VWS V14.01,2013-02-07 20:08:00,
2013-02-07 14:09:00,25.3,22.2,29.95,NNE,12,10.0,16.0,88,0.00,,OVC010,0.00,VWS V14.01,2013-02-07 20:09:00,
2013-02-07 14:10:00,25.3,22.2,29.95,NNE,20,3.0,16.0,88,0.00,,OVC010,0.00,VWS V14.01,2013-02-07 20:10:00,
2013-02-07 14:11:00,25.3,22.2,29.95,North,5,7.0,16.0,88,0.00,,OVC010,0.00,VWS V14.01,2013-02-07 20:11:00,
2013-02-07 14:12:00,25.3,22.2,29.95,NNE,17,11.0,16.0,88,0.00,,OVC010,0.00,VWS V14.01,2013-02-07 20:12:00,
2013-02-07 14:13:00,25.3,22.2,29.95,NNE,13,8.0,16.0,88,0.00,,OVC010,0.00,VWS V14.01,2013-02-07 20:13:00,
2013-02-07 14:14:00,25.3,22.2,29.95,NNE,33,10.0,16.0,88,0.00,,OVC010,0.00,VWS V14.01,2013-02-07 20:14:00,
2013-02-07 14:15:00,25.3,22.2,29.95,North,6,6.0,16.0,88,0.00,,OVC010,0.00,VWS V14.01,2013-02-07 20:15:00,
2013-02-07 14:16:00,25.3,22.2,29.95,North,5,10.0,16.0,88,0.00,,OVC010,0.00,VWS V14.01,2013-02-07 20:16:00,
2013-02-07 14:17:00,25.3,22.0,29.95,North,2,8.0,16.0,87,0.00,,OVC010,0.00,VWS V14.01,2013-02-07 20:17:00,
2013-02-07 14:18:00,25.3,22.0,29.95,NNE,16,12.0,16.0,87,0.00,,OVC010,0.00,VWS V14.01,2013-02-07 20:18:00,
2013-02-07 14:19:00,25.3,22.0,29.95,North,5,10.0,16.0,87,0.00,,OVC010,0.00,VWS V14.01,2013-02-07 20:19:00,
2013-02-07 14:20:00,25.3,22.0,29.95,NE,41,10.0,16.0,87,0.00,,OVC010,0.00,VWS V14.01,2013-02-07 20:20:00,
2013-02-07 14:21:00,25.3,22.0,29.95,NE,47,11.0,16.0,87,0.00,,OVC010,0.00,VWS V14.01,2013-02-07 20:21:00,
2013-02-07 14:22:00,25.4,22.1,29.95,NNE,31,17.0,20.0,87,0.00,,OVC010,0.00,VWS V14.01,2013-02-07 20:22:00,
2013-02-07 14:23:00,25.4,22.1,29.95,NE,46,13.0,20.0,87,0.00,,OVC010,0.00,VWS V14.01,2013-02-07 20:23:00,
2013-02-07 14:24:00,25.4,22.1,29.95,NNE,33,7.0,20.0,87,0.00,,OVC010,0.00,VWS V14.01,2013-02-07 20:24:00,
2013-02-07 14:25:00,25.4,22.1,29.95,NNE,29,11.0,20.0,87,0.00,,OVC010,0.00,VWS V14.01,2013-02-07 20:25:00,
2013-02-07 14:26:00,25.4,22.1,29.95,NNE,33,7.0,20.0,87,0.00,,OVC010,0.00,VWS V14.01,2013-02-07 20:26:00,
2013-02-07 14:27:00,25.4,22.1,29.95,NNE,27,6.0,20.0,87,0.00,,OVC010,0.00,VWS V14.01,2013-02-07 20:27:00,
2013-02-07 14:28:00,25.4,22.1,29.95,NE,41,10.0,20.0,87,0.00,,OVC010,0.00,VWS V14.01,2013-02-07 20:28:00,
2013-02-07 14:29:00,25.4,22.1,29.95,NNE,17,11.0,20.0,87,0.00,,OVC014,0.00,VWS V14.01,2013-02-07 20:29:00,
2013-02-07 14:30:00,25.6,22.3,29.95,NNE,19,10.0,20.0,87,0.00,,OVC014,0.00,VWS V14.01,2013-02-07 20:30:00,
2013-02-07 14:31:00,25.6,22.3,29.95,NNE,14,10.0,10.0,87,0.00,,OVC014,0.00,VWS V14.01,2013-02-07 20:31:00,
2013-02-07 14:32:00,25.6,22.3,29.95,NE,36,5.0,10.0,87,0.00,,OVC014,0.00,VWS V14.01,2013-02-07 20:32:00,
2013-02-07 14:33:00,25.6,22.3,29.95,NNE,33,3.0,10.0,87,0.00,,OVC014,0.00,VWS V14.01,2013-02-07 20:33:00,
2013-02-07 14:34:00,25.6,22.3,29.95,NNE,33,0.0,10.0,87,0.00,,OVC014,0.00,VWS V14.01,2013-02-07 20:34:00,
2013-02-07 14:35:00,25.6,22.3,29.95,ENE,57,11.0,13.0,87,0.00,,OVC014,0.00,VWS V14.01,2013-02-07 20:35:00,
2013-02-07 14:36:00,25.7,22.1,29.95,North,3,12.0,13.0,86,0.00,,OVC014,0.00,VWS V14.01,2013-02-07 20:36:00,
2013-02-07 14:37:00,25.6,22.0,29.95,NE,44,11.0,14.0,86,0.00,,OVC014,0.00,VWS V14.01,2013-02-07 20:37:00,
2013-02-07 14:38:00,25.6,22.0,29.95,North,5,5.0,14.0,86,0.00,,OVC014,0.00,VWS V14.01,2013-02-07 20:38:00,
2013-02-07 14:39:00,25.7,22.1,29.95,North,2,9.0,14.0,86,0.00,,OVC014,0.00,VWS V14.01,2013-02-07 20:39:00,
2013-02-07 14:40:00,25.6,21.7,29.95,NNE,14,12.0,16.0,85,0.00,,OVC014,0.00,VWS V14.01,2013-02-07 20:40:00,
2013-02-07 14:41:00,25.6,21.7,29.95,NNE,19,7.0,16.0,85,0.00,,OVC014,0.00,VWS V14.01,2013-02-07 20:41:00,
2013-02-07 14:42:00,25.6,21.7,29.95,NE,38,6.0,16.0,85,0.00,,OVC014,0.00,VWS V14.01,2013-02-07 20:42:00,
2013-02-07 14:43:00,25.6,21.7,29.95,NE,34,7.0,16.0,85,0.00,,OVC014,0.00,VWS V14.01,2013-02-07 20:43:00,
2013-02-07 14:44:00,25.7,21.8,29.95,NNE,13,7.0,16.0,85,0.00,,OVC014,0.00,VWS V14.01,2013-02-07 20:44:00,
2013-02-07 14:45:00,25.7,21.8,29.96,NE,44,5.0,19.0,85,0.00,,OVC014,0.00,VWS V14.01,2013-02-07 20:45:00,
2013-02-07 14:46:00,25.7,21.8,29.96,NNE,17,7.0,19.0,85,0.00,,OVC014,0.00,VWS V14.01,2013-02-07 20:46:00,
2013-02-07 14:47:00,25.7,21.8,29.96,NNE,22,8.0,19.0,85,0.00,,OVC014,0.00,VWS V14.01,2013-02-07 20:47:00,
2013-02-07 14:48:00,25.7,21.8,29.96,NNE,27,9.0,19.0,85,0.00,,OVC014,0.00,VWS V14.01,2013-02-07 20:48:00,
2013-02-07 14:49:00,25.7,21.8,29.96,NNE,22,12.0,19.0,85,0.00,,OVC014,0.00,VWS V14.01,2013-02-07 20:49:00,
2013-02-07 14:50:00,25.7,21.8,29.96,NE,40,10.0,19.0,85,0.00,,OVC014,0.00,VWS V14.01,2013-02-07 20:50:00,
2013-02-07 14:51:00,25.7,21.5,29.96,NE,37,6.0,19.0,84,0.00,,OVC014,0.00,VWS V14.01,2013-02-07 20:51:00,
2013-02-07 14:52:00,25.7,21.5,29.96,NE,34,10.0,19.0,84,0.00,,OVC014,0.00,VWS V14.01,2013-02-07 20:52:00,
2013-02-07 14:53:00,25.7,21.5,29.96,NNE,29,10.0,19.0,84,0.00,,OVC014,0.00,VWS V14.01,2013-02-07 20:53:00,
2013-02-07 14:54:00,25.7,21.5,29.96,NNW,346,8.0,19.0,84,0.00,,OVC014,0.00,VWS V14.01,2013-02-07 20:54:00,
2013-02-07 14:55:00,25.7,21.5,29.96,NE,38,6.0,19.0,84,0.00,,OVC014,0.00,VWS V14.01,2013-02-07 20:55:00,
2013-02-07 14:56:00,25.8,21.6,29.96,NNW,345,5.0,19.0,84,0.00,,OVC014,0.00,VWS V14.01,2013-02-07 20:56:00,
2013-02-07 14:57:00,25.8,21.6,29.96,North,7,8.0,19.0,84,0.00,,OVC014,0.00,VWS V14.01,2013-02-07 20:57:00,
2013-02-07 14:58:00,25.8,21.4,29.96,NE,50,12.0,19.0,83,0.00,,OVC014,0.00,VWS V14.01,2013-02-07 20:58:00,
2013-02-07 14:59:00,25.8,21.4,29.96,NNE,33,12.0,19.0,83,0.00,,OVC018,0.00,VWS V14.01,2013-02-07 20:59:00,
2013-02-07 15:00:00,25.8,21.4,29.96,NE,37,8.0,19.0,83,0.00,,OVC018,0.00,VWS V14.01,2013-02-07 21:00:00,
2013-02-07 15:01:00,25.8,21.4,29.96,NE,46,10.0,11.0,83,0.00,,OVC018,0.00,VWS V14.01,2013-02-07 21:01:00,
2013-02-07 15:02:00,25.8,21.4,29.96,NE,40,3.0,11.0,83,0.00,,OVC018,0.00,VWS V14.01,2013-02-07 21:02:00,
2013-02-07 15:03:00,25.8,21.4,29.96,NNE,22,2.0,11.0,83,0.00,,OVC018,0.00,VWS V14.01,2013-02-07 21:03:00,
2013-02-07 15:04:00,25.8,21.4,29.96,NNE,30,1.0,11.0,83,0.00,,OVC018,0.00,VWS V14.01,2013-02-07 21:04:00,
2013-02-07 15:05:00,25.8,21.4,29.96,NE,43,7.0,11.0,83,0.00,,OVC018,0.00,VWS V14.01,2013-02-07 21:05:00,
2013-02-07 15:06:00,25.8,21.4,29.96,NNE,31,4.0,11.0,83,0.00,,OVC018,0.00,VWS V14.01,2013-02-07 21:06:00,
2013-02-07 15:07:00,26.0,21.6,29.96,NNE,33,13.0,13.0,83,0.00,,OVC018,0.00,VWS V14.01,2013-02-07 21:07:00,
2013-02-07 15:08:00,26.0,21.6,29.96,NNE,33,8.0,13.0,83,0.00,,OVC018,0.00,VWS V14.01,2013-02-07 21:08:00,
2013-02-07 15:09:00,25.8,21.4,29.96,NNE,26,14.0,14.0,83,0.00,,OVC018,0.00,VWS V14.01,2013-02-07 21:09:00,
2013-02-07 15:10:00,25.8,21.1,29.96,North,2,6.0,16.0,82,0.00,,OVC018,0.00,VWS V14.01,2013-02-07 21:10:00,
2013-02-07 15:11:00,25.8,21.1,29.96,NNE,12,0.0,16.0,82,0.00,,OVC018,0.00,VWS V14.01,2013-02-07 21:11:00,
2013-02-07 15:12:00,25.8,21.1,29.96,North,360,9.0,16.0,82,0.00,,OVC018,0.00,VWS V14.01,2013-02-07 21:12:00,
2013-02-07 15:13:00,25.8,21.1,29.96,NNE,22,11.0,18.0,82,0.00,,OVC018,0.00,VWS V14.01,2013-02-07 21:13:00,
2013-02-07 15:14:00,25.8,21.1,29.96,North,9,5.0,18.0,82,0.00,,OVC018,0.00,VWS V14.01,2013-02-07 21:14:00,
2013-02-07 15:15:00,25.8,21.1,29.97,NNE,16,7.0,18.0,82,0.00,,OVC018,0.00,VWS V14.01,2013-02-07 21:15:00,
2013-02-07 15:16:00,25.8,21.1,29.97,NNE,30,7.0,18.0,82,0.00,,OVC018,0.00,VWS V14.01,2013-02-07 21:16:00,
2013-02-07 15:17:00,25.8,21.1,29.97,North,10,9.0,18.0,82,0.00,,OVC018,0.00,VWS V14.01,2013-02-07 21:17:00,
2013-02-07 15:18:00,25.8,20.8,29.97,NNE,16,6.0,18.0,81,0.00,,OVC018,0.00,VWS V14.01,2013-02-07 21:18:00,
2013-02-07 15:19:00,25.8,20.8,29.97,NNE,33,11.0,18.0,81,0.00,,OVC018,0.00,VWS V14.01,2013-02-07 21:19:00,
2013-02-07 15:20:00,26.0,21.0,29.97,North,2,1.0,18.0,81,0.00,,OVC018,0.00,VWS V14.01,2013-02-07 21:20:00,
2013-02-07 15:21:00,26.0,21.0,29.97,NNE,22,4.0,18.0,81,0.00,,OVC018,0.00,VWS V14.01,2013-02-07 21:21:00,
2013-02-07 15:22:00,26.0,21.0,29.97,NNE,26,10.0,18.0,81,0.00,,OVC018,0.00,VWS V14.01,2013-02-07 21:22:00,
2013-02-07 15:23:00,26.0,21.0,29.97,North,360,4.0,18.0,81,0.00,,OVC018,0.00,VWS V14.01,2013-02-07 21:23:00,
2013-02-07 15:24:00,26.0,21.0,29.97,NNE,22,10.0,18.0,81,0.00,,OVC018,0.00,VWS V14.01,2013-02-07 21:24:00,
2013-02-07 15:25:00,26.0,21.0,29.97,NNE,20,12.0,18.0,81,0.00,,OVC018,0.00,VWS V14.01,2013-02-07 21:25:00,
2013-02-07 15:26:00,26.0,20.7,29.97,NNE,17,10.0,18.0,80,0.00,,OVC018,0.00,VWS V14.01,2013-02-07 21:26:00,
2013-02-07 15:27:00,26.0,20.7,29.97,NE,41,12.0,18.0,80,0.00,,OVC018,0.00,VWS V14.01,2013-02-07 21:27:00,
2013-02-07 15:28:00,26.0,20.7,29.97,NNE,27,6.0,18.0,80,0.00,,OVC018,0.00,VWS V14.01,2013-02-07 21:28:00,
2013-02-07 15:29:00,26.0,20.7,29.97,North,10,6.0,18.0,80,0.00,,OVC020,0.00,VWS V14.01,2013-02-07 21:29:00,
2013-02-07 15:30:00,26.0,20.7,29.98,NNW,346,5.0,18.0,80,0.00,,OVC020,0.00,VWS V14.01,2013-02-07 21:30:00,
2013-02-07 15:31:00,26.0,20.7,29.98,NNE,17,11.0,13.0,80,0.00,,OVC020,0.00,VWS V14.01,2013-02-07 21:31:00,
2013-02-07 15:32:00,26.0,20.7,29.98,NNE,23,11.0,13.0,80,0.00,,OVC020,0.00,VWS V14.01,2013-02-07 21:32:00,
2013-02-07 15:33:00,26.0,20.7,29.98,NNW,341,0.0,17.0,80,0.00,,OVC020,0.00,VWS V14.01,2013-02-07 21:33:00,
2013-02-07 15:34:00,26.0,20.7,29.98,NNW,343,14.0,17.0,80,0.00,,OVC020,0.00,VWS V14.01,2013-02-07 21:34:00,
2013-02-07 15:35:00,26.0,20.7,29.98,North,353,1.0,17.0,80,0.00,,OVC020,0.00,VWS V14.01,2013-02-07 21:35:00,
2013-02-07 15:36:00,26.0,20.7,29.98,North,6,2.0,17.0,80,0.00,,OVC020,0.00,VWS V14.01,2013-02-07 21:36:00,
2013-02-07 15:37:00,26.0,20.7,29.98,North,7,6.0,17.0,80,0.00,,OVC020,0.00,VWS V14.01,2013-02-07 21:37:00,
2013-02-07 15:38:00,26.0,20.7,29.98,North,2,6.0,17.0,80,0.00,,OVC020,0.00,VWS V14.01,2013-02-07 21:38:00,
2013-02-07 15:39:00,26.0,20.7,29.98,NNW,341,1.0,17.0,80,0.00,,OVC020,0.00,VWS V14.01,2013-02-07 21:39:00,
2013-02-07 15:40:00,26.0,20.7,29.98,NNW,346,2.0,17.0,80,0.00,,OVC020,0.00,VWS V14.01,2013-02-07 21:40:00,
2013-02-07 15:41:00,26.0,20.7,29.98,NNW,346,11.0,17.0,80,0.00,,OVC020,0.00,VWS V14.01,2013-02-07 21:41:00,
2013-02-07 15:42:00,26.0,20.7,29.98,NNE,16,7.0,17.0,80,0.00,,OVC020,0.00,VWS V14.01,2013-02-07 21:42:00,
2013-02-07 15:43:00,26.0,20.7,29.98,NE,34,7.0,17.0,80,0.00,,OVC020,0.00,VWS V14.01,2013-02-07 21:43:00,
2013-02-07 15:44:00,26.0,20.7,29.98,North,358,5.0,17.0,80,0.00,,OVC020,0.00,VWS V14.01,2013-02-07 21:44:00,
2013-02-07 15:45:00,26.0,20.7,29.99,NNE,23,9.0,17.0,80,0.00,,OVC020,0.00,VWS V14.01,2013-02-07 21:45:00,
2013-02-07 15:46:00,26.0,20.7,29.99,NNE,27,8.0,17.0,80,0.00,,OVC020,0.00,VWS V14.01,2013-02-07 21:46:00,
2013-02-07 15:47:00,26.0,20.7,29.99,North,350,5.0,17.0,80,0.00,,OVC020,0.00,VWS V14.01,2013-02-07 21:47:00,
2013-02-07 15:48:00,26.0,20.7,29.99,NNW,339,5.0,17.0,80,0.00,,OVC020,0.00,VWS V14.01,2013-02-07 21:48:00,
2013-02-07 15:49:00,26.0,20.7,29.99,NNE,33,7.0,17.0,80,0.00,,OVC020,0.00,VWS V14.01,2013-02-07 21:49:00,
2013-02-07 15:50:00,26.0,20.7,29.99,NNE,23,5.0,17.0,80,0.00,,OVC020,0.00,VWS V14.01,2013-02-07 21:50:00,
2013-02-07 15:51:00,26.0,20.7,29.99,NNE,14,4.0,17.0,80,0.00,,OVC020,0.00,VWS V14.01,2013-02-07 21:51:00,
2013-02-07 15:52:00,26.0,20.7,29.99,North,10,13.0,17.0,80,0.00,,OVC020,0.00,VWS V14.01,2013-02-07 21:52:00,
2013-02-07 15:53:00,26.0,20.4,29.99,NNE,31,11.0,17.0,79,0.00,,OVC020,0.00,VWS V14.01,2013-02-07 21:53:00,
2013-02-07 15:54:00,26.0,20.4,29.99,NE,37,6.0,17.0,79,0.00,,OVC020,0.00,VWS V14.01,2013-02-07 21:54:00,
2013-02-07 15:55:00,26.0,20.4,29.99,NE,37,7.0,17.0,79,0.00,,OVC020,0.00,VWS V14.01,2013-02-07 21:55:00,
2013-02-07 15:56:00,26.0,20.4,29.99,NE,37,8.0,17.0,79,0.00,,OVC020,0.00,VWS V14.01,2013-02-07 21:56:00,
2013-02-07 15:57:00,26.0,20.4,29.99,NNE,17,5.0,17.0,79,0.00,,OVC020,0.00,VWS V14.01,2013-02-07 21:57:00,
2013-02-07 15:58:00,26.0,20.4,29.99,NNE,13,6.0,17.0,79,0.00,,OVC020,0.00,VWS V14.01,2013-02-07 21:58:00,
2013-02-07 15:59:00,26.0,20.4,29.99,North,353,6.0,17.0,79,0.00,,OVC020,0.00,VWS V14.01,2013-02-07 21:59:00,
2013-02-07 16:00:00,26.0,20.4,29.99,NNE,30,5.0,17.0,79,0.00,,OVC020,0.00,VWS V14.01,2013-02-07 22:00:00,
2013-02-07 16:01:00,26.1,20.5,29.99,NNE,31,1.0,7.0,79,0.00,,OVC020,0.00,VWS V14.01,2013-02-07 22:01:00,
2013-02-07 16:02:00,26.1,20.5,29.99,North,5,10.0,10.0,79,0.00,,OVC020,0.00,VWS V14.01,2013-02-07 22:02:00,
2013-02-07 16:03:00,26.1,20.5,29.99,NNE,22,5.0,11.0,79,0.00,,OVC020,0.00,VWS V14.01,2013-02-07 22:03:00,
2013-02-07 16:04:00,26.1,20.5,29.99,NNW,343,0.0,11.0,79,0.00,,OVC020,0.00,VWS V14.01,2013-02-07 22:04:00,
2013-02-07 16:05:00,26.1,20.5,29.99,NNE,31,6.0,13.0,79,0.00,,OVC020,0.00,VWS V14.01,2013-02-07 22:05:00,
2013-02-07 16:06:00,26.1,20.5,29.99,North,355,7.0,13.0,79,0.00,,OVC020,0.00,VWS V14.01,2013-02-07 22:06:00,
2013-02-07 16:07:00,26.1,20.5,29.99,NNE,16,2.0,13.0,79,0.00,,OVC020,0.00,VWS V14.01,2013-02-07 22:07:00,
2013-02-07 16:08:00,26.1,20.5,29.99,NNE,22,9.0,13.0,79,0.00,,OVC020,0.00,VWS V14.01,2013-02-07 22:08:00,
2013-02-07 16:09:00,26.1,20.5,29.99,North,360,4.0,13.0,79,0.00,,OVC020,0.00,VWS V14.01,2013-02-07 22:09:00,
2013-02-07 16:10:00,26.1,20.5,29.99,NNE,19,8.0,13.0,79,0.00,,OVC020,0.00,VWS V14.01,2013-02-07 22:10:00,
2013-02-07 16:11:00,26.1,20.5,29.99,NNE,29,5.0,13.0,79,0.00,,OVC020,0.00,VWS V14.01,2013-02-07 22:11:00,
2013-02-07 16:12:00,26.1,20.5,29.99,NNW,346,7.0,13.0,79,0.00,,OVC020,0.00,VWS V14.01,2013-02-07 22:12:00,
2013-02-07 16:13:00,26.1,20.5,29.99,NE,34,6.0,13.0,79,0.00,,OVC020,0.00,VWS V14.01,2013-02-07 22:13:00,
2013-02-07 16:14:00,26.1,20.5,29.99,NNE,33,12.0,18.0,79,0.00,,OVC020,0.00,VWS V14.01,2013-02-07 22:14:00,
2013-02-07 16:15:00,26.1,20.5,29.99,NE,38,10.0,18.0,79,0.00,,OVC020,0.00,VWS V14.01,2013-02-07 22:15:00,
2013-02-07 16:16:00,26.1,20.2,29.99,North,355,6.0,18.0,78,0.00,,OVC020,0.00,VWS V14.01,2013-02-07 22:16:00,
2013-02-07 16:17:00,26.1,20.2,29.99,NNE,19,10.0,18.0,78,0.00,,OVC020,0.00,VWS V14.01,2013-02-07 22:17:00,
2013-02-07 16:18:00,26.1,20.2,29.99,NE,38,13.0,18.0,78,0.00,,OVC020,0.00,VWS V14.01,2013-02-07 22:18:00,
2013-02-07 16:19:00,26.1,20.2,29.99,NNE,33,7.0,18.0,78,0.00,,OVC020,0.00,VWS V14.01,2013-02-07 22:19:00,
2013-02-07 16:20:00,26.1,20.2,29.99,NNE,22,3.0,18.0,78,0.00,,OVC020,0.00,VWS V14.01,2013-02-07 22:20:00,
2013-02-07 16:21:00,26.1,20.2,29.99,North,2,11.0,18.0,78,0.00,,OVC020,0.00,VWS V14.01,2013-02-07 22:21:00,
2013-02-07 16:22:00,26.1,20.2,29.99,North,6,7.0,18.0,78,0.00,,OVC020,0.00,VWS V14.01,2013-02-07 22:22:00,
2013-02-07 16:23:00,26.1,20.2,29.99,NNE,33,10.0,18.0,78,0.00,,OVC020,0.00,VWS V14.01,2013-02-07 22:23:00,
2013-02-07 16:24:00,26.1,20.2,29.99,NNE,17,8.0,18.0,78,0.00,,OVC020,0.00,VWS V14.01,2013-02-07 22:24:00,
2013-02-07 16:25:00,26.1,20.2,29.99,NNE,17,3.0,18.0,78,0.00,,OVC020,0.00,VWS V14.01,2013-02-07 22:25:00,
2013-02-07 16:26:00,26.1,20.2,29.99,NNE,23,7.0,18.0,78,0.00,,OVC020,0.00,VWS V14.01,2013-02-07 22:26:00,
2013-02-07 16:27:00,26.1,20.2,29.99,NNE,30,11.0,18.0,78,0.00,,OVC020,0.00,VWS V14.01,2013-02-07 22:27:00,
2013-02-07 16:28:00,26.1,20.2,29.99,NNE,17,12.0,18.0,78,0.00,,OVC020,0.00,VWS V14.01,2013-02-07 22:28:00,
2013-02-07 16:29:00,26.1,20.2,29.99,NNE,23,6.0,18.0,78,0.00,,OVC020,0.00,VWS V14.01,2013-02-07 22:29:00,
2013-02-07 16:30:00,26.3,20.1,30.00,North,352,7.0,18.0,77,0.00,,OVC020,0.00,VWS V14.01,2013-02-07 22:30:00,
2013-02-07 16:31:00,26.3,20.1,30.00,NNE,30,18.0,18.0,77,0.00,,OVC020,0.00,VWS V14.01,2013-02-07 22:31:00,
2013-02-07 16:32:00,26.3,20.1,30.00,NNE,31,12.0,18.0,77,0.00,,OVC020,0.00,VWS V14.01,2013-02-07 22:32:00,
2013-02-07 16:33:00,26.3,20.1,30.00,NNE,20,0.0,18.0,77,0.00,,OVC020,0.00,VWS V14.01,2013-02-07 22:33:00,
2013-02-07 16:34:00,26.3,20.1,30.00,NNE,29,12.0,18.0,77,0.00,,OVC020,0.00,VWS V14.01,2013-02-07 22:34:00,
2013-02-07 16:35:00,26.3,20.1,30.00,NE,47,7.0,18.0,77,0.00,,OVC020,0.00,VWS V14.01,2013-02-07 22:35:00,
2013-02-07 16:36:00,26.3,20.1,30.00,North,7,3.0,18.0,77,0.00,,OVC020,0.00,VWS V14.01,2013-02-07 22:36:00,
2013-02-07 16:37:00,26.3,20.1,30.00,NE,47,13.0,18.0,77,0.00,,OVC020,0.00,VWS V14.01,2013-02-07 22:37:00,
2013-02-07 16:38:00,26.3,20.1,30.00,NNE,19,9.0,18.0,77,0.00,,OVC020,0.00,VWS V14.01,2013-02-07 22:38:00,
2013-02-07 16:39:00,26.3,20.1,30.00,NE,47,6.0,18.0,77,0.00,,OVC020,0.00,VWS V14.01,2013-02-07 22:39:00,
2013-02-07 16:40:00,26.3,20.1,30.00,North,10,3.0,18.0,77,0.00,,OVC020,0.00,VWS V14.01,2013-02-07 22:40:00,
2013-02-07 16:41:00,26.3,20.1,30.00,NNE,22,15.0,18.0,77,0.00,,OVC020,0.00,VWS V14.01,2013-02-07 22:41:00,
2013-02-07 16:42:00,26.3,19.8,30.00,NE,38,8.0,18.0,76,0.00,,OVC020,0.00,VWS V14.01,2013-02-07 22:42:00,
2013-02-07 16:43:00,26.3,19.8,30.00,North,352,7.0,18.0,76,0.00,,OVC020,0.00,VWS V14.01,2013-02-07 22:43:00,
2013-02-07 16:44:00,26.3,19.8,30.00,North,5,5.0,18.0,76,0.00,,OVC022,0.00,VWS V14.01,2013-02-07 22:44:00,
2013-02-07 16:45:00,26.3,19.8,30.00,North,6,5.0,18.0,76,0.00,,OVC022,0.00,VWS V14.01,2013-02-07 22:45:00,
2013-02-07 16:46:00,26.3,19.8,30.00,NNE,12,8.0,18.0,76,0.00,,OVC022,0.00,VWS V14.01,2013-02-07 22:46:00,
2013-02-07 16:47:00,26.3,19.8,30.00,NNE,19,10.0,18.0,76,0.00,,OVC022,0.00,VWS V14.01,2013-02-07 22:47:00,
2013-02-07 16:48:00,26.3,19.8,30.00,NE,37,5.0,18.0,76,0.00,,OVC022,0.00,VWS V14.01,2013-02-07 22:48:00,
2013-02-07 16:49:00,26.3,19.8,30.00,NNE,26,5.0,18.0,76,0.00,,OVC022,0.00,VWS V14.01,2013-02-07 22:49:00,
2013-02-07 16:50:00,26.3,19.8,30.00,NNE,19,13.0,18.0,76,0.00,,OVC022,0.00,VWS V14.01,2013-02-07 22:50:00,
2013-02-07 16:51:00,26.3,19.8,30.00,North,353,7.0,18.0,76,0.00,,OVC022,0.00,VWS V14.01,2013-02-07 22:51:00,
2013-02-07 16:52:00,26.3,19.8,30.00,NNE,24,7.0,18.0,76,0.00,,OVC022,0.00,VWS V14.01,2013-02-07 22:52:00,
2013-02-07 16:53:00,26.3,19.8,30.00,NE,37,14.0,18.0,76,0.00,,OVC022,0.00,VWS V14.01,2013-02-07 22:53:00,
2013-02-07 16:54:00,26.3,19.8,30.00,NNE,29,7.0,18.0,76,0.00,,OVC022,0.00,VWS V14.01,2013-02-07 22:54:00,
2013-02-07 16:55:00,26.3,19.8,30.00,NNE,24,5.0,18.0,76,0.00,,OVC022,0.00,VWS V14.01,2013-02-07 22:55:00,
2013-02-07 16:56:00,26.3,19.8,30.00,NNE,23,7.0,18.0,76,0.00,,OVC022,0.00,VWS V14.01,2013-02-07 22:56:00,
2013-02-07 16:57:00,26.3,19.8,30.00,NE,34,7.0,18.0,76,0.00,,OVC022,0.00,VWS V14.01,2013-02-07 22:57:00,
2013-02-07 16:58:00,26.3,19.8,30.00,NNE,31,11.0,18.0,76,0.00,,OVC022,0.00,VWS V14.01,2013-02-07 22:58:00,
2013-02-07 16:59:00,26.3,19.8,30.00,NNE,27,16.0,18.0,76,0.00,,OVC022,0.00,VWS V14.01,2013-02-07 22:59:00,
2013-02-07 17:00:00,26.3,19.8,30.01,NE,34,7.0,18.0,76,0.00,,OVC022,0.00,VWS V14.01,2013-02-07 23:00:00,
2013-02-07 17:01:00,26.3,19.8,30.01,North,3,11.0,11.0,76,0.00,,OVC022,0.00,VWS V14.01,2013-02-07 23:01:00,
2013-02-07 17:02:00,26.3,19.8,30.01,North,10,6.0,14.0,76,0.00,,OVC022,0.00,VWS V14.01,2013-02-07 23:02:00,
2013-02-07 17:03:00,26.3,19.8,30.01,NNE,29,8.0,16.0,76,0.00,,OVC022,0.00,VWS V14.01,2013-02-07 23:03:00,
2013-02-07 17:04:00,26.3,19.8,30.01,North,360,8.0,16.0,76,0.00,,OVC022,0.00,VWS V14.01,2013-02-07 23:04:00,
2013-02-07 17:05:00,26.3,19.8,30.01,NE,40,10.0,16.0,76,0.00,,OVC022,0.00,VWS V14.01,2013-02-07 23:05:00,
2013-02-07 17:06:00,26.3,19.8,30.01,NNE,23,11.0,16.0,76,0.00,,OVC022,0.00,VWS V14.01,2013-02-07 23:06:00,
2013-02-07 17:07:00,26.3,19.5,30.01,NNE,26,6.0,16.0,75,0.00,,OVC022,0.00,VWS V14.01,2013-02-07 23:07:00,
2013-02-07 17:08:00,26.3,19.8,30.01,North,356,7.0,16.0,76,0.00,,OVC022,0.00,VWS V14.01,2013-02-07 23:08:00,
2013-02-07 17:09:00,26.3,19.5,30.01,NNE,27,7.0,16.0,75,0.00,,OVC022,0.00,VWS V14.01,2013-02-07 23:09:00,
2013-02-07 17:10:00,26.3,19.8,30.01,NE,47,10.0,16.0,76,0.00,,OVC022,0.00,VWS V14.01,2013-02-07 23:10:00,
2013-02-07 17:11:00,26.3,19.8,30.01,NNE,26,10.0,16.0,76,0.00,,OVC022,0.00,VWS V14.01,2013-02-07 23:11:00,
2013-02-07 17:12:00,26.3,19.8,30.01,NE,38,9.0,16.0,76,0.00,,OVC022,0.00,VWS V14.01,2013-02-07 23:12:00,
2013-02-07 17:13:00,26.3,19.8,30.01,North,352,7.0,16.0,76,0.00,,OVC022,0.00,VWS V14.01,2013-02-07 23:13:00,
2013-02-07 17:14:00,26.3,19.8,30.01,NNE,26,9.0,16.0,76,0.00,,OVC022,0.00,VWS V14.01,2013-02-07 23:14:00,
2013-02-07 17:15:00,26.3,19.8,30.01,NE,34,7.0,16.0,76,0.00,,OVC022,0.00,VWS V14.01,2013-02-07 23:15:00,
2013-02-07 17:16:00,26.3,19.8,30.01,North,360,7.0,16.0,76,0.00,,OVC022,0.00,VWS V14.01,2013-02-07 23:16:00,
2013-02-07 17:17:00,26.3,19.8,30.01,NE,34,12.0,16.0,76,0.00,,OVC022,0.00,VWS V14.01,2013-02-07 23:17:00,
2013-02-07 17:18:00,26.3,19.8,30.01,NE,41,8.0,16.0,76,0.00,,OVC022,0.00,VWS V14.01,2013-02-07 23:18:00,
2013-02-07 17:19:00,26.3,19.8,30.01,NE,38,7.0,16.0,76,0.00,,OVC022,0.00,VWS V14.01,2013-02-07 23:19:00,
2013-02-07 17:20:00,26.3,19.8,30.01,NNE,26,8.0,16.0,76,0.00,,OVC022,0.00,VWS V14.01,2013-02-07 23:20:00,
2013-02-07 17:21:00,26.3,19.8,30.01,NE,38,7.0,16.0,76,0.00,,OVC022,0.00,VWS V14.01,2013-02-07 23:21:00,
2013-02-07 17:22:00,26.3,19.8,30.01,NNE,17,7.0,16.0,76,0.00,,OVC022,0.00,VWS V14.01,2013-02-07 23:22:00,
2013-02-07 17:23:00,26.3,19.8,30.01,NE,51,11.0,16.0,76,0.00,,OVC022,0.00,VWS V14.01,2013-02-07 23:23:00,
2013-02-07 17:24:00,26.3,19.8,30.01,NE,50,12.0,16.0,76,0.00,,OVC022,0.00,VWS V14.01,2013-02-07 23:24:00,
2013-02-07 17:25:00,26.3,19.8,30.01,NNE,14,10.0,16.0,76,0.00,,OVC022,0.00,VWS V14.01,2013-02-07 23:25:00,
2013-02-07 17:26:00,26.3,19.5,30.01,NE,34,10.0,16.0,75,0.00,,OVC022,0.00,VWS V14.01,2013-02-07 23:26:00,
2013-02-07 17:27:00,26.3,19.5,30.01,NNE,24,6.0,16.0,75,0.00,,OVC022,0.00,VWS V14.01,2013-02-07 23:27:00,
2013-02-07 17:28:00,26.3,19.5,30.01,North,6,8.0,16.0,75,0.00,,OVC022,0.00,VWS V14.01,2013-02-07 23:28:00,
2013-02-07 17:29:00,26.3,19.5,30.01,NNE,24,6.0,16.0,75,0.00,,OVC042,0.00,VWS V14.01,2013-02-07 23:29:00,
2013-02-07 17:30:00,26.3,19.8,30.02,NE,36,9.0,16.0,76,0.00,,OVC042,0.00,VWS V14.01,2013-02-07 23:30:00,
2013-02-07 17:31:00,26.3,19.8,30.02,NE,36,12.0,19.0,76,0.00,,OVC042,0.00,VWS V14.01,2013-02-07 23:31:00,
2013-02-07 17:32:00,26.3,19.5,30.02,NE,40,8.0,19.0,75,0.00,,OVC042,0.00,VWS V14.01,2013-02-07 23:32:00,
2013-02-07 17:33:00,26.3,19.5,30.02,NE,51,11.0,19.0,75,0.00,,OVC042,0.00,VWS V14.01,2013-02-07 23:33:00,
2013-02-07 17:34:00,26.3,19.5,30.02,NE,36,5.0,19.0,75,0.00,,OVC042,0.00,VWS V14.01,2013-02-07 23:34:00,
2013-02-07 17:35:00,26.3,19.5,30.02,NE,40,11.0,19.0,75,0.00,,OVC042,0.00,VWS V14.01,2013-02-07 23:35:00,
2013-02-07 17:36:00,26.4,19.6,30.02,North,2,8.0,19.0,75,0.00,,OVC042,0.00,VWS V14.01,2013-02-07 23:36:00,
2013-02-07 17:37:00,26.4,19.6,30.02,NNE,16,7.0,19.0,75,0.00,,OVC042,0.00,VWS V14.01,2013-02-07 23:37:00,
2013-02-07 17:38:00,26.4,19.6,30.02,NNE,31,8.0,19.0,75,0.00,,OVC042,0.00,VWS V14.01,2013-02-07 23:38:00,
2013-02-07 17:39:00,26.4,19.6,30.02,NE,36,7.0,19.0,75,0.00,,OVC042,0.00,VWS V14.01,2013-02-07 23:39:00,
2013-02-07 17:40:00,26.4,19.6,30.02,NNE,19,5.0,19.0,75,0.00,,OVC042,0.00,VWS V14.01,2013-02-07 23:40:00,
2013-02-07 17:41:00,26.4,19.6,30.02,NNE,30,6.0,19.0,75,0.00,,OVC042,0.00,VWS V14.01,2013-02-07 23:41:00,
2013-02-07 17:42:00,26.4,19.6,30.02,NE,48,5.0,19.0,75,0.00,,OVC042,0.00,VWS V14.01,2013-02-07 23:42:00,
2013-02-07 17:43:00,26.3,19.5,30.02,NE,46,6.0,19.0,75,0.00,,OVC042,0.00,VWS V14.01,2013-02-07 23:43:00,
2013-02-07 17:44:00,26.3,19.5,30.02,NE,44,11.0,19.0,75,0.00,,OVC042,0.00,VWS V14.01,2013-02-07 23:44:00,
2013-02-07 17:45:00,26.3,19.5,30.03,NNE,14,7.0,19.0,75,0.00,,OVC042,0.00,VWS V14.01,2013-02-07 23:45:00,
2013-02-07 17:46:00,26.3,19.5,30.03,NNE,29,8.0,19.0,75,0.00,,OVC042,0.00,VWS V14.01,2013-02-07 23:46:00,
2013-02-07 17:47:00,26.3,19.5,30.03,NNE,33,3.0,19.0,75,0.00,,OVC042,0.00,VWS V14.01,2013-02-07 23:47:00,
2013-02-07 17:48:00,26.3,19.5,30.03,NNE,26,12.0,19.0,75,0.00,,OVC042,0.00,VWS V14.01,2013-02-07 23:48:00,
2013-02-07 17:49:00,26.3,19.5,30.03,NNE,19,6.0,19.0,75,0.00,,OVC042,0.00,VWS V14.01,2013-02-07 23:49:00,
2013-02-07 17:50:00,26.3,19.5,30.03,NNE,19,6.0,19.0,75,0.00,,OVC042,0.00,VWS V14.01,2013-02-07 23:50:00,
2013-02-07 17:51:00,26.3,19.5,30.03,NNE,20,5.0,19.0,75,0.00,,OVC042,0.00,VWS V14.01,2013-02-07 23:51:00,
2013-02-07 17:52:00,26.3,19.5,30.03,NNE,33,1.0,19.0,75,0.00,,OVC042,0.00,VWS V14.01,2013-02-07 23:52:00,
2013-02-07 17:53:00,26.3,19.5,30.03,NNE,12,11.0,19.0,75,0.00,,OVC042,0.00,VWS V14.01,2013-02-07 23:53:00,
2013-02-07 17:54:00,26.3,19.5,30.03,NNE,33,7.0,19.0,75,0.00,,OVC042,0.00,VWS V14.01,2013-02-07 23:54:00,
2013-02-07 17:55:00,26.3,19.5,30.03,NNE,17,5.0,19.0,75,0.00,,OVC042,0.00,VWS V14.01,2013-02-07 23:55:00,
2013-02-07 17:56:00,26.3,19.5,30.03,NNE,24,7.0,19.0,75,0.00,,OVC042,0.00,VWS V14.01,2013-02-07 23:56:00,
2013-02-07 17:57:00,26.3,19.5,30.03,NNE,31,7.0,19.0,75,0.00,,OVC042,0.00,VWS V14.01,2013-02-07 23:57:00,
2013-02-07 17:58:00,26.3,19.5,30.03,NNE,31,9.0,19.0,75,0.00,,OVC042,0.00,VWS V14.01,2013-02-07 23:58:00,
2013-02-07 17:59:00,26.3,19.5,30.03,North,6,6.0,19.0,75,0.00,,OVC042,0.00,VWS V14.01,2013-02-07 23:59:00,
2013-02-07 18:00:00,26.3,19.5,30.03,NNE,12,7.0,19.0,75,0.00,,OVC042,0.00,VWS V14.01,2013-02-08 00:00:00,
2013-02-07 18:01:00,26.3,19.5,30.03,NNE,19,4.0,7.0,75,0.00,,OVC042,0.00,VWS V14.01,2013-02-08 00:01:00,
2013-02-07 18:02:00,26.3,19.5,30.03,NE,38,12.0,12.0,75,0.00,,OVC042,0.00,VWS V14.01,2013-02-08 00:02:00,
2013-02-07 18:03:00,26.3,19.5,30.03,North,5,8.0,14.0,75,0.00,,OVC042,0.00,VWS V14.01,2013-02-08 00:03:00,
2013-02-07 18:04:00,26.3,19.5,30.03,North,10,5.0,14.0,75,0.00,,OVC042,0.00,VWS V14.01,2013-02-08 00:04:00,
2013-02-07 18:05:00,26.3,19.5,30.03,NNE,31,10.0,14.0,75,0.00,,OVC042,0.00,VWS V14.01,2013-02-08 00:05:00,
2013-02-07 18:06:00,26.3,19.5,30.03,NE,38,10.0,14.0,75,0.00,,OVC042,0.00,VWS V14.01,2013-02-08 00:06:00,
2013-02-07 18:07:00,26.3,19.5,30.03,NE,38,5.0,14.0,75,0.00,,OVC042,0.00,VWS V14.01,2013-02-08 00:07:00,
2013-02-07 18:08:00,26.3,19.5,30.03,NNE,26,12.0,14.0,75,0.00,,OVC042,0.00,VWS V14.01,2013-02-08 00:08:00,
2013-02-07 18:09:00,26.3,19.5,30.03,NNE,27,4.0,14.0,75,0.00,,OVC042,0.00,VWS V14.01,2013-02-08 00:09:00,
2013-02-07 18:10:00,26.3,19.5,30.03,NNE,30,8.0,14.0,75,0.00,,OVC042,0.00,VWS V14.01,2013-02-08 00:10:00,
2013-02-07 18:11:00,26.3,19.5,30.03,NE,36,7.0,14.0,75,0.00,,OVC042,0.00,VWS V14.01,2013-02-08 00:11:00,
2013-02-07 18:12:00,26.4,19.6,30.03,NNE,14,6.0,14.0,75,0.00,,OVC042,0.00,VWS V14.01,2013-02-08 00:12:00,
2013-02-07 18:13:00,26.4,19.6,30.03,NNE,20,8.0,14.0,75,0.00,,OVC042,0.00,VWS V14.01,2013-02-08 00:13:00,
2013-02-07 18:14:00,26.4,19.6,30.03,NNE,16,6.0,14.0,75,0.00,,OVC042,0.00,VWS V14.01,2013-02-08 00:14:00,
2013-02-07 18:15:00,26.4,19.6,30.04,NNE,31,6.0,14.0,75,0.00,,OVC042,0.00,VWS V14.01,2013-02-08 00:15:00,
2013-02-07 18:16:00,26.4,19.2,30.04,NNE,17,0.0,14.0,74,0.00,,OVC042,0.00,VWS V14.01,2013-02-08 00:16:00,
2013-02-07 18:17:00,26.4,19.6,30.04,NE,46,10.0,14.0,75,0.00,,OVC042,0.00,VWS V14.01,2013-02-08 00:17:00,
2013-02-07 18:18:00,26.4,19.6,30.04,NE,36,1.0,14.0,75,0.00,,OVC042,0.00,VWS V14.01,2013-02-08 00:18:00,
2013-02-07 18:19:00,26.4,19.6,30.04,NNE,26,7.0,14.0,75,0.00,,OVC042,0.00,VWS V14.01,2013-02-08 00:19:00,
2013-02-07 18:20:00,26.4,19.6,30.04,NNE,24,7.0,14.0,75,0.00,,OVC042,0.00,VWS V14.01,2013-02-08 00:20:00,
2013-02-07 18:21:00,26.4,19.6,30.04,NNE,14,3.0,14.0,75,0.00,,OVC042,0.00,VWS V14.01,2013-02-08 00:21:00,
2013-02-07 18:22:00,26.4,19.6,30.04,NNW,338,3.0,14.0,75,0.00,,OVC042,0.00,VWS V14.01,2013-02-08 00:22:00,
2013-02-07 18:23:00,26.4,19.2,30.04,North,10,7.0,14.0,74,0.00,,OVC042,0.00,VWS V14.01,2013-02-08 00:23:00,
2013-02-07 18:24:00,26.4,19.2,30.04,NE,40,10.0,14.0,74,0.00,,OVC042,0.00,VWS V14.01,2013-02-08 00:24:00,
2013-02-07 18:25:00,26.4,19.2,30.04,NE,36,13.0,18.0,74,0.00,,OVC042,0.00,VWS V14.01,2013-02-08 00:25:00,
2013-02-07 18:26:00,26.4,19.2,30.04,NNE,30,7.0,18.0,74,0.00,,OVC042,0.00,VWS V14.01,2013-02-08 00:26:00,
2013-02-07 18:27:00,26.4,19.2,30.04,NE,36,8.0,18.0,74,0.00,,OVC042,0.00,VWS V14.01,2013-02-08 00:27:00,
2013-02-07 18:28:00,26.4,19.2,30.04,NE,38,10.0,18.0,74,0.00,,OVC042,0.00,VWS V14.01,2013-02-08 00:28:00,
2013-02-07 18:29:00,26.4,19.2,30.04,NE,41,9.0,18.0,74,0.00,,OVC042,0.00,VWS V14.01,2013-02-08 00:29:00,
2013-02-07 18:30:00,26.4,19.2,30.05,NNE,16,13.0,18.0,74,0.00,,OVC042,0.00,VWS V14.01,2013-02-08 00:30:00,
2013-02-07 18:31:00,26.4,19.2,30.05,NE,47,10.0,13.0,74,0.00,,OVC042,0.00,VWS V14.01,2013-02-08 00:31:00,
2013-02-07 18:32:00,26.4,19.2,30.05,NNE,13,6.0,13.0,74,0.00,,OVC042,0.00,VWS V14.01,2013-02-08 00:32:00,
2013-02-07 18:33:00,26.4,19.2,30.05,NNE,27,7.0,13.0,74,0.00,,OVC042,0.00,VWS V14.01,2013-02-08 00:33:00,
2013-02-07 18:34:00,26.4,19.2,30.05,NE,34,10.0,14.0,74,0.00,,OVC042,0.00,VWS V14.01,2013-02-08 00:34:00,
2013-02-07 18:35:00,26.4,19.2,30.05,NNE,20,7.0,14.0,74,0.00,,OVC042,0.00,VWS V14.01,2013-02-08 00:35:00,
2013-02-07 18:36:00,26.3,19.1,30.05,NNE,27,10.0,14.0,74,0.00,,OVC042,0.00,VWS V14.01,2013-02-08 00:36:00,
2013-02-07 18:37:00,26.3,19.1,30.05,NNE,22,8.0,14.0,74,0.00,,OVC042,0.00,VWS V14.01,2013-02-08 00:37:00,
2013-02-07 18:38:00,26.3,19.1,30.05,NNE,22,8.0,14.0,74,0.00,,OVC042,0.00,VWS V14.01,2013-02-08 00:38:00,
2013-02-07 18:39:00,26.3,19.1,30.05,NNE,27,13.0,14.0,74,0.00,,OVC042,0.00,VWS V14.01,2013-02-08 00:39:00,
2013-02-07 18:40:00,26.3,19.1,30.05,NNE,26,7.0,14.0,74,0.00,,OVC042,0.00,VWS V14.01,2013-02-08 00:40:00,
2013-02-07 18:41:00,26.3,19.1,30.05,North,9,2.0,14.0,74,0.00,,OVC042,0.00,VWS V14.01,2013-02-08 00:41:00,
2013-02-07 18:42:00,26.3,19.1,30.05,NNE,29,6.0,14.0,74,0.00,,OVC042,0.00,VWS V14.01,2013-02-08 00:42:00,
2013-02-07 18:43:00,26.3,19.1,30.05,NE,41,10.0,14.0,74,0.00,,OVC042,0.00,VWS V14.01,2013-02-08 00:43:00,
2013-02-07 18:44:00,26.3,19.1,30.05,NE,37,8.0,14.0,74,0.00,,OVC042,0.00,VWS V14.01,2013-02-08 00:44:00,
2013-02-07 18:45:00,26.3,19.1,30.05,North,7,8.0,14.0,74,0.00,,OVC042,0.00,VWS V14.01,2013-02-08 00:45:00,
2013-02-07 18:46:00,26.3,19.1,30.05,NNE,20,5.0,14.0,74,0.00,,OVC042,0.00,VWS V14.01,2013-02-08 00:46:00,
2013-02-07 18:47:00,26.3,19.1,30.05,NNE,22,7.0,14.0,74,0.00,,OVC042,0.00,VWS V14.01,2013-02-08 00:47:00,
2013-02-07 18:48:00,26.3,19.1,30.05,NNE,17,7.0,14.0,74,0.00,,OVC042,0.00,VWS V14.01,2013-02-08 00:48:00,
2013-02-07 18:49:00,26.3,19.1,30.05,NNE,16,6.0,14.0,74,0.00,,OVC042,0.00,VWS V14.01,2013-02-08 00:49:00,
2013-02-07 18:50:00,26.3,19.1,30.05,NNE,23,1.0,14.0,74,0.00,,OVC042,0.00,VWS V14.01,2013-02-08 00:50:00,
2013-02-07 18:51:00,26.3,19.1,30.05,NNE,23,6.0,14.0,74,0.00,,OVC042,0.00,VWS V14.01,2013-02-08 00:51:00,
2013-02-07 18:52:00,26.3,19.1,30.05,NNE,29,7.0,14.0,74,0.00,,OVC042,0.00,VWS V14.01,2013-02-08 00:52:00,
2013-02-07 18:53:00,26.1,19.3,30.05,NNE,29,5.0,14.0,75,0.00,,OVC042,0.00,VWS V14.01,2013-02-08 00:53:00,
2013-02-07 18:54:00,26.1,19.0,30.05,NNE,23,6.0,14.0,74,0.00,,OVC042,0.00,VWS V14.01,2013-02-08 00:54:00,
2013-02-07 18:55:00,26.1,19.3,30.05,NE,36,10.0,14.0,75,0.00,,OVC042,0.00,VWS V14.01,2013-02-08 00:55:00,
2013-02-07 18:56:00,26.1,19.0,30.05,NE,36,7.0,14.0,74,0.00,,OVC042,0.00,VWS V14.01,2013-02-08 00:56:00,
2013-02-07 18:57:00,26.1,19.0,30.05,NNE,27,7.0,14.0,74,0.00,,OVC042,0.00,VWS V14.01,2013-02-08 00:57:00,
2013-02-07 18:58:00,26.1,19.0,30.05,NNE,29,7.0,14.0,74,0.00,,OVC042,0.00,VWS V14.01,2013-02-08 00:58:00,
2013-02-07 18:59:00,26.1,19.0,30.05,NNE,33,7.0,14.0,74,0.00,,OVC042,0.00,VWS V14.01,2013-02-08 00:59:00,
2013-02-07 19:00:00,26.1,19.0,30.05,NNE,31,4.0,14.0,74,0.00,,OVC042,0.00,VWS V14.01,2013-02-08 01:00:00,
2013-02-07 19:01:00,26.1,19.3,30.05,NNE,31,7.0,7.0,75,0.00,,OVC042,0.00,VWS V14.01,2013-02-08 01:01:00,
2013-02-07 19:02:00,26.1,19.0,30.05,NNE,31,8.0,12.0,74,0.00,,OVC042,0.00,VWS V14.01,2013-02-08 01:02:00,
2013-02-07 19:03:00,26.1,19.0,30.05,NNE,29,4.0,12.0,74,0.00,,OVC042,0.00,VWS V14.01,2013-02-08 01:03:00,
2013-02-07 19:04:00,26.1,19.0,30.05,NE,37,2.0,13.0,74,0.00,,OVC042,0.00,VWS V14.01,2013-02-08 01:04:00,
2013-02-07 19:05:00,26.1,19.0,30.05,NE,40,8.0,13.0,74,0.00,,OVC042,0.00,VWS V14.01,2013-02-08 01:05:00,
2013-02-07 19:06:00,26.1,19.0,30.05,North,10,7.0,13.0,74,0.00,,OVC042,0.00,VWS V14.01,2013-02-08 01:06:00,
2013-02-07 19:07:00,26.1,19.0,30.05,NNW,343,1.0,13.0,74,0.00,,OVC042,0.00,VWS V14.01,2013-02-08 01:07:00,
2013-02-07 19:08:00,26.1,19.0,30.05,NNE,23,7.0,13.0,74,0.00,,OVC042,0.00,VWS V14.01,2013-02-08 01:08:00,
2013-02-07 19:09:00,26.1,19.0,30.05,North,6,2.0,13.0,74,0.00,,OVC042,0.00,VWS V14.01,2013-02-08 01:09:00,
2013-02-07 19:10:00,26.1,19.0,30.05,NNE,16,7.0,13.0,74,0.00,,OVC042,0.00,VWS V14.01,2013-02-08 01:10:00,
2013-02-07 19:11:00,26.1,19.0,30.05,NNE,16,6.0,13.0,74,0.00,,OVC042,0.00,VWS V14.01,2013-02-08 01:11:00,
2013-02-07 19:12:00,26.1,19.0,30.05,NNE,17,6.0,13.0,74,0.00,,OVC042,0.00,VWS V14.01,2013-02-08 01:12:00,
2013-02-07 19:13:00,26.1,19.0,30.05,NNE,33,8.0,13.0,74,0.00,,OVC042,0.00,VWS V14.01,2013-02-08 01:13:00,
2013-02-07 19:14:00,26.1,19.0,30.05,NNE,14,7.0,13.0,74,0.00,,OVC042,0.00,VWS V14.01,2013-02-08 01:14:00,
2013-02-07 19:15:00,26.1,19.0,30.06,NNE,24,7.0,13.0,74,0.00,,OVC042,0.00,VWS V14.01,2013-02-08 01:15:00,
2013-02-07 19:16:00,26.1,19.0,30.06,NNE,13,5.0,13.0,74,0.00,,OVC042,0.00,VWS V14.01,2013-02-08 01:16:00,
2013-02-07 19:17:00,26.1,19.0,30.06,NNE,23,8.0,13.0,74,0.00,,OVC042,0.00,VWS V14.01,2013-02-08 01:17:00,
2013-02-07 19:18:00,26.1,19.0,30.06,NNE,22,7.0,13.0,74,0.00,,OVC042,0.00,VWS V14.01,2013-02-08 01:18:00,
2013-02-07 19:19:00,26.1,19.0,30.06,NNE,22,3.0,13.0,74,0.00,,OVC042,0.00,VWS V14.01,2013-02-08 01:19:00,
2013-02-07 19:20:00,26.0,19.2,30.06,NNE,22,6.0,13.0,75,0.00,,OVC042,0.00,VWS V14.01,2013-02-08 01:20:00,
2013-02-07 19:21:00,26.0,19.2,30.06,NNE,30,5.0,13.0,75,0.00,,OVC042,0.00,VWS V14.01,2013-02-08 01:21:00,
2013-02-07 19:22:00,26.0,19.2,30.06,NNE,30,3.0,13.0,75,0.00,,OVC042,0.00,VWS V14.01,2013-02-08 01:22:00,
2013-02-07 19:23:00,26.0,19.2,30.06,NNE,17,10.0,13.0,75,0.00,,OVC042,0.00,VWS V14.01,2013-02-08 01:23:00,
2013-02-07 19:24:00,26.0,19.2,30.06,NNE,19,3.0,13.0,75,0.00,,OVC042,0.00,VWS V14.01,2013-02-08 01:24:00,
2013-02-07 19:25:00,26.0,19.2,30.06,NNE,19,3.0,13.0,75,0.00,,OVC042,0.00,VWS V14.01,2013-02-08 01:25:00,
2013-02-07 19:26:00,26.0,19.2,30.06,NNE,19,3.0,13.0,75,0.00,,OVC042,0.00,VWS V14.01,2013-02-08 01:26:00,
2013-02-07 19:27:00,26.0,19.2,30.06,NNE,19,6.0,13.0,75,0.00,,OVC042,0.00,VWS V14.01,2013-02-08 01:27:00,
2013-02-07 19:28:00,25.8,19.0,30.06,NNE,20,6.0,13.0,75,0.00,,OVC042,0.00,VWS V14.01,2013-02-08 01:28:00,
2013-02-07 19:29:00,25.8,19.0,30.06,North,5,5.0,13.0,75,0.00,,OVC042,0.00,VWS V14.01,2013-02-08 01:29:00,
2013-02-07 19:30:00,25.8,19.0,30.06,NNE,20,9.0,13.0,75,0.00,,OVC042,0.00,VWS V14.01,2013-02-08 01:30:00,
2013-02-07 19:31:00,25.8,19.0,30.06,North,10,7.0,11.0,75,0.00,,OVC042,0.00,VWS V14.01,2013-02-08 01:31:00,
2013-02-07 19:32:00,25.8,19.0,30.06,North,10,3.0,11.0,75,0.00,,OVC042,0.00,VWS V14.01,2013-02-08 01:32:00,
2013-02-07 19:33:00,25.8,19.0,30.06,North,10,0.0,11.0,75,0.00,,OVC042,0.00,VWS V14.01,2013-02-08 01:33:00,
2013-02-07 19:34:00,25.8,19.0,30.06,NNE,12,6.0,11.0,75,0.00,,OVC042,0.00,VWS V14.01,2013-02-08 01:34:00,
2013-02-07 19:35:00,25.8,19.0,30.06,NNE,31,8.0,11.0,75,0.00,,OVC042,0.00,VWS V14.01,2013-02-08 01:35:00,
2013-02-07 19:36:00,25.8,19.0,30.06,NNE,22,5.0,11.0,75,0.00,,OVC042,0.00,VWS V14.01,2013-02-08 01:36:00,
2013-02-07 19:37:00,25.8,19.3,30.06,NNE,22,3.0,11.0,76,0.00,,OVC042,0.00,VWS V14.01,2013-02-08 01:37:00,
2013-02-07 19:38:00,25.8,19.0,30.06,NNE,17,2.0,11.0,75,0.00,,OVC042,0.00,VWS V14.01,2013-02-08 01:38:00,
2013-02-07 19:39:00,25.7,19.2,30.06,NNE,17,0.0,11.0,76,0.00,,OVC042,0.00,VWS V14.01,2013-02-08 01:39:00,
2013-02-07 19:40:00,25.7,19.2,30.06,NNE,17,5.0,11.0,76,0.00,,OVC042,0.00,VWS V14.01,2013-02-08 01:40:00,
2013-02-07 19:41:00,25.7,19.2,30.06,NNE,20,5.0,11.0,76,0.00,,OVC042,0.00,VWS V14.01,2013-02-08 01:41:00,
2013-02-07 19:42:00,25.7,19.2,30.06,NNE,19,6.0,11.0,76,0.00,,OVC042,0.00,VWS V14.01,2013-02-08 01:42:00,
2013-02-07 19:43:00,25.7,19.2,30.06,NNE,19,5.0,11.0,76,0.00,,OVC042,0.00,VWS V14.01,2013-02-08 01:43:00,
2013-02-07 19:44:00,25.7,19.2,30.06,NNE,19,1.0,11.0,76,0.00,,OVC042,0.00,VWS V14.01,2013-02-08 01:44:00,
2013-02-07 19:45:00,25.7,19.2,30.07,NNE,16,3.0,11.0,76,0.00,,OVC042,0.00,VWS V14.01,2013-02-08 01:45:00,
2013-02-07 19:46:00,25.7,19.2,30.07,NNE,17,5.0,11.0,76,0.00,,OVC042,0.00,VWS V14.01,2013-02-08 01:46:00,
2013-02-07 19:47:00,25.7,19.2,30.07,NNE,19,8.0,11.0,76,0.00,,OVC042,0.00,VWS V14.01,2013-02-08 01:47:00,
2013-02-07 19:48:00,25.7,19.2,30.07,NNE,17,3.0,11.0,76,0.00,,OVC042,0.00,VWS V14.01,2013-02-08 01:48:00,
2013-02-07 19:49:00,25.7,19.2,30.07,NNE,17,1.0,11.0,76,0.00,,OVC042,0.00,VWS V14.01,2013-02-08 01:49:00,
2013-02-07 19:50:00,25.7,19.2,30.07,NNE,16,4.0,11.0,76,0.00,,OVC042,0.00,VWS V14.01,2013-02-08 01:50:00,
2013-02-07 19:51:00,25.7,19.2,30.07,NNE,14,2.0,11.0,76,0.00,,OVC042,0.00,VWS V14.01,2013-02-08 01:51:00,
2013-02-07 19:52:00,25.7,19.2,30.07,NNE,16,6.0,11.0,76,0.00,,OVC042,0.00,VWS V14.01,2013-02-08 01:52:00,
2013-02-07 19:53:00,25.7,19.5,30.07,NNE,13,2.0,11.0,77,0.00,,OVC042,0.00,VWS V14.01,2013-02-08 01:53:00,
2013-02-07 19:54:00,25.7,19.5,30.07,North,7,7.0,11.0,77,0.00,,OVC042,0.00,VWS V14.01,2013-02-08 01:54:00,
2013-02-07 19:55:00,25.7,19.5,30.07,North,7,0.0,11.0,77,0.00,,OVC042,0.00,VWS V14.01,2013-02-08 01:55:00,
2013-02-07 19:56:00,25.7,19.5,30.07,North,7,2.0,11.0,77,0.00,,OVC042,0.00,VWS V14.01,2013-02-08 01:56:00,
2013-02-07 19:57:00,25.7,19.5,30.07,North,359,0.0,11.0,77,0.00,,OVC042,0.00,VWS V14.01,2013-02-08 01:57:00,
2013-02-07 19:58:00,25.7,19.5,30.07,North,356,1.0,11.0,77,0.00,,OVC042,0.00,VWS V14.01,2013-02-08 01:58:00,
2013-02-07 19:59:00,25.7,19.5,30.07,North,358,7.0,11.0,77,0.00,,OVC042,0.00,VWS V14.01,2013-02-08 01:59:00,
2013-02-07 20:00:00,25.7,19.5,30.07,North,356,2.0,11.0,77,0.00,,OVC042,0.00,VWS V14.01,2013-02-08 02:00:00,
2013-02-07 20:01:00,25.7,19.5,30.07,North,356,1.0,4.0,77,0.00,,OVC042,0.00,VWS V14.01,2013-02-08 02:01:00,
2013-02-07 20:02:00,25.7,19.5,30.07,North,358,4.0,5.0,77,0.00,,OVC042,0.00,VWS V14.01,2013-02-08 02:02:00,
2013-02-07 20:03:00,25.6,19.4,30.07,North,358,2.0,5.0,77,0.00,,OVC042,0.00,VWS V14.01,2013-02-08 02:03:00,
2013-02-07 20:04:00,25.6,19.4,30.07,North,358,2.0,7.0,77,0.00,,OVC042,0.00,VWS V14.01,2013-02-08 02:04:00,
2013-02-07 20:05:00,25.6,19.4,30.07,North,358,1.0,7.0,77,0.00,,OVC042,0.00,VWS V14.01,2013-02-08 02:05:00,
2013-02-07 20:06:00,25.6,19.4,30.07,North,6,7.0,9.0,77,0.00,,OVC042,0.00,VWS V14.01,2013-02-08 02:06:00,
2013-02-07 20:07:00,25.6,19.4,30.07,North,7,6.0,9.0,77,0.00,,OVC042,0.00,VWS V14.01,2013-02-08 02:07:00,
2013-02-07 20:08:00,25.6,19.4,30.07,North,7,3.0,9.0,77,0.00,,OVC042,0.00,VWS V14.01,2013-02-08 02:08:00,
2013-02-07 20:09:00,25.6,19.4,30.07,North,7,6.0,9.0,77,0.00,,OVC042,0.00,VWS V14.01,2013-02-08 02:09:00,
2013-02-07 20:10:00,25.6,19.4,30.07,North,7,2.0,9.0,77,0.00,,OVC042,0.00,VWS V14.01,2013-02-08 02:10:00,
2013-02-07 20:11:00,25.6,19.4,30.07,North,6,6.0,9.0,77,0.00,,OVC042,0.00,VWS V14.01,2013-02-08 02:11:00,
2013-02-07 20:12:00,25.4,19.2,30.07,North,7,0.0,9.0,77,0.00,,OVC042,0.00,VWS V14.01,2013-02-08 02:12:00,
2013-02-07 20:13:00,25.4,19.2,30.07,North,7,2.0,9.0,77,0.00,,OVC042,0.00,VWS V14.01,2013-02-08 02:13:00,
2013-02-07 20:14:00,25.4,19.2,30.07,North,7,3.0,9.0,77,0.00,,OVC042,0.00,VWS V14.01,2013-02-08 02:14:00,
2013-02-07 20:15:00,25.4,19.5,30.07,North,9,6.0,9.0,78,0.00,,OVC042,0.00,VWS V14.01,2013-02-08 02:15:00,
2013-02-07 20:16:00,25.4,19.5,30.07,North,9,3.0,9.0,78,0.00,,OVC042,0.00,VWS V14.01,2013-02-08 02:16:00,
2013-02-07 20:17:00,25.4,19.5,30.07,NNE,22,3.0,9.0,78,0.00,,OVC042,0.00,VWS V14.01,2013-02-08 02:17:00,
2013-02-07 20:18:00,25.4,19.5,30.07,NNE,22,6.0,9.0,78,0.00,,OVC042,0.00,VWS V14.01,2013-02-08 02:18:00,
2013-02-07 20:19:00,25.4,19.5,30.07,NNE,20,3.0,9.0,78,0.00,,OVC042,0.00,VWS V14.01,2013-02-08 02:19:00,
2013-02-07 20:20:00,25.4,19.5,30.07,NNE,22,5.0,9.0,78,0.00,,OVC042,0.00,VWS V14.01,2013-02-08 02:20:00,
2013-02-07 20:21:00,25.4,19.5,30.07,NNE,20,3.0,9.0,78,0.00,,OVC042,0.00,VWS V14.01,2013-02-08 02:21:00,
2013-02-07 20:22:00,25.4,19.5,30.07,NNE,20,2.0,9.0,78,0.00,,OVC042,0.00,VWS V14.01,2013-02-08 02:22:00,
2013-02-07 20:23:00,25.4,19.5,30.07,NNE,20,2.0,9.0,78,0.00,,OVC042,0.00,VWS V14.01,2013-02-08 02:23:00,
2013-02-07 20:24:00,25.4,19.5,30.07,NNE,20,1.0,9.0,78,0.00,,OVC042,0.00,VWS V14.01,2013-02-08 02:24:00,
2013-02-07 20:25:00,25.4,19.5,30.07,NNE,20,6.0,9.0,78,0.00,,OVC042,0.00,VWS V14.01,2013-02-08 02:25:00,
2013-02-07 20:26:00,25.4,19.5,30.07,NNE,22,5.0,9.0,78,0.00,,OVC042,0.00,VWS V14.01,2013-02-08 02:26:00,
2013-02-07 20:27:00,25.3,19.4,30.07,NNE,20,7.0,9.0,78,0.00,,OVC042,0.00,VWS V14.01,2013-02-08 02:27:00,
2013-02-07 20:28:00,25.4,19.5,30.07,NNE,20,5.0,9.0,78,0.00,,OVC042,0.00,VWS V14.01,2013-02-08 02:28:00,
2013-02-07 20:29:00,25.4,19.5,30.07,NNE,20,5.0,9.0,78,0.00,,OVC021,0.00,VWS V14.01,2013-02-08 02:29:00,
2013-02-07 20:30:00,25.4,19.5,30.08,NNE,20,2.0,9.0,78,0.00,,OVC021,0.00,VWS V14.01,2013-02-08 02:30:00,
2013-02-07 20:31:00,25.4,19.5,30.08,NNE,20,6.0,7.0,78,0.00,,OVC021,0.00,VWS V14.01,2013-02-08 02:31:00,
2013-02-07 20:32:00,25.4,19.5,30.08,NNE,22,3.0,7.0,78,0.00,,OVC021,0.00,VWS V14.01,2013-02-08 02:32:00,
2013-02-07 20:33:00,25.4,19.5,30.08,NNE,20,1.0,7.0,78,0.00,,OVC021,0.00,VWS V14.01,2013-02-08 02:33:00,
2013-02-07 20:34:00,25.4,19.5,30.08,NNE,20,5.0,7.0,78,0.00,,OVC021,0.00,VWS V14.01,2013-02-08 02:34:00,
2013-02-07 20:35:00,25.3,19.4,30.08,NNE,20,0.0,7.0,78,0.00,,OVC021,0.00,VWS V14.01,2013-02-08 02:35:00,
2013-02-07 20:36:00,25.3,19.4,30.08,NNE,22,5.0,7.0,78,0.00,,OVC021,0.00,VWS V14.01,2013-02-08 02:36:00,
2013-02-07 20:37:00,25.3,19.4,30.08,NNE,22,2.0,7.0,78,0.00,,OVC021,0.00,VWS V14.01,2013-02-08 02:37:00,
2013-02-07 20:38:00,25.3,19.4,30.08,NNE,22,0.0,7.0,78,0.00,,OVC021,0.00,VWS V14.01,2013-02-08 02:38:00,
2013-02-07 20:39:00,25.3,19.4,30.08,NNE,22,5.0,7.0,78,0.00,,OVC021,0.00,VWS V14.01,2013-02-08 02:39:00,
2013-02-07 20:40:00,25.3,19.4,30.08,NNE,22,3.0,7.0,78,0.00,,OVC021,0.00,VWS V14.01,2013-02-08 02:40:00,
2013-02-07 20:41:00,25.3,19.4,30.08,NNE,22,3.0,7.0,78,0.00,,OVC021,0.00,VWS V14.01,2013-02-08 02:41:00,
2013-02-07 20:42:00,25.3,19.4,30.08,NNE,22,4.0,7.0,78,0.00,,OVC021,0.00,VWS V14.01,2013-02-08 02:42:00,
2013-02-07 20:43:00,25.3,19.4,30.08,NNE,22,3.0,7.0,78,0.00,,OVC021,0.00,VWS V14.01,2013-02-08 02:43:00,
2013-02-07 20:44:00,25.3,19.4,30.08,NNE,22,1.0,7.0,78,0.00,,OVC021,0.00,VWS V14.01,2013-02-08 02:44:00,
2013-02-07 20:45:00,25.3,19.4,30.08,NNE,22,2.0,7.0,78,0.00,,OVC021,0.00,VWS V14.01,2013-02-08 02:45:00,
2013-02-07 20:46:00,25.3,19.4,30.08,NNE,22,0.0,7.0,78,0.00,,OVC021,0.00,VWS V14.01,2013-02-08 02:46:00,
2013-02-07 20:47:00,25.3,19.4,30.08,NNE,22,0.0,7.0,78,0.00,,OVC021,0.00,VWS V14.01,2013-02-08 02:47:00,
2013-02-07 20:48:00,25.3,19.4,30.08,NNE,22,7.0,7.0,78,0.00,,OVC021,0.00,VWS V14.01,2013-02-08 02:48:00,
2013-02-07 20:49:00,25.3,19.4,30.08,NNE,23,3.0,8.0,78,0.00,,OVC021,0.00,VWS V14.01,2013-02-08 02:49:00,
2013-02-07 20:50:00,25.3,19.4,30.08,NNE,23,4.0,8.0,78,0.00,,OVC021,0.00,VWS V14.01,2013-02-08 02:50:00,
2013-02-07 20:51:00,25.3,19.4,30.08,NNE,23,3.0,8.0,78,0.00,,OVC021,0.00,VWS V14.01,2013-02-08 02:51:00,
2013-02-07 20:52:00,25.3,19.4,30.08,NNE,23,0.0,8.0,78,0.00,,OVC021,0.00,VWS V14.01,2013-02-08 02:52:00,
2013-02-07 20:53:00,25.3,19.4,30.08,NNE,23,3.0,8.0,78,0.00,,OVC021,0.00,VWS V14.01,2013-02-08 02:53:00,
2013-02-07 20:54:00,25.3,19.4,30.08,NNE,23,0.0,8.0,78,0.00,,OVC021,0.00,VWS V14.01,2013-02-08 02:54:00,
2013-02-07 20:55:00,25.3,19.4,30.08,NNE,23,0.0,8.0,78,0.00,,OVC021,0.00,VWS V14.01,2013-02-08 02:55:00,
2013-02-07 20:56:00,25.3,19.4,30.08,NNE,23,3.0,8.0,78,0.00,,OVC021,0.00,VWS V14.01,2013-02-08 02:56:00,
2013-02-07 20:57:00,25.3,19.4,30.08,NNE,23,0.0,8.0,78,0.00,,OVC021,0.00,VWS V14.01,2013-02-08 02:57:00,
2013-02-07 20:58:00,25.3,19.4,30.08,NNE,23,1.0,8.0,78,0.00,,OVC021,0.00,VWS V14.01,2013-02-08 02:58:00,
2013-02-07 20:59:00,25.3,19.4,30.08,NNE,23,2.0,8.0,78,0.00,,OVC021,0.00,VWS V14.01,2013-02-08 02:59:00,
2013-02-07 21:00:00,25.3,19.4,30.08,NNE,23,0.0,8.0,78,0.00,,OVC021,0.00,VWS V14.01,2013-02-08 03:00:00,
2013-02-07 21:01:00,25.3,19.4,30.08,NNE,23,2.0,5.0,78,0.00,,OVC021,0.00,VWS V14.01,2013-02-08 03:01:00,
2013-02-07 21:02:00,25.3,19.4,30.08,NNE,23,2.0,6.0,78,0.00,,OVC021,0.00,VWS V14.01,2013-02-08 03:02:00,
2013-02-07 21:03:00,25.3,19.4,30.08,NNE,23,3.0,6.0,78,0.00,,OVC021,0.00,VWS V14.01,2013-02-08 03:03:00,
2013-02-07 21:04:00,25.3,19.4,30.08,NNE,23,2.0,6.0,78,0.00,,OVC021,0.00,VWS V14.01,2013-02-08 03:04:00,
2013-02-07 21:05:00,25.3,19.4,30.08,NNE,24,2.0,7.0,78,0.00,,OVC021,0.00,VWS V14.01,2013-02-08 03:05:00,
2013-02-07 21:06:00,25.3,19.4,30.08,NNE,24,2.0,7.0,78,0.00,,OVC021,0.00,VWS V14.01,2013-02-08 03:06:00,
2013-02-07 21:07:00,25.3,19.4,30.08,NNE,24,3.0,7.0,78,0.00,,OVC021,0.00,VWS V14.01,2013-02-08 03:07:00,
2013-02-07 21:08:00,25.4,19.5,30.08,NNE,24,1.0,7.0,78,0.00,,OVC021,0.00,VWS V14.01,2013-02-08 03:08:00,
2013-02-07 21:09:00,25.4,19.5,30.08,NNE,24,2.0,7.0,78,0.00,,OVC021,0.00,VWS V14.01,2013-02-08 03:09:00,
2013-02-07 21:10:00,25.4,19.5,30.08,NNE,24,1.0,7.0,78,0.00,,OVC021,0.00,VWS V14.01,2013-02-08 03:10:00,
2013-02-07 21:11:00,25.4,19.5,30.08,NNE,24,5.0,7.0,78,0.00,,OVC021,0.00,VWS V14.01,2013-02-08 03:11:00,
2013-02-07 21:12:00,25.4,19.5,30.08,NNE,24,3.0,7.0,78,0.00,,OVC021,0.00,VWS V14.01,2013-02-08 03:12:00,
2013-02-07 21:13:00,25.4,19.5,30.08,NNE,24,5.0,7.0,78,0.00,,OVC021,0.00,VWS V14.01,2013-02-08 03:13:00,
2013-02-07 21:14:00,25.4,19.5,30.09,NNE,24,3.0,7.0,78,0.00,,OVC021,0.00,VWS V14.01,2013-02-08 03:14:00,
2013-02-07 21:15:00,25.4,19.5,30.09,NNE,24,3.0,7.0,78,0.00,,OVC021,0.00,VWS V14.01,2013-02-08 03:15:00,
2013-02-07 21:16:00,25.4,19.5,30.09,NNE,24,0.0,7.0,78,0.00,,OVC021,0.00,VWS V14.01,2013-02-08 03:16:00,
2013-02-07 21:17:00,25.4,19.5,30.09,NNE,24,0.0,7.0,78,0.00,,OVC021,0.00,VWS V14.01,2013-02-08 03:17:00,
2013-02-07 21:18:00,25.4,19.5,30.09,NNE,24,2.0,7.0,78,0.00,,OVC021,0.00,VWS V14.01,2013-02-08 03:18:00,
2013-02-07 21:19:00,25.4,19.5,30.09,NNE,24,0.0,7.0,78,0.00,,OVC021,0.00,VWS V14.01,2013-02-08 03:19:00,
2013-02-07 21:20:00,25.4,19.5,30.09,NNE,24,0.0,7.0,78,0.00,,OVC021,0.00,VWS V14.01,2013-02-08 03:20:00,
2013-02-07 21:21:00,25.4,19.5,30.09,NNE,24,5.0,7.0,78,0.00,,OVC021,0.00,VWS V14.01,2013-02-08 03:21:00,
2013-02-07 21:22:00,25.4,19.5,30.09,NNE,24,3.0,7.0,78,0.00,,OVC021,0.00,VWS V14.01,2013-02-08 03:22:00,
2013-02-07 21:23:00,25.4,19.5,30.09,NNE,24,4.0,7.0,78,0.00,,OVC021,0.00,VWS V14.01,2013-02-08 03:23:00,
2013-02-07 21:24:00,25.4,19.5,30.09,NNE,24,1.0,7.0,78,0.00,,OVC021,0.00,VWS V14.01,2013-02-08 03:24:00,
2013-02-07 21:25:00,25.4,19.5,30.09,NNE,24,0.0,7.0,78,0.00,,OVC021,0.00,VWS V14.01,2013-02-08 03:25:00,
2013-02-07 21:26:00,25.4,19.5,30.09,NNE,24,0.0,7.0,78,0.00,,OVC021,0.00,VWS V14.01,2013-02-08 03:26:00,
2013-02-07 21:27:00,25.4,19.5,30.09,NNE,24,0.0,7.0,78,0.00,,OVC021,0.00,VWS V14.01,2013-02-08 03:27:00,
2013-02-07 21:28:00,25.4,19.5,30.09,NNE,24,3.0,7.0,78,0.00,,OVC021,0.00,VWS V14.01,2013-02-08 03:28:00,
2013-02-07 21:29:00,25.4,19.5,30.09,NNE,24,1.0,7.0,78,0.00,,OVC019,0.00,VWS V14.01,2013-02-08 03:29:00,
2013-02-07 21:30:00,25.4,19.5,30.09,NNE,24,3.0,7.0,78,0.00,,OVC019,0.00,VWS V14.01,2013-02-08 03:30:00,
2013-02-07 21:31:00,25.4,19.5,30.09,NNE,24,2.0,5.0,78,0.00,,OVC019,0.00,VWS V14.01,2013-02-08 03:31:00,
2013-02-07 21:32:00,25.4,19.5,30.09,NNE,24,3.0,5.0,78,0.00,,OVC019,0.00,VWS V14.01,2013-02-08 03:32:00,
2013-02-07 21:33:00,25.4,19.5,30.09,NNE,24,3.0,5.0,78,0.00,,OVC019,0.00,VWS V14.01,2013-02-08 03:33:00,
2013-02-07 21:34:00,25.4,19.5,30.09,NNE,26,5.0,6.0,78,0.00,,OVC019,0.00,VWS V14.01,2013-02-08 03:34:00,
2013-02-07 21:35:00,25.4,19.5,30.09,NNE,26,0.0,6.0,78,0.00,,OVC019,0.00,VWS V14.01,2013-02-08 03:35:00,
2013-02-07 21:36:00,25.4,19.5,30.09,NNE,24,7.0,8.0,78,0.00,,OVC019,0.00,VWS V14.01,2013-02-08 03:36:00,
2013-02-07 21:37:00,25.4,19.5,30.09,NNE,24,7.0,8.0,78,0.00,,OVC019,0.00,VWS V14.01,2013-02-08 03:37:00,
2013-02-07 21:38:00,25.4,19.5,30.09,NNE,26,7.0,8.0,78,0.00,,OVC019,0.00,VWS V14.01,2013-02-08 03:38:00,
2013-02-07 21:39:00,25.6,19.7,30.09,NNE,27,6.0,8.0,78,0.00,,OVC019,0.00,VWS V14.01,2013-02-08 03:39:00,
2013-02-07 21:40:00,25.6,19.7,30.09,NNE,26,3.0,8.0,78,0.00,,OVC019,0.00,VWS V14.01,2013-02-08 03:40:00,
2013-02-07 21:41:00,25.6,20.0,30.09,NNE,26,6.0,8.0,79,0.00,,OVC019,0.00,VWS V14.01,2013-02-08 03:41:00,
2013-02-07 21:42:00,25.6,20.0,30.09,NNE,27,6.0,8.0,79,0.00,,OVC019,0.00,VWS V14.01,2013-02-08 03:42:00,
2013-02-07 21:43:00,25.6,20.0,30.09,NNE,27,6.0,8.0,79,0.00,,OVC019,0.00,VWS V14.01,2013-02-08 03:43:00,
2013-02-07 21:44:00,25.6,20.0,30.09,NNE,29,7.0,8.0,79,0.00,,OVC019,0.00,VWS V14.01,2013-02-08 03:44:00,
2013-02-07 21:45:00,25.6,20.0,30.08,NNE,29,4.0,8.0,79,0.00,,OVC019,0.00,VWS V14.01,2013-02-08 03:45:00,
2013-02-07 21:46:00,25.6,20.0,30.08,NNE,29,6.0,8.0,79,0.00,,OVC019,0.00,VWS V14.01,2013-02-08 03:46:00,
2013-02-07 21:47:00,25.6,20.0,30.08,NNE,29,3.0,8.0,79,0.00,,OVC019,0.00,VWS V14.01,2013-02-08 03:47:00,
2013-02-07 21:48:00,25.6,20.0,30.08,NNE,31,6.0,8.0,79,0.00,,OVC019,0.00,VWS V14.01,2013-02-08 03:48:00,
2013-02-07 21:49:00,25.6,20.0,30.08,NE,34,6.0,8.0,79,0.00,,OVC019,0.00,VWS V14.01,2013-02-08 03:49:00,
2013-02-07 21:50:00,25.6,20.0,30.08,NE,34,3.0,8.0,79,0.00,,OVC019,0.00,VWS V14.01,2013-02-08 03:50:00,
2013-02-07 21:51:00,25.6,20.0,30.08,NE,34,4.0,8.0,79,0.00,,OVC019,0.00,VWS V14.01,2013-02-08 03:51:00,
2013-02-07 21:52:00,25.6,20.0,30.08,NE,34,4.0,8.0,79,0.00,,OVC019,0.00,VWS V14.01,2013-02-08 03:52:00,
2013-02-07 21:53:00,25.4,19.8,30.08,NE,34,1.0,8.0,79,0.00,,OVC019,0.00,VWS V14.01,2013-02-08 03:53:00,
2013-02-07 21:54:00,25.6,20.0,30.08,NNE,33,6.0,8.0,79,0.00,,OVC019,0.00,VWS V14.01,2013-02-08 03:54:00,
2013-02-07 21:55:00,25.4,19.8,30.08,NE,34,5.0,8.0,79,0.00,,OVC019,0.00,VWS V14.01,2013-02-08 03:55:00,
2013-02-07 21:56:00,25.6,20.0,30.08,NE,34,2.0,8.0,79,0.00,,OVC019,0.00,VWS V14.01,2013-02-08 03:56:00,
2013-02-07 21:57:00,25.4,19.8,30.08,NE,34,2.0,8.0,79,0.00,,OVC019,0.00,VWS V14.01,2013-02-08 03:57:00,
2013-02-07 21:58:00,25.4,19.8,30.08,NNE,31,6.0,8.0,79,0.00,,OVC019,0.00,VWS V14.01,2013-02-08 03:58:00,
2013-02-07 21:59:00,25.4,19.8,30.08,NNE,31,2.0,8.0,79,0.00,,OVC019,0.00,VWS V14.01,2013-02-08 03:59:00,
2013-02-07 22:00:00,25.4,19.8,30.09,NNE,33,10.0,10.0,79,0.00,,OVC019,0.00,VWS V14.01,2013-02-08 04:00:00,
2013-02-07 22:01:00,25.6,20.0,30.09,NNE,33,5.0,10.0,79,0.00,,OVC019,0.00,VWS V14.01,2013-02-08 04:01:00,
2013-02-07 22:02:00,25.6,20.0,30.09,NNE,33,2.0,10.0,79,0.00,,OVC019,0.00,VWS V14.01,2013-02-08 04:02:00,
2013-02-07 22:03:00,25.6,20.0,30.09,NNE,29,7.0,10.0,79,0.00,,OVC019,0.00,VWS V14.01,2013-02-08 04:03:00,
2013-02-07 22:04:00,25.6,20.0,30.09,NNE,29,5.0,10.0,79,0.00,,OVC019,0.00,VWS V14.01,2013-02-08 04:04:00,
2013-02-07 22:05:00,25.6,20.0,30.09,NNE,29,6.0,10.0,79,0.00,,OVC019,0.00,VWS V14.01,2013-02-08 04:05:00,
2013-02-07 22:06:00,25.6,20.0,30.09,NNE,24,8.0,10.0,79,0.00,,OVC019,0.00,VWS V14.01,2013-02-08 04:06:00,
2013-02-07 22:07:00,25.6,20.0,30.09,NE,37,8.0,11.0,79,0.00,,OVC019,0.00,VWS V14.01,2013-02-08 04:07:00,
2013-02-07 22:08:00,25.6,20.0,30.09,NE,34,8.0,11.0,79,0.00,,OVC019,0.00,VWS V14.01,2013-02-08 04:08:00,
2013-02-07 22:09:00,25.6,20.0,30.09,NNE,33,8.0,11.0,79,0.00,,OVC019,0.00,VWS V14.01,2013-02-08 04:09:00,
2013-02-07 22:10:00,25.6,20.0,30.09,NNE,33,6.0,11.0,79,0.00,,OVC019,0.00,VWS V14.01,2013-02-08 04:10:00,
2013-02-07 22:11:00,25.6,20.0,30.09,NNE,30,2.0,11.0,79,0.00,,OVC019,0.00,VWS V14.01,2013-02-08 04:11:00,
2013-02-07 22:12:00,25.6,20.0,30.09,NNE,30,6.0,11.0,79,0.00,,OVC019,0.00,VWS V14.01,2013-02-08 04:12:00,
2013-02-07 22:13:00,25.6,20.0,30.09,NNE,30,5.0,11.0,79,0.00,,OVC019,0.00,VWS V14.01,2013-02-08 04:13:00,
2013-02-07 22:14:00,25.6,20.0,30.09,NNE,30,2.0,11.0,79,0.00,,OVC019,0.00,VWS V14.01,2013-02-08 04:14:00,
2013-02-07 22:15:00,25.6,20.0,30.09,NNE,14,6.0,11.0,79,0.00,,OVC019,0.00,VWS V14.01,2013-02-08 04:15:00,
2013-02-07 22:16:00,25.6,20.0,30.09,North,9,6.0,11.0,79,0.00,,OVC019,0.00,VWS V14.01,2013-02-08 04:16:00,
2013-02-07 22:17:00,25.6,20.0,30.09,North,9,6.0,11.0,79,0.00,,OVC019,0.00,VWS V14.01,2013-02-08 04:17:00,
2013-02-07 22:18:00,25.6,20.0,30.09,NE,34,8.0,11.0,79,0.00,,OVC019,0.00,VWS V14.01,2013-02-08 04:18:00,
2013-02-07 22:19:00,25.6,20.0,30.09,NNE,23,5.0,11.0,79,0.00,,OVC019,0.00,VWS V14.01,2013-02-08 04:19:00,
2013-02-07 22:20:00,25.6,20.0,30.09,NNE,23,3.0,11.0,79,0.00,,OVC019,0.00,VWS V14.01,2013-02-08 04:20:00,
2013-02-07 22:21:00,25.6,20.0,30.09,NNE,23,2.0,11.0,79,0.00,,OVC019,0.00,VWS V14.01,2013-02-08 04:21:00,
2013-02-07 22:22:00,25.6,20.0,30.09,NE,48,7.0,11.0,79,0.00,,OVC019,0.00,VWS V14.01,2013-02-08 04:22:00,
2013-02-07 22:23:00,25.6,20.0,30.09,NE,48,7.0,11.0,79,0.00,,OVC019,0.00,VWS V14.01,2013-02-08 04:23:00,
2013-02-07 22:24:00,25.6,20.0,30.09,NE,50,12.0,12.0,79,0.00,,OVC019,0.00,VWS V14.01,2013-02-08 04:24:00,
2013-02-07 22:25:00,25.6,20.0,30.09,NE,51,6.0,12.0,79,0.00,,OVC019,0.00,VWS V14.01,2013-02-08 04:25:00,
2013-02-07 22:26:00,25.6,20.0,30.09,NE,53,2.0,12.0,79,0.00,,OVC019,0.00,VWS V14.01,2013-02-08 04:26:00,
2013-02-07 22:27:00,25.6,20.0,30.09,NE,53,0.0,12.0,79,0.00,,OVC019,0.00,VWS V14.01,2013-02-08 04:27:00,
2013-02-07 22:28:00,25.6,20.0,30.09,NE,50,3.0,12.0,79,0.00,,OVC019,0.00,VWS V14.01,2013-02-08 04:28:00,
2013-02-07 22:29:00,25.6,20.0,30.09,NE,50,3.0,12.0,79,0.00,,OVC019,0.00,VWS V14.01,2013-02-08 04:29:00,
2013-02-07 22:30:00,25.4,19.8,30.10,NE,53,6.0,12.0,79,0.00,,OVC019,0.00,VWS V14.01,2013-02-08 04:30:00,
2013-02-07 22:31:00,25.4,19.8,30.10,NE,53,1.0,7.0,79,0.00,,OVC019,0.00,VWS V14.01,2013-02-08 04:31:00,
2013-02-07 22:32:00,25.4,19.8,30.10,NE,53,4.0,7.0,79,0.00,,OVC019,0.00,VWS V14.01,2013-02-08 04:32:00,
2013-02-07 22:33:00,25.4,20.1,30.10,NE,53,5.0,7.0,80,0.00,,OVC019,0.00,VWS V14.01,2013-02-08 04:33:00,
2013-02-07 22:34:00,25.4,20.1,30.10,NE,53,2.0,7.0,80,0.00,,OVC019,0.00,VWS V14.01,2013-02-08 04:34:00,
2013-02-07 22:35:00,25.4,20.1,30.10,NE,53,0.0,7.0,80,0.00,,OVC019,0.00,VWS V14.01,2013-02-08 04:35:00,
2013-02-07 22:36:00,25.4,20.1,30.10,NE,53,2.0,7.0,80,0.00,,OVC019,0.00,VWS V14.01,2013-02-08 04:36:00,
2013-02-07 22:37:00,25.4,20.1,30.10,NE,53,4.0,7.0,80,0.00,,OVC019,0.00,VWS V14.01,2013-02-08 04:37:00,
2013-02-07 22:38:00,25.4,20.1,30.10,NE,51,5.0,7.0,80,0.00,,OVC019,0.00,VWS V14.01,2013-02-08 04:38:00,
2013-02-07 22:39:00,25.4,20.1,30.10,NE,50,6.0,7.0,80,0.00,,OVC019,0.00,VWS V14.01,2013-02-08 04:39:00,
2013-02-07 22:40:00,25.4,20.1,30.10,NE,48,6.0,7.0,80,0.00,,OVC019,0.00,VWS V14.01,2013-02-08 04:40:00,
2013-02-07 22:41:00,25.4,20.1,30.10,NE,48,5.0,7.0,80,0.00,,OVC019,0.00,VWS V14.01,2013-02-08 04:41:00,
2013-02-07 22:42:00,25.4,20.1,30.10,NE,46,2.0,7.0,80,0.00,,OVC019,0.00,VWS V14.01,2013-02-08 04:42:00,
2013-02-07 22:43:00,25.4,20.1,30.10,NNE,33,8.0,11.0,80,0.00,,OVC019,0.00,VWS V14.01,2013-02-08 04:43:00,
2013-02-07 22:44:00,25.4,20.1,30.10,NNE,33,6.0,11.0,80,0.00,,OVC019,0.00,VWS V14.01,2013-02-08 04:44:00,
2013-02-07 22:45:00,25.4,19.8,30.10,NNE,30,7.0,13.0,79,0.00,,OVC019,0.00,VWS V14.01,2013-02-08 04:45:00,
2013-02-07 22:46:00,25.4,19.8,30.10,NE,38,5.0,13.0,79,0.00,,OVC019,0.00,VWS V14.01,2013-02-08 04:46:00,
2013-02-07 22:47:00,25.4,19.8,30.10,NE,40,9.0,13.0,79,0.00,,OVC019,0.00,VWS V14.01,2013-02-08 04:47:00,
2013-02-07 22:48:00,25.4,19.8,30.10,NE,43,8.0,13.0,79,0.00,,OVC019,0.00,VWS V14.01,2013-02-08 04:48:00,
2013-02-07 22:49:00,25.4,19.8,30.10,NE,37,5.0,13.0,79,0.00,,OVC019,0.00,VWS V14.01,2013-02-08 04:49:00,
2013-02-07 22:50:00,25.4,19.8,30.10,NE,37,3.0,13.0,79,0.00,,OVC019,0.00,VWS V14.01,2013-02-08 04:50:00,
2013-02-07 22:51:00,25.4,19.8,30.10,NE,37,5.0,13.0,79,0.00,,OVC019,0.00,VWS V14.01,2013-02-08 04:51:00,
2013-02-07 22:52:00,25.4,19.8,30.10,NE,37,5.0,13.0,79,0.00,,OVC019,0.00,VWS V14.01,2013-02-08 04:52:00,
2013-02-07 22:53:00,25.4,19.8,30.10,NE,37,4.0,13.0,79,0.00,,OVC019,0.00,VWS V14.01,2013-02-08 04:53:00,
2013-02-07 22:54:00,25.4,19.8,30.10,NE,34,5.0,13.0,79,0.00,,OVC019,0.00,VWS V14.01,2013-02-08 04:54:00,
2013-02-07 22:55:00,25.4,19.8,30.10,NE,36,8.0,13.0,79,0.00,,OVC019,0.00,VWS V14.01,2013-02-08 04:55:00,
2013-02-07 22:56:00,25.4,19.8,30.10,NE,36,6.0,13.0,79,0.00,,OVC019,0.00,VWS V14.01,2013-02-08 04:56:00,
2013-02-07 22:57:00,25.4,19.8,30.10,NE,37,2.0,13.0,79,0.00,,OVC019,0.00,VWS V14.01,2013-02-08 04:57:00,
2013-02-07 22:58:00,25.4,19.8,30.10,NE,37,8.0,13.0,79,0.00,,OVC019,0.00,VWS V14.01,2013-02-08 04:58:00,
2013-02-07 22:59:00,25.4,19.8,30.10,NE,37,3.0,13.0,79,0.00,,OVC019,0.00,VWS V14.01,2013-02-08 04:59:00,
2013-02-07 23:00:00,25.4,19.8,30.10,NE,37,2.0,13.0,79,0.00,,OVC019,0.00,VWS V14.01,2013-02-08 05:00:00,
2013-02-07 23:01:00,25.4,19.8,30.10,NE,37,6.0,6.0,79,0.00,,OVC019,0.00,VWS V14.01,2013-02-08 05:01:00,
2013-02-07 23:02:00,25.3,19.7,30.10,NE,37,4.0,8.0,79,0.00,,OVC019,0.00,VWS V14.01,2013-02-08 05:02:00,
2013-02-07 23:03:00,25.3,19.7,30.10,NE,37,6.0,8.0,79,0.00,,OVC019,0.00,VWS V14.01,2013-02-08 05:03:00,
2013-02-07 23:04:00,25.3,19.7,30.10,NE,37,7.0,8.0,79,0.00,,OVC019,0.00,VWS V14.01,2013-02-08 05:04:00,
2013-02-07 23:05:00,25.3,19.7,30.10,NE,37,3.0,8.0,79,0.00,,OVC019,0.00,VWS V14.01,2013-02-08 05:05:00,
2013-02-07 23:06:00,25.3,19.7,30.10,NE,37,1.0,8.0,79,0.00,,OVC019,0.00,VWS V14.01,2013-02-08 05:06:00,
2013-02-07 23:07:00,25.3,19.7,30.10,NE,37,0.0,8.0,79,0.00,,OVC019,0.00,VWS V14.01,2013-02-08 05:07:00,
2013-02-07 23:08:00,25.3,19.7,30.10,NE,37,2.0,8.0,79,0.00,,OVC019,0.00,VWS V14.01,2013-02-08 05:08:00,
2013-02-07 23:09:00,25.3,19.7,30.10,NE,37,2.0,8.0,79,0.00,,OVC019,0.00,VWS V14.01,2013-02-08 05:09:00,
2013-02-07 23:10:00,25.3,19.7,30.10,NE,37,7.0,8.0,79,0.00,,OVC019,0.00,VWS V14.01,2013-02-08 05:10:00,
2013-02-07 23:11:00,25.3,19.7,30.10,NE,37,2.0,8.0,79,0.00,,OVC019,0.00,VWS V14.01,2013-02-08 05:11:00,
2013-02-07 23:12:00,25.3,19.7,30.10,NE,37,1.0,8.0,79,0.00,,OVC019,0.00,VWS V14.01,2013-02-08 05:12:00,
2013-02-07 23:13:00,25.3,19.7,30.10,NE,40,3.0,8.0,79,0.00,,OVC019,0.00,VWS V14.01,2013-02-08 05:13:00,
2013-02-07 23:14:00,25.3,20.0,30.10,NE,40,2.0,8.0,80,0.00,,OVC019,0.00,VWS V14.01,2013-02-08 05:14:00,
2013-02-07 23:15:00,25.3,20.0,30.09,NE,40,3.0,8.0,80,0.00,,OVC019,0.00,VWS V14.01,2013-02-08 05:15:00,
2013-02-07 23:16:00,25.3,20.0,30.09,NE,40,6.0,8.0,80,0.00,,OVC019,0.00,VWS V14.01,2013-02-08 05:16:00,
2013-02-07 23:17:00,25.3,20.0,30.09,NE,41,8.0,8.0,80,0.00,,OVC019,0.00,VWS V14.01,2013-02-08 05:17:00,
2013-02-07 23:18:00,25.3,20.0,30.09,NE,41,5.0,8.0,80,0.00,,OVC019,0.00,VWS V14.01,2013-02-08 05:18:00,
2013-02-07 23:19:00,25.3,20.0,30.09,NE,41,3.0,8.0,80,0.00,,OVC019,0.00,VWS V14.01,2013-02-08 05:19:00,
2013-02-07 23:20:00,25.1,19.8,30.09,NE,41,4.0,8.0,80,0.00,,OVC019,0.00,VWS V14.01,2013-02-08 05:20:00,
2013-02-07 23:21:00,25.1,19.8,30.09,NE,41,6.0,8.0,80,0.00,,OVC019,0.00,VWS V14.01,2013-02-08 05:21:00,
2013-02-07 23:22:00,25.1,19.8,30.09,NE,41,10.0,10.0,80,0.00,,OVC019,0.00,VWS V14.01,2013-02-08 05:22:00,
2013-02-07 23:23:00,25.1,19.8,30.09,NE,41,6.0,10.0,80,0.00,,OVC019,0.00,VWS V14.01,2013-02-08 05:23:00,
2013-02-07 23:24:00,25.1,19.8,30.09,NE,41,2.0,10.0,80,0.00,,OVC019,0.00,VWS V14.01,2013-02-08 05:24:00,
2013-02-07 23:25:00,25.1,19.8,30.09,NE,41,2.0,10.0,80,0.00,,OVC019,0.00,VWS V14.01,2013-02-08 05:25:00,
2013-02-07 23:26:00,25.1,19.8,30.09,NE,41,2.0,10.0,80,0.00,,OVC019,0.00,VWS V14.01,2013-02-08 05:26:00,
2013-02-07 23:27:00,25.1,19.8,30.09,NE,41,5.0,10.0,80,0.00,,OVC019,0.00,VWS V14.01,2013-02-08 05:27:00,
2013-02-07 23:28:00,25.1,19.8,30.09,NE,43,8.0,10.0,80,0.00,,OVC019,0.00,VWS V14.01,2013-02-08 05:28:00,
2013-02-07 23:29:00,25.1,19.8,30.09,NE,44,2.0,10.0,80,0.00,,OVC019,0.00,VWS V14.01,2013-02-08 05:29:00,
2013-02-07 23:30:00,25.1,20.1,30.09,NE,44,5.0,10.0,81,0.00,,OVC019,0.00,VWS V14.01,2013-02-08 05:30:00,
2013-02-07 23:31:00,25.1,20.1,30.09,NE,44,2.0,5.0,81,0.00,,OVC019,0.00,VWS V14.01,2013-02-08 05:31:00,
2013-02-07 23:32:00,25.1,20.1,30.09,NE,44,2.0,5.0,81,0.00,,OVC019,0.00,VWS V14.01,2013-02-08 05:32:00,
2013-02-07 23:33:00,25.1,20.1,30.09,NE,44,5.0,8.0,81,0.00,,OVC019,0.00,VWS V14.01,2013-02-08 05:33:00,
2013-02-07 23:34:00,25.1,20.1,30.09,NE,44,2.0,8.0,81,0.00,,OVC019,0.00,VWS V14.01,2013-02-08 05:34:00,
2013-02-07 23:35:00,25.1,20.1,30.09,NE,44,6.0,8.0,81,0.00,,OVC019,0.00,VWS V14.01,2013-02-08 05:35:00,
2013-02-07 23:36:00,25.0,20.0,30.09,NE,44,2.0,8.0,81,0.00,,OVC019,0.00,VWS V14.01,2013-02-08 05:36:00,
2013-02-07 23:37:00,25.0,20.0,30.09,NE,43,5.0,8.0,81,0.00,,OVC019,0.00,VWS V14.01,2013-02-08 05:37:00,
2013-02-07 23:38:00,25.0,20.0,30.09,NE,43,2.0,8.0,81,0.00,,OVC019,0.00,VWS V14.01,2013-02-08 05:38:00,
2013-02-07 23:39:00,25.0,20.0,30.09,NE,43,5.0,8.0,81,0.00,,OVC019,0.00,VWS V14.01,2013-02-08 05:39:00,
2013-02-07 23:40:00,25.0,20.0,30.09,NE,43,2.0,8.0,81,0.00,,OVC019,0.00,VWS V14.01,2013-02-08 05:40:00,
2013-02-07 23:41:00,25.0,20.0,30.09,NE,43,0.0,8.0,81,0.00,,OVC019,0.00,VWS V14.01,2013-02-08 05:41:00,
2013-02-07 23:42:00,25.0,20.0,30.09,NE,43,3.0,8.0,81,0.00,,OVC019,0.00,VWS V14.01,2013-02-08 05:42:00,
2013-02-07 23:43:00,25.0,20.0,30.09,NE,43,1.0,8.0,81,0.00,,OVC019,0.00,VWS V14.01,2013-02-08 05:43:00,
2013-02-07 23:44:00,25.0,20.0,30.09,NE,43,6.0,8.0,81,0.00,,OVC021,0.00,VWS V14.01,2013-02-08 05:44:00,
2013-02-07 23:45:00,25.0,20.0,30.10,NE,43,2.0,8.0,81,0.00,,OVC021,0.00,VWS V14.01,2013-02-08 05:45:00,
2013-02-07 23:46:00,25.0,20.0,30.10,NE,43,4.0,8.0,81,0.00,,OVC021,0.00,VWS V14.01,2013-02-08 05:46:00,
2013-02-07 23:47:00,25.0,20.0,30.10,NE,43,3.0,8.0,81,0.00,,OVC021,0.00,VWS V14.01,2013-02-08 05:47:00,
2013-02-07 23:48:00,25.0,20.3,30.10,NE,41,6.0,8.0,82,0.00,,OVC021,0.00,VWS V14.01,2013-02-08 05:48:00,
2013-02-07 23:49:00,25.0,20.3,30.10,NE,41,2.0,8.0,82,0.00,,OVC021,0.00,VWS V14.01,2013-02-08 05:49:00,
2013-02-07 23:50:00,25.0,20.3,30.10,NE,41,1.0,8.0,82,0.00,,OVC021,0.00,VWS V14.01,2013-02-08 05:50:00,
2013-02-07 23:51:00,25.0,20.3,30.10,NE,41,5.0,8.0,82,0.00,,OVC021,0.00,VWS V14.01,2013-02-08 05:51:00,
2013-02-07 23:52:00,25.0,20.3,30.10,NE,41,0.0,8.0,82,0.00,,OVC021,0.00,VWS V14.01,2013-02-08 05:52:00,
2013-02-07 23:53:00,25.0,20.3,30.10,NE,41,0.0,8.0,82,0.00,,OVC021,0.00,VWS V14.01,2013-02-08 05:53:00,
2013-02-07 23:54:00,25.0,20.3,30.10,NE,41,0.0,8.0,82,0.00,,OVC021,0.00,VWS V14.01,2013-02-08 05:54:00,
2013-02-07 23:55:00,25.0,20.3,30.10,NE,41,2.0,8.0,82,0.00,,OVC021,0.00,VWS V14.01,2013-02-08 05:55:00,
2013-02-07 23:56:00,24.8,20.1,30.10,NE,41,3.0,8.0,82,0.00,,OVC021,0.00,VWS V14.01,2013-02-08 05:56:00,
2013-02-07 23:57:00,24.8,20.1,30.10,NE,41,6.0,8.0,82,0.00,,OVC021,0.00,VWS V14.01,2013-02-08 05:57:00,
2013-02-07 23:58:00,24.8,20.1,30.10,NE,41,0.0,8.0,82,0.00,,OVC021,0.00,VWS V14.01,2013-02-08 05:58:00,
2013-02-07 23:59:00,24.8,20.1,30.10,NE,41,2.0,8.0,82,0.00,,OVC021,0.00,VWS V14.01,2013-02-08 05:59:00,